Darstellungsparameter: Aktuell verwendete Einstellungen:
Skalierung der Graphiken ... ?
xyx+y,   Skalierungsfaktor:      Skalierung: Modus: x, Faktor: 1
Darstellungszeitraum ... ?
Vom - - bis: - -   Zeitraum: 07.06.2004 - 06.12.2004
Min/Max/Avg-Anzeige ... ?
Zeige MMA aktuell
Zeige MMA Monat
Zeige MMA alles
Zeige --A aktuell
Zeige --A Monat
Zeige --A alles
Keine MMA-Anzeige
MMA:
Average (ber die Originaldaten)
MMA-Basis: 05.11.2014 - 07.12.2014
Quicknavigation für Darstellung... ?
Tage:      1T, 2T, 3T, 5T -1T -2T -3T -5T +1T +2T +3T +5T
Wochen: 1W, 2W, 3W -1W -2W -3W +1W +2W +3W
Monate: 1M, 3M, 6M -1M -3M -6M +1M +3M +6M
Jahre:    1J, 3J, 5J, 10J -1J -3J -5J -10J +1J +3J +5J +10J
Nutze für die Darstellung ... ?
Originaldaten oder Mittelwerte auf ...
Stundenbasis Tagesbasis Wochenbasis
Monatsbasis Jahresbasis      Datenbasis: Original-Daten
Darstellen als:
Statistik (Auto) Statistik J:M      Darstellung:
Zur Graphik,    zurück zur Übersicht aller Sensoren.
 
Tabellarische Datenbersicht: ?
 
Sensor: Nr:Datum:Temp:Abs-Feuchte:Windchill:Wind:
Aussen-T/F 1 07-06-2004 00:04:01 15.2 C 9.09 g/m*3 15.2 C 0 km/h
2 07-06-2004 00:16:01 15 C 9.1 g/m*3 15 C 0 km/h
3 07-06-2004 00:28:01 14.8 C 9.25 g/m*3 14.8 C 0 km/h
4 07-06-2004 00:40:01 14.7 C 9.19 g/m*3 14.7 C 0 km/h
5 07-06-2004 00:52:01 14.4 C 9.15 g/m*3 14.4 C 0 km/h
6 07-06-2004 01:04:01 14.2 C 9.16 g/m*3 14.2 C 0 km/h
7 07-06-2004 01:16:01 14 C 9.17 g/m*3 14 C 0 km/h
8 07-06-2004 01:28:01 14 C 9.17 g/m*3 14 C 0 km/h
9 07-06-2004 01:40:01 13.7 C 9.12 g/m*3 13.7 C 0 km/h
10 07-06-2004 01:52:01 13.3 C 9.01 g/m*3 13.3 C 0 km/h
11 07-06-2004 02:04:01 13.1 C 9.01 g/m*3 13.1 C 0 km/h
12 07-06-2004 02:16:01 13.1 C 9.01 g/m*3 13.1 C 0 km/h
13 07-06-2004 02:28:01 12.9 C 9.13 g/m*3 12.9 C 0 km/h
14 07-06-2004 02:40:01 12.9 C 9.13 g/m*3 12.9 C 0 km/h
15 07-06-2004 02:53:02 12.8 C 9.07 g/m*3 12.8 C 0 km/h
16 07-06-2004 03:05:02 12.5 C 8.91 g/m*3 12.5 C 0 km/h
17 07-06-2004 03:17:02 12.5 C 9.02 g/m*3 12.5 C 0 km/h
18 07-06-2004 03:29:02 12.3 C 8.9 g/m*3 12.3 C 0 km/h
19 07-06-2004 03:41:01 12.1 C 8.9 g/m*3 12.1 C 0 km/h
20 07-06-2004 03:53:01 12 C 8.85 g/m*3 12 C 0 km/h
21 07-06-2004 04:05:01 11.9 C 8.9 g/m*3 11.9 C 0 km/h
22 07-06-2004 04:17:01 11.8 C 8.84 g/m*3 11.8 C 0 km/h
23 07-06-2004 04:29:01 11.8 C 8.84 g/m*3 11.8 C 0 km/h
24 07-06-2004 04:41:01 11.7 C 8.79 g/m*3 11.7 C 0 km/h
25 07-06-2004 04:53:01 11.5 C 8.68 g/m*3 11.5 C 0 km/h
Sensor: Nr:Datum:Temp:Abs-Feuchte:Windchill:Wind:
Aussen-T/F 26 07-06-2004 05:05:01 11.4 C 8.72 g/m*3 11.4 C 0 km/h
27 07-06-2004 05:17:01 11.3 C 8.57 g/m*3 11.3 C 0 km/h
28 07-06-2004 05:29:01 11.2 C 8.51 g/m*3 11.2 C 0 km/h
29 07-06-2004 05:41:01 11.1 C 8.46 g/m*3 11.1 C 0 km/h
30 07-06-2004 05:53:01 11.1 C 8.46 g/m*3 11.1 C 0 km/h
31 07-06-2004 06:05:01 11 C 8.51 g/m*3 11 C 0 km/h
32 07-06-2004 06:17:01 11.1 C 8.56 g/m*3 11.1 C 0 km/h
33 07-06-2004 06:29:01 10.9 C 8.65 g/m*3 10.9 C 0 km/h
34 07-06-2004 06:41:01 11 C 8.71 g/m*3 11 C 0 km/h
35 07-06-2004 06:53:01 11.2 C 8.82 g/m*3 11.2 C 0 km/h
36 07-06-2004 07:05:01 11.4 C 8.83 g/m*3 11.4 C 0 km/h
37 07-06-2004 07:17:01 11.3 C 8.77 g/m*3 11.3 C 0 km/h
38 07-06-2004 07:29:01 11.5 C 8.88 g/m*3 11.5 C 0 km/h
39 07-06-2004 07:41:01 11.7 C 8.89 g/m*3 11.7 C 0 km/h
40 07-06-2004 07:53:01 11.8 C 8.95 g/m*3 11.8 C 0 km/h
41 07-06-2004 08:05:01 12.2 C 8.96 g/m*3 12.2 C 0 km/h
42 07-06-2004 08:17:01 12.5 C 8.91 g/m*3 12.5 C 0 km/h
43 07-06-2004 08:29:01 12.9 C 9.02 g/m*3 12.9 C 0 km/h
44 07-06-2004 08:41:01 13.3 C 9.01 g/m*3 13.3 C 0 km/h
45 07-06-2004 08:53:01 13.7 C 9.12 g/m*3 13.7 C 0 km/h
46 07-06-2004 09:05:01 14.2 C 9.16 g/m*3 14.2 C 0 km/h
47 07-06-2004 09:17:01 14.9 C 9.56 g/m*3 14.9 C 0 km/h
48 07-06-2004 09:29:01 15.6 C 9.44 g/m*3 15.6 C 0 km/h
49 07-06-2004 09:41:01 16.6 C 10.03 g/m*3 16.6 C 0 km/h
50 07-06-2004 09:53:01 17.4 C 10.23 g/m*3 17.4 C 0 km/h
Sensor: Nr:Datum:Temp:Abs-Feuchte:Windchill:Wind:
Aussen-T/F 51 07-06-2004 10:05:01 18.3 C 9.85 g/m*3 18.3 C 0 km/h
52 07-06-2004 10:17:01 19.1 C 10 g/m*3 19.1 C 0 km/h
53 07-06-2004 10:29:01 19.7 C 10.19 g/m*3 19.7 C 0 km/h
54 07-06-2004 10:41:01 20.7 C 10.62 g/m*3 20.7 C 0 km/h
55 07-06-2004 10:53:01 21.5 C 9.81 g/m*3 21.5 C 0 km/h
56 07-06-2004 11:05:01 22 C 9.51 g/m*3 22 C 0 km/h
57 07-06-2004 11:17:01 23.1 C 9.92 g/m*3 23.1 C 0 km/h
58 07-06-2004 11:29:01 23.7 C 9.63 g/m*3 23.7 C 0 km/h
59 07-06-2004 11:41:01 24.1 C 8.75 g/m*3 24.1 C 0 km/h
60 07-06-2004 11:53:01 24.8 C 8.42 g/m*3 24.8 C 0 km/h
61 07-06-2004 12:05:01 24.8 C 8.19 g/m*3 24.8 C 0 km/h
62 07-06-2004 12:17:01 25.6 C 7.62 g/m*3 25.6 C 0 km/h
63 07-06-2004 12:29:01 25.6 C 7.38 g/m*3 25.6 C 0 km/h
64 07-06-2004 12:41:02 26.7 C 7.85 g/m*3 26.7 C 0 km/h
65 07-06-2004 12:53:01 27.4 C 7.37 g/m*3 27.4 C 0 km/h
66 07-06-2004 13:05:02 26.4 C 6.97 g/m*3 26.4 C 0 km/h
67 07-06-2004 13:17:01 27.7 C 7.49 g/m*3 27.7 C 0 km/h
68 07-06-2004 13:29:01 29 C 7.18 g/m*3 29 C 0 km/h
69 07-06-2004 13:41:02 27.8 C 7.26 g/m*3 27.8 C 0 km/h
70 07-06-2004 13:53:02 28.7 C 7.06 g/m*3 28.7 C 0 km/h
71 07-06-2004 14:05:02 27.4 C 6.84 g/m*3 27.4 C 0 km/h
72 07-06-2004 14:17:02 27.3 C 7.85 g/m*3 27.3 C 0 km/h
73 07-06-2004 14:29:02 28 C 7.89 g/m*3 28 C 0 km/h
74 07-06-2004 14:41:02 28.4 C 7.78 g/m*3 28.4 C 0 km/h
75 07-06-2004 14:53:02 27.9 C 8.11 g/m*3 27.9 C 0 km/h
Sensor: Nr:Datum:Temp:Abs-Feuchte:Windchill:Wind:
Aussen-T/F 76 07-06-2004 15:05:02 28.8 C 7.67 g/m*3 28.8 C 0 km/h
77 07-06-2004 15:17:02 28.4 C 7.78 g/m*3 28.4 C 0 km/h
78 07-06-2004 15:29:02 29.3 C 7.59 g/m*3 29.3 C 0 km/h
79 07-06-2004 15:41:02 28.7 C 7.63 g/m*3 28.7 C 0 km/h
80 07-06-2004 15:53:01 29.2 C 7.55 g/m*3 29.2 C 0 km/h
81 07-06-2004 16:05:01 29.5 C 7.38 g/m*3 29.5 C 0 km/h
82 07-06-2004 16:17:01 29.5 C 7.67 g/m*3 29.5 C 0 km/h
83 07-06-2004 16:29:01 30 C 7.88 g/m*3 30 C 0 km/h
84 07-06-2004 16:41:01 30.3 C 8.01 g/m*3 30.3 C 0 km/h
85 07-06-2004 16:53:01 30.3 C 7.4 g/m*3 30.3 C 0 km/h
86 07-06-2004 17:05:01 30.4 C 7.44 g/m*3 30.4 C 0 km/h
87 07-06-2004 17:17:01 30.4 C 7.13 g/m*3 30.4 C 0 km/h
88 07-06-2004 17:29:01 30.6 C 6.89 g/m*3 30.6 C 0 km/h
89 07-06-2004 17:41:01 30.1 C 7.01 g/m*3 30.1 C 0 km/h
90 07-06-2004 17:53:01 30.1 C 7.32 g/m*3 30.1 C 0 km/h
91 07-06-2004 18:05:01 30.2 C 7.36 g/m*3 30.2 C 0 km/h
92 07-06-2004 18:17:01 30.6 C 7.2 g/m*3 30.6 C 0 km/h
93 07-06-2004 18:29:01 30.9 C 7 g/m*3 30.9 C 0 km/h
94 07-06-2004 18:41:01 30.6 C 7.2 g/m*3 30.6 C 0 km/h
95 07-06-2004 18:53:01 30.6 C 7.2 g/m*3 30.6 C 0 km/h
96 07-06-2004 19:05:01 30.3 C 7.7 g/m*3 30.3 C 0 km/h
97 07-06-2004 19:17:01 30.3 C 8.01 g/m*3 30.3 C 0 km/h
98 07-06-2004 19:29:01 29.9 C 9.05 g/m*3 29.9 C 0 km/h
99 07-06-2004 19:41:01 30.4 C 9.61 g/m*3 30.4 C 0 km/h
100 07-06-2004 19:53:01 30.3 C 9.55 g/m*3 30.3 C 0 km/h
Sensor: Nr:Datum:Temp:Abs-Feuchte:Windchill:Wind:
Aussen-T/F 101 07-06-2004 20:05:01 29.8 C 10.5 g/m*3 29.8 C 0 km/h
102 07-06-2004 20:17:01 28.6 C 10.12 g/m*3 28.6 C 0 km/h
103 07-06-2004 20:29:01 28.1 C 9.57 g/m*3 28.1 C 0 km/h
104 07-06-2004 20:41:01 27.4 C 9.47 g/m*3 27.4 C 0 km/h
105 07-06-2004 20:53:01 26.6 C 9.57 g/m*3 26.6 C 0 km/h
106 07-06-2004 21:05:01 25.1 C 9.49 g/m*3 25.1 C 0 km/h
107 07-06-2004 21:17:01 24.1 C 9.41 g/m*3 24.1 C 0 km/h
108 07-06-2004 21:29:01 23.6 C 10 g/m*3 23.6 C 0 km/h
109 07-06-2004 21:41:01 23 C 10.28 g/m*3 23 C 0 km/h
110 07-06-2004 21:53:01 22.8 C 10.57 g/m*3 22.8 C 0 km/h
111 07-06-2004 22:05:01 22.4 C 10.53 g/m*3 22.4 C 0 km/h
112 07-06-2004 22:17:01 22.2 C 10.41 g/m*3 22.2 C 0 km/h
113 07-06-2004 22:29:01 21.9 C 10.23 g/m*3 21.9 C 0 km/h
114 07-06-2004 22:41:01 21.1 C 9.77 g/m*3 21.1 C 0 km/h
115 07-06-2004 22:53:01 21.1 C 10.32 g/m*3 21.1 C 0 km/h
116 07-06-2004 23:05:01 20.6 C 10.56 g/m*3 20.6 C 0 km/h
117 07-06-2004 23:17:01 20.1 C 10.26 g/m*3 20.1 C 0 km/h
118 07-06-2004 23:29:01 19.8 C 10.59 g/m*3 19.8 C 0 km/h
119 07-06-2004 23:41:01 19.5 C 10.41 g/m*3 19.5 C 0 km/h
120 07-06-2004 23:53:01 19.5 C 10.57 g/m*3 19.5 C 0 km/h
121 08-06-2004 00:05:01 19.1 C 10.49 g/m*3 19.1 C 0 km/h
122 08-06-2004 00:17:01 18.8 C 10.63 g/m*3 18.8 C 0 km/h
123 08-06-2004 00:29:01 18.7 C 10.57 g/m*3 18.7 C 0 km/h
124 08-06-2004 00:41:00 18.4 C 10.38 g/m*3 18.4 C 0 km/h
125 08-06-2004 00:53:01 18.3 C 10.48 g/m*3 18.3 C 0 km/h
Sensor: Nr:Datum:Temp:Abs-Feuchte:Windchill:Wind:
Aussen-T/F 126 08-06-2004 01:05:01 17.9 C 10.38 g/m*3 17.9 C 0 km/h
127 08-06-2004 01:17:01 17.9 C 10.54 g/m*3 17.9 C 0 km/h
128 08-06-2004 01:29:01 17.7 C 10.56 g/m*3 17.7 C 0 km/h
129 08-06-2004 01:41:01 17.5 C 10.73 g/m*3 17.5 C 0 km/h
130 08-06-2004 01:53:01 17.4 C 10.52 g/m*3 17.4 C 0 km/h
131 08-06-2004 02:05:01 16.8 C 10.44 g/m*3 16.8 C 0 km/h
132 08-06-2004 02:17:01 16.7 C 10.52 g/m*3 16.7 C 0 km/h
133 08-06-2004 02:29:01 16.6 C 10.45 g/m*3 16.6 C 0 km/h
134 08-06-2004 02:41:01 16.6 C 10.45 g/m*3 16.6 C 0 km/h
135 08-06-2004 02:54:03 16.2 C 10.34 g/m*3 16.2 C 0 km/h
136 08-06-2004 03:06:03 16 C 10.49 g/m*3 16 C 0 km/h
137 08-06-2004 03:18:03 16 C 10.35 g/m*3 16 C 0 km/h
138 08-06-2004 03:30:03 15.7 C 10.3 g/m*3 15.7 C 0 km/h
139 08-06-2004 03:42:01 15.6 C 10.37 g/m*3 15.6 C 0 km/h
140 08-06-2004 03:54:01 15.5 C 10.44 g/m*3 15.5 C 0 km/h
141 08-06-2004 04:06:01 15.2 C 10.25 g/m*3 15.2 C 0 km/h
142 08-06-2004 04:18:01 14.9 C 10.32 g/m*3 14.9 C 0 km/h
143 08-06-2004 04:30:01 14.8 C 10.26 g/m*3 14.8 C 0 km/h
144 08-06-2004 04:42:01 14.9 C 10.32 g/m*3 14.9 C 0 km/h
145 08-06-2004 04:54:01 14.7 C 10.2 g/m*3 14.7 C 0 km/h
146 08-06-2004 05:06:01 14.7 C 10.2 g/m*3 14.7 C 0 km/h
147 08-06-2004 05:18:01 14.6 C 10.14 g/m*3 14.6 C 0 km/h
148 08-06-2004 05:30:01 14.6 C 10.14 g/m*3 14.6 C 0 km/h
149 08-06-2004 05:42:01 14.5 C 10.07 g/m*3 14.5 C 0 km/h
150 08-06-2004 05:54:01 14.5 C 10.07 g/m*3 14.5 C 0 km/h
Sensor: Nr:Datum:Temp:Abs-Feuchte:Windchill:Wind:
Aussen-T/F 151 08-06-2004 06:06:01 14.1 C 9.95 g/m*3 14.1 C 0 km/h
152 08-06-2004 06:18:01 14 C 10.01 g/m*3 14 C 0 km/h
153 08-06-2004 06:30:01 14 C 10.13 g/m*3 14 C 0 km/h
154 08-06-2004 06:42:01 14.2 C 10.26 g/m*3 14.2 C 0 km/h
155 08-06-2004 06:54:01 14.3 C 10.2 g/m*3 14.3 C 0 km/h
156 08-06-2004 07:06:01 14.6 C 10.39 g/m*3 14.6 C 0 km/h
157 08-06-2004 07:18:01 14.9 C 10.45 g/m*3 14.9 C 0 km/h
158 08-06-2004 07:30:01 15.2 C 10.38 g/m*3 15.2 C 0 km/h
159 08-06-2004 07:42:01 15.6 C 10.37 g/m*3 15.6 C 0 km/h
160 08-06-2004 07:54:01 15.8 C 10.36 g/m*3 15.8 C 0 km/h
161 08-06-2004 08:06:01 16.1 C 10.28 g/m*3 16.1 C 0 km/h
162 08-06-2004 08:18:01 16.4 C 10.33 g/m*3 16.4 C 0 km/h
163 08-06-2004 08:30:01 16.7 C 10.66 g/m*3 16.7 C 0 km/h
164 08-06-2004 08:42:01 17 C 10.42 g/m*3 17 C 0 km/h
165 08-06-2004 08:54:01 17.4 C 10.97 g/m*3 17.4 C 0 km/h
166 08-06-2004 09:06:01 18.1 C 11.12 g/m*3 18.1 C 0 km/h
167 08-06-2004 09:18:01 18.8 C 11.11 g/m*3 18.8 C 0 km/h
168 08-06-2004 09:30:01 19.7 C 11.38 g/m*3 19.7 C 0 km/h
169 08-06-2004 09:42:01 20.6 C 11.45 g/m*3 20.6 C 0 km/h
170 08-06-2004 09:54:01 21.3 C 11.74 g/m*3 21.3 C 0 km/h
171 08-06-2004 10:06:01 22 C 11.06 g/m*3 22 C 0 km/h
172 08-06-2004 10:18:01 22.7 C 11.72 g/m*3 22.7 C 0 km/h
173 08-06-2004 10:30:01 23.2 C 11.23 g/m*3 23.2 C 0 km/h
174 08-06-2004 10:42:01 24.1 C 11.82 g/m*3 24.1 C 0 km/h
175 08-06-2004 10:54:01 25 C 11.74 g/m*3 25 C 0 km/h
Sensor: Nr:Datum:Temp:Abs-Feuchte:Windchill:Wind:
Aussen-T/F 176 08-06-2004 11:06:01 25.1 C 11.11 g/m*3 25.1 C 0 km/h
177 08-06-2004 11:18:01 25.7 C 10.77 g/m*3 25.7 C 0 km/h
178 08-06-2004 11:30:01 26.3 C 10.64 g/m*3 26.3 C 0 km/h
179 08-06-2004 11:42:01 26.7 C 10.63 g/m*3 26.7 C 0 km/h
180 08-06-2004 11:54:01 27.1 C 10.09 g/m*3 27.1 C 0 km/h
181 08-06-2004 12:06:01 27.8 C 9.95 g/m*3 27.8 C 0 km/h
182 08-06-2004 12:18:01 28.4 C 9.73 g/m*3 28.4 C 0 km/h
183 08-06-2004 12:30:01 28.6 C 9.27 g/m*3 28.6 C 0 km/h
184 08-06-2004 12:42:02 29.3 C 9.34 g/m*3 29.3 C 0 km/h
185 08-06-2004 12:54:01 29.2 C 8.71 g/m*3 29.2 C 0 km/h
186 08-06-2004 13:06:02 29.9 C 9.35 g/m*3 29.9 C 0 km/h
187 08-06-2004 13:18:02 30.4 C 9.3 g/m*3 30.4 C 0 km/h
188 08-06-2004 13:30:02 30.7 C 8.19 g/m*3 30.7 C 0 km/h
189 08-06-2004 13:42:02 30.9 C 7.96 g/m*3 30.9 C 0 km/h
190 08-06-2004 13:54:01 30.6 C 7.83 g/m*3 30.6 C 0 km/h
191 08-06-2004 14:06:01 30.6 C 8.14 g/m*3 30.6 C 0 km/h
192 08-06-2004 14:18:01 30.6 C 7.83 g/m*3 30.6 C 0 km/h
193 08-06-2004 14:30:01 30.4 C 7.75 g/m*3 30.4 C 0 km/h
194 08-06-2004 14:42:01 30.7 C 7.87 g/m*3 30.7 C 0 km/h
195 08-06-2004 14:54:01 31 C 8 g/m*3 31 C 0 km/h
196 08-06-2004 15:06:01 30.9 C 7.96 g/m*3 30.9 C 0 km/h
197 08-06-2004 15:18:01 31.1 C 7.72 g/m*3 31.1 C 0 km/h
198 08-06-2004 15:30:01 31.1 C 7.72 g/m*3 31.1 C 0 km/h
199 08-06-2004 15:42:01 31.4 C 7.85 g/m*3 31.4 C 0 km/h
200 08-06-2004 15:54:01 31.4 C 7.52 g/m*3 31.4 C 0 km/h
Sensor: Nr:Datum:Temp:Abs-Feuchte:Windchill:Wind:
Aussen-T/F 201 08-06-2004 16:06:01 31.4 C 7.85 g/m*3 31.4 C 0 km/h
202 08-06-2004 16:18:01 31.5 C 7.89 g/m*3 31.5 C 0 km/h
203 08-06-2004 16:30:01 31.8 C 7.68 g/m*3 31.8 C 0 km/h
204 08-06-2004 16:42:01 31.6 C 7.6 g/m*3 31.6 C 0 km/h
205 08-06-2004 16:54:01 32.4 C 7.93 g/m*3 32.4 C 0 km/h
206 08-06-2004 17:06:01 32 C 7.76 g/m*3 32 C 0 km/h
207 08-06-2004 17:18:01 32 C 8.44 g/m*3 32 C 0 km/h
208 08-06-2004 17:30:01 32 C 7.76 g/m*3 32 C 0 km/h
209 08-06-2004 17:42:03 32.3 C 8.58 g/m*3 32.3 C 0 km/h
210 08-06-2004 17:54:02 32.3 C 8.58 g/m*3 32.3 C 0 km/h
211 08-06-2004 18:06:02 32.5 C 8.67 g/m*3 32.5 C 0 km/h
212 08-06-2004 18:18:02 32.3 C 8.58 g/m*3 32.3 C 0 km/h
213 08-06-2004 18:30:02 32.3 C 8.58 g/m*3 32.3 C 0 km/h
214 08-06-2004 18:42:04 32.3 C 8.58 g/m*3 32.3 C 0 km/h
215 08-06-2004 18:54:03 32.1 C 8.82 g/m*3 32.1 C 0 km/h
216 08-06-2004 19:06:03 32.3 C 7.89 g/m*3 32.3 C 0 km/h
217 08-06-2004 19:18:03 32.4 C 8.62 g/m*3 32.4 C 0 km/h
218 08-06-2004 19:30:03 32.1 C 9.84 g/m*3 32.1 C 0 km/h
219 08-06-2004 19:42:03 31.9 C 10.41 g/m*3 31.9 C 0 km/h
220 08-06-2004 19:54:04 31.5 C 9.86 g/m*3 31.5 C 0 km/h
221 08-06-2004 20:06:02 31.2 C 10.35 g/m*3 31.2 C 0 km/h
222 08-06-2004 20:18:01 30.8 C 10.45 g/m*3 30.8 C 0 km/h
223 08-06-2004 20:30:01 30.4 C 10.85 g/m*3 30.4 C 0 km/h
224 08-06-2004 20:42:01 29.8 C 11.1 g/m*3 29.8 C 0 km/h
225 08-06-2004 20:54:01 28.9 C 11.14 g/m*3 28.9 C 0 km/h
Sensor: Nr:Datum:Temp:Abs-Feuchte:Windchill:Wind:
Aussen-T/F 226 08-06-2004 21:06:01 27.6 C 11.17 g/m*3 27.6 C 0 km/h
227 08-06-2004 21:18:01 27.3 C 11.51 g/m*3 27.3 C 0 km/h
228 08-06-2004 21:30:01 26.9 C 11.77 g/m*3 26.9 C 0 km/h
229 08-06-2004 21:42:01 26.5 C 11.77 g/m*3 26.5 C 0 km/h
230 08-06-2004 21:54:01 25.7 C 11.97 g/m*3 25.7 C 0 km/h
231 08-06-2004 22:06:01 25.3 C 11.94 g/m*3 25.3 C 0 km/h
232 08-06-2004 22:18:02 24.9 C 11.67 g/m*3 24.9 C 0 km/h
233 08-06-2004 22:30:02 24.7 C 12 g/m*3 24.7 C 0 km/h
234 08-06-2004 22:42:01 24.5 C 11.86 g/m*3 24.5 C 0 km/h
235 08-06-2004 22:54:01 24.2 C 11.88 g/m*3 24.2 C 0 km/h
236 08-06-2004 23:06:01 24.1 C 12.03 g/m*3 24.1 C 0 km/h
237 08-06-2004 23:18:02 23.6 C 11.91 g/m*3 23.6 C 0 km/h
238 08-06-2004 23:30:02 23.2 C 12.06 g/m*3 23.2 C 0 km/h
239 08-06-2004 23:42:02 23 C 12.33 g/m*3 23 C 0 km/h
240 08-06-2004 23:54:02 22.8 C 12.6 g/m*3 22.8 C 0 km/h
241 09-06-2004 00:06:02 22.6 C 12.25 g/m*3 22.6 C 0 km/h
242 09-06-2004 00:18:02 22.4 C 12.31 g/m*3 22.4 C 0 km/h
243 09-06-2004 00:30:02 22 C 12.03 g/m*3 22 C 0 km/h
244 09-06-2004 00:42:02 21.4 C 12.19 g/m*3 21.4 C 0 km/h
245 09-06-2004 00:54:01 21 C 12.09 g/m*3 21 C 0 km/h
246 09-06-2004 01:06:01 21 C 11.91 g/m*3 21 C 0 km/h
247 09-06-2004 01:18:01 21.1 C 12.34 g/m*3 21.1 C 0 km/h
248 09-06-2004 01:30:01 20.9 C 12.02 g/m*3 20.9 C 0 km/h
249 09-06-2004 01:42:01 20.6 C 11.99 g/m*3 20.6 C 0 km/h
250 09-06-2004 01:54:01 20.3 C 11.96 g/m*3 20.3 C 0 km/h
Sensor: Nr:Datum:Temp:Abs-Feuchte:Windchill:Wind:
Aussen-T/F 251 09-06-2004 02:06:01 20.3 C 11.96 g/m*3 20.3 C 0 km/h
252 09-06-2004 02:18:01 19.9 C 12.03 g/m*3 19.9 C 0 km/h
253 09-06-2004 02:30:01 19.9 C 12.03 g/m*3 19.9 C 0 km/h
254 09-06-2004 02:42:01 19.7 C 12.06 g/m*3 19.7 C 0 km/h
255 09-06-2004 02:55:03 19.6 C 11.99 g/m*3 19.6 C 0 km/h
256 09-06-2004 03:07:03 19.5 C 11.92 g/m*3 19.5 C 0 km/h
257 09-06-2004 03:19:03 19.3 C 11.78 g/m*3 19.3 C 0 km/h
258 09-06-2004 03:31:01 19.2 C 11.87 g/m*3 19.2 C 0 km/h
259 09-06-2004 03:43:01 19.1 C 11.8 g/m*3 19.1 C 0 km/h
260 09-06-2004 03:55:01 18.8 C 11.92 g/m*3 18.8 C 0 km/h
261 09-06-2004 04:07:01 18.7 C 11.85 g/m*3 18.7 C 0 km/h
262 09-06-2004 04:19:01 18.4 C 11.8 g/m*3 18.4 C 0 km/h
263 09-06-2004 04:31:01 18.3 C 11.88 g/m*3 18.3 C 0 km/h
264 09-06-2004 04:43:01 18.1 C 11.74 g/m*3 18.1 C 0 km/h
265 09-06-2004 04:55:01 18.2 C 11.81 g/m*3 18.2 C 0 km/h
266 09-06-2004 05:07:01 17.8 C 11.84 g/m*3 17.8 C 0 km/h
267 09-06-2004 05:19:01 17.6 C 11.7 g/m*3 17.6 C 0 km/h
268 09-06-2004 05:31:01 17.5 C 11.63 g/m*3 17.5 C 0 km/h
269 09-06-2004 05:43:01 17.6 C 11.85 g/m*3 17.6 C 0 km/h
270 09-06-2004 05:55:01 17.5 C 11.78 g/m*3 17.5 C 0 km/h
271 09-06-2004 06:07:01 17.6 C 11.85 g/m*3 17.6 C 0 km/h
272 09-06-2004 06:19:01 17.7 C 11.62 g/m*3 17.7 C 0 km/h
273 09-06-2004 06:31:01 17.6 C 11.7 g/m*3 17.6 C 0 km/h
274 09-06-2004 06:43:01 17.8 C 11.84 g/m*3 17.8 C 0 km/h
275 09-06-2004 06:55:01 18.1 C 11.74 g/m*3 18.1 C 0 km/h
Sensor: Nr:Datum:Temp:Abs-Feuchte:Windchill:Wind:
Aussen-T/F 276 09-06-2004 07:07:01 18.3 C 11.73 g/m*3 18.3 C 0 km/h
277 09-06-2004 07:19:01 18.5 C 11.71 g/m*3 18.5 C 0 km/h
278 09-06-2004 07:31:01 18.9 C 12.15 g/m*3 18.9 C 0 km/h
279 09-06-2004 07:43:01 19.2 C 12.2 g/m*3 19.2 C 0 km/h
280 09-06-2004 07:55:01 19.5 C 12.25 g/m*3 19.5 C 0 km/h
281 09-06-2004 08:07:01 19.8 C 12.3 g/m*3 19.8 C 0 km/h
282 09-06-2004 08:19:01 20.3 C 12.49 g/m*3 20.3 C 0 km/h
283 09-06-2004 08:31:01 20.6 C 12.35 g/m*3 20.6 C 0 km/h
284 09-06-2004 08:43:01 21.1 C 12.34 g/m*3 21.1 C 0 km/h
285 09-06-2004 08:55:01 21.6 C 12.71 g/m*3 21.6 C 0 km/h
286 09-06-2004 09:07:01 22.1 C 12.69 g/m*3 22.1 C 0 km/h
287 09-06-2004 09:19:01 22.6 C 13.26 g/m*3 22.6 C 0 km/h
288 09-06-2004 09:31:00 23.3 C 12.55 g/m*3 23.3 C 0 km/h
289 09-06-2004 09:43:00 24.1 C 12.69 g/m*3 24.1 C 0 km/h
290 09-06-2004 09:55:01 24.6 C 12.83 g/m*3 24.6 C 0 km/h
291 09-06-2004 10:07:01 25.1 C 12.96 g/m*3 25.1 C 0 km/h
292 09-06-2004 10:19:01 25.4 C 13.18 g/m*3 25.4 C 0 km/h
293 09-06-2004 10:31:01 26 C 12.66 g/m*3 26 C 0 km/h
294 09-06-2004 10:43:01 26.6 C 12.84 g/m*3 26.6 C 0 km/h
295 09-06-2004 10:55:01 27.6 C 13.57 g/m*3 27.6 C 0 km/h
296 09-06-2004 11:07:01 27.9 C 12.98 g/m*3 27.9 C 0 km/h
297 09-06-2004 11:19:01 28.8 C 13.07 g/m*3 28.8 C 0 km/h
298 09-06-2004 11:31:01 29.3 C 13.14 g/m*3 29.3 C 0 km/h
299 09-06-2004 11:43:01 30 C 12.43 g/m*3 30 C 0 km/h
300 09-06-2004 11:55:01 30.3 C 13.87 g/m*3 30.3 C 0 km/h
Sensor: Nr:Datum:Temp:Abs-Feuchte:Windchill:Wind:
Aussen-T/F 301 09-06-2004 12:07:01 30.2 C 14.1 g/m*3 30.2 C 0 km/h
302 09-06-2004 12:19:01 30.6 C 13.16 g/m*3 30.6 C 0 km/h
303 09-06-2004 12:31:01 31 C 12.16 g/m*3 31 C 0 km/h
304 09-06-2004 12:43:01 30.7 C 11.65 g/m*3 30.7 C 0 km/h
305 09-06-2004 12:55:01 30.4 C 12.08 g/m*3 30.4 C 0 km/h
306 09-06-2004 13:07:01 30.7 C 11.34 g/m*3 30.7 C 0 km/h
307 09-06-2004 13:19:01 31.3 C 10.73 g/m*3 31.3 C 0 km/h
308 09-06-2004 13:31:01 31.3 C 10.73 g/m*3 31.3 C 0 km/h
309 09-06-2004 13:43:01 32 C 11.14 g/m*3 32 C 0 km/h
310 09-06-2004 13:55:01 31.7 C 10.63 g/m*3 31.7 C 0 km/h
311 09-06-2004 14:07:01 31.6 C 10.91 g/m*3 31.6 C 0 km/h
312 09-06-2004 14:19:01 31.5 C 10.19 g/m*3 31.5 C 0 km/h
313 09-06-2004 14:31:01 31.8 C 10.69 g/m*3 31.8 C 0 km/h
314 09-06-2004 14:43:01 31.2 C 11 g/m*3 31.2 C 0 km/h
315 09-06-2004 14:55:01 31.1 C 10.62 g/m*3 31.1 C 0 km/h
316 09-06-2004 15:07:02 31.8 C 10.35 g/m*3 31.8 C 0 km/h
317 09-06-2004 15:19:01 31.9 C 9.4 g/m*3 31.9 C 0 km/h
318 09-06-2004 15:31:01 31.4 C 9.81 g/m*3 31.4 C 0 km/h
319 09-06-2004 15:43:01 30.6 C 10.65 g/m*3 30.6 C 0 km/h
320 09-06-2004 15:55:02 28.9 C 16.28 g/m*3 28.9 C 0 km/h
321 09-06-2004 16:07:02 28.8 C 16.19 g/m*3 28.8 C 0 km/h
322 09-06-2004 16:19:02 29.6 C 12.76 g/m*3 29.6 C 0 km/h
323 09-06-2004 16:31:02 29.5 C 15.35 g/m*3 29.5 C 0 km/h
324 09-06-2004 16:43:02 26.6 C 11.33 g/m*3 26.6 C 0 km/h
325 09-06-2004 16:55:02 27.7 C 12.3 g/m*3 27.7 C 0 km/h
Sensor: Nr:Datum:Temp:Abs-Feuchte:Windchill:Wind:
Aussen-T/F 326 09-06-2004 17:07:02 30.6 C 11.59 g/m*3 30.6 C 0 km/h
327 09-06-2004 17:19:02 31.3 C 11.06 g/m*3 31.3 C 0 km/h
328 09-06-2004 17:31:02 31.7 C 10.63 g/m*3 31.7 C 0 km/h
329 09-06-2004 17:43:02 31.6 C 11.24 g/m*3 31.6 C 0 km/h
330 09-06-2004 17:55:01 31.4 C 12.75 g/m*3 31.4 C 0 km/h
331 09-06-2004 18:07:01 31.5 C 13.15 g/m*3 31.5 C 0 km/h
332 09-06-2004 18:19:01 31 C 13.44 g/m*3 31 C 0 km/h
333 09-06-2004 18:31:01 30.4 C 13.32 g/m*3 30.4 C 0 km/h
334 09-06-2004 18:43:01 29 C 13.21 g/m*3 29 C 0 km/h
335 09-06-2004 18:55:01 28.8 C 13.92 g/m*3 28.8 C 0 km/h
336 09-06-2004 19:07:01 28.7 C 13.85 g/m*3 28.7 C 0 km/h
337 09-06-2004 19:19:01 28.2 C 13.75 g/m*3 28.2 C 0 km/h
338 09-06-2004 19:31:01 28.4 C 13.9 g/m*3 28.4 C 0 km/h
339 09-06-2004 19:43:01 28 C 13.6 g/m*3 28 C 0 km/h
340 09-06-2004 19:55:01 28.3 C 13.82 g/m*3 28.3 C 0 km/h
341 09-06-2004 20:07:01 27.9 C 14.33 g/m*3 27.9 C 0 km/h
342 09-06-2004 20:19:01 27.2 C 14.57 g/m*3 27.2 C 0 km/h
343 09-06-2004 20:31:01 26.6 C 14.85 g/m*3 26.6 C 0 km/h
344 09-06-2004 20:43:01 25.6 C 14.76 g/m*3 25.6 C 0 km/h
345 09-06-2004 20:55:01 25.2 C 14.43 g/m*3 25.2 C 0 km/h
346 09-06-2004 21:07:01 24.9 C 14.42 g/m*3 24.9 C 0 km/h
347 09-06-2004 21:19:01 24.8 C 14.34 g/m*3 24.8 C 0 km/h
348 09-06-2004 21:31:01 24.5 C 14.1 g/m*3 24.5 C 0 km/h
349 09-06-2004 21:43:01 24.3 C 14.16 g/m*3 24.3 C 0 km/h
350 09-06-2004 21:55:01 24.1 C 14.22 g/m*3 24.1 C 0 km/h
Sensor: Nr:Datum:Temp:Abs-Feuchte:Windchill:Wind:
Aussen-T/F 351 09-06-2004 22:07:01 23.9 C 14.49 g/m*3 23.9 C 0 km/h
352 09-06-2004 22:19:01 23.9 C 14.71 g/m*3 23.9 C 0 km/h
353 09-06-2004 22:31:01 23.6 C 14.68 g/m*3 23.6 C 0 km/h
354 09-06-2004 22:43:01 23.6 C 14.68 g/m*3 23.6 C 0 km/h
355 09-06-2004 22:55:01 23.6 C 14.68 g/m*3 23.6 C 0 km/h
356 09-06-2004 23:07:01 23.3 C 14.64 g/m*3 23.3 C 0 km/h
357 09-06-2004 23:19:01 22.9 C 14.71 g/m*3 22.9 C 0 km/h
358 09-06-2004 23:31:01 22.6 C 14.66 g/m*3 22.6 C 0 km/h
359 09-06-2004 23:43:01 22.4 C 14.7 g/m*3 22.4 C 0 km/h
360 09-06-2004 23:55:01 21.9 C 14.67 g/m*3 21.9 C 0 km/h
361 10-06-2004 00:07:01 21.7 C 14.69 g/m*3 21.7 C 0 km/h
362 10-06-2004 00:19:01 21.6 C 14.79 g/m*3 21.6 C 0 km/h
363 10-06-2004 00:31:01 21.6 C 14.6 g/m*3 21.6 C 0 km/h
364 10-06-2004 00:43:01 21.6 C 14.6 g/m*3 21.6 C 0 km/h
365 10-06-2004 00:55:01 21.3 C 14.35 g/m*3 21.3 C 0 km/h
366 10-06-2004 01:07:01 21.3 C 14.35 g/m*3 21.3 C 0 km/h
367 10-06-2004 01:19:01 21 C 14.29 g/m*3 21 C 0 km/h
368 10-06-2004 01:31:01 20.8 C 14.12 g/m*3 20.8 C 0 km/h
369 10-06-2004 01:43:01 20.7 C 13.86 g/m*3 20.7 C 0 km/h
370 10-06-2004 01:55:01 20.4 C 13.27 g/m*3 20.4 C 0 km/h
371 10-06-2004 02:07:01 20.2 C 13.29 g/m*3 20.2 C 0 km/h
372 10-06-2004 02:19:01 20.1 C 13.39 g/m*3 20.1 C 0 km/h
373 10-06-2004 02:31:01 20 C 13.31 g/m*3 20 C 0 km/h
374 10-06-2004 02:43:01 19.8 C 13.66 g/m*3 19.8 C 0 km/h
375 10-06-2004 02:56:02 19.7 C 13.92 g/m*3 19.7 C 0 km/h
Sensor: Nr:Datum:Temp:Abs-Feuchte:Windchill:Wind:
Aussen-T/F 376 10-06-2004 03:08:02 19.7 C 13.75 g/m*3 19.7 C 0 km/h
377 10-06-2004 03:20:02 19.7 C 13.58 g/m*3 19.7 C 0 km/h
378 10-06-2004 03:32:01 19.5 C 13.59 g/m*3 19.5 C 0 km/h
379 10-06-2004 03:44:01 19.4 C 13.51 g/m*3 19.4 C 0 km/h
380 10-06-2004 03:56:01 19.2 C 13.52 g/m*3 19.2 C 0 km/h
381 10-06-2004 04:08:01 19.2 C 13.36 g/m*3 19.2 C 0 km/h
382 10-06-2004 04:20:01 19.1 C 13.28 g/m*3 19.1 C 0 km/h
383 10-06-2004 04:32:01 19.1 C 13.44 g/m*3 19.1 C 0 km/h
384 10-06-2004 04:44:01 18.8 C 13.37 g/m*3 18.8 C 0 km/h
385 10-06-2004 04:56:01 18.7 C 13.45 g/m*3 18.7 C 0 km/h
386 10-06-2004 05:08:01 18.7 C 13.45 g/m*3 18.7 C 0 km/h
387 10-06-2004 05:20:01 18.5 C 13.29 g/m*3 18.5 C 0 km/h
388 10-06-2004 05:32:01 18.6 C 13.37 g/m*3 18.6 C 0 km/h
389 10-06-2004 05:44:01 18.6 C 13.37 g/m*3 18.6 C 0 km/h
390 10-06-2004 05:56:01 18.5 C 13.29 g/m*3 18.5 C 0 km/h
391 10-06-2004 06:08:01 18.6 C 13.53 g/m*3 18.6 C 0 km/h
392 10-06-2004 06:20:01 18.6 C 13.53 g/m*3 18.6 C 0 km/h
393 10-06-2004 06:32:02 18.7 C 13.45 g/m*3 18.7 C 0 km/h
394 10-06-2004 06:44:02 19 C 13.53 g/m*3 19 C 0 km/h
395 10-06-2004 06:56:01 19.1 C 13.28 g/m*3 19.1 C 0 km/h
396 10-06-2004 07:08:02 19.4 C 13.51 g/m*3 19.4 C 0 km/h
397 10-06-2004 07:20:02 19.6 C 13.51 g/m*3 19.6 C 0 km/h
398 10-06-2004 07:32:02 19.7 C 13.41 g/m*3 19.7 C 0 km/h
399 10-06-2004 07:44:02 19.9 C 13.57 g/m*3 19.9 C 0 km/h
400 10-06-2004 07:56:01 20.3 C 13.54 g/m*3 20.3 C 0 km/h
Sensor: Nr:Datum:Temp:Abs-Feuchte:Windchill:Wind:
Aussen-T/F 401 10-06-2004 08:08:01 20.4 C 13.27 g/m*3 20.4 C 0 km/h
402 10-06-2004 08:20:01 20.8 C 13.4 g/m*3 20.8 C 0 km/h
403 10-06-2004 08:32:01 20.9 C 13.48 g/m*3 20.9 C 0 km/h
404 10-06-2004 08:44:01 21.7 C 13.93 g/m*3 21.7 C 0 km/h
405 10-06-2004 08:56:01 22.3 C 14.02 g/m*3 22.3 C 0 km/h
406 10-06-2004 09:08:01 22.4 C 13.7 g/m*3 22.4 C 0 km/h
407 10-06-2004 09:20:01 22.8 C 14.02 g/m*3 22.8 C 0 km/h
408 10-06-2004 09:32:01 23.5 C 13.96 g/m*3 23.5 C 0 km/h
409 10-06-2004 09:44:01 24.2 C 14.08 g/m*3 24.2 C 0 km/h
410 10-06-2004 09:56:01 24.2 C 13.86 g/m*3 24.2 C 0 km/h
411 10-06-2004 10:08:01 24.3 C 13.5 g/m*3 24.3 C 0 km/h
412 10-06-2004 10:20:01 24.6 C 13.5 g/m*3 24.6 C 0 km/h
413 10-06-2004 10:32:01 25 C 13.58 g/m*3 25 C 0 km/h
414 10-06-2004 10:44:01 25.6 C 13.81 g/m*3 25.6 C 0 km/h
415 10-06-2004 10:56:01 25.8 C 13.72 g/m*3 25.8 C 0 km/h
416 10-06-2004 11:08:01 26.6 C 13.84 g/m*3 26.6 C 0 km/h
417 10-06-2004 11:20:01 26.8 C 13.49 g/m*3 26.8 C 0 km/h
418 10-06-2004 11:32:01 27.2 C 13.53 g/m*3 27.2 C 0 km/h
419 10-06-2004 11:44:01 26.4 C 13.19 g/m*3 26.4 C 0 km/h
420 10-06-2004 11:56:01 28.1 C 13.13 g/m*3 28.1 C 0 km/h
421 10-06-2004 12:08:01 28 C 13.6 g/m*3 28 C 0 km/h
422 10-06-2004 12:20:01 29.6 C 13.06 g/m*3 29.6 C 0 km/h
423 10-06-2004 12:32:01 29.8 C 13.2 g/m*3 29.8 C 0 km/h
424 10-06-2004 12:44:01 29.3 C 13.43 g/m*3 29.3 C 0 km/h
425 10-06-2004 12:56:01 30.3 C 12.02 g/m*3 30.3 C 0 km/h
Sensor: Nr:Datum:Temp:Abs-Feuchte:Windchill:Wind:
Aussen-T/F 426 10-06-2004 13:08:01 28.7 C 13.56 g/m*3 28.7 C 0 km/h
427 10-06-2004 13:20:01 27.8 C 13.45 g/m*3 27.8 C 0 km/h
428 10-06-2004 13:32:01 26.6 C 13.59 g/m*3 26.6 C 0 km/h
429 10-06-2004 13:44:01 23.2 C 15.59 g/m*3 23.2 C 0 km/h
430 10-06-2004 13:56:01 22 C 16.3 g/m*3 22 C 0 km/h
431 10-06-2004 14:08:01 21.1 C 16.21 g/m*3 21.1 C 0 km/h
432 10-06-2004 14:20:01 20.9 C 16.21 g/m*3 20.9 C 0 km/h
433 10-06-2004 14:32:01 20 C 15.04 g/m*3 20 C 0 km/h
434 10-06-2004 14:44:01 19.4 C 14.85 g/m*3 19.4 C 0 km/h
435 10-06-2004 14:56:01 19.5 C 15.27 g/m*3 19.5 C 0 km/h
436 10-06-2004 15:08:01 19.4 C 15.18 g/m*3 19.4 C 0 km/h
437 10-06-2004 15:20:01 19 C 14.83 g/m*3 19 C 0 km/h
438 10-06-2004 15:32:01 19.6 C 15.53 g/m*3 19.6 C 0 km/h
439 10-06-2004 15:44:01 20.5 C 15.48 g/m*3 20.5 C 0 km/h
440 10-06-2004 15:56:01 21.1 C 16.03 g/m*3 21.1 C 0 km/h
441 10-06-2004 16:08:01 20.8 C 15.75 g/m*3 20.8 C 0 km/h
442 10-06-2004 16:20:01 20.3 C 15.3 g/m*3 20.3 C 0 km/h
443 10-06-2004 16:32:01 19.9 C 15.29 g/m*3 19.9 C 0 km/h
444 10-06-2004 16:44:01 19.9 C 15.46 g/m*3 19.9 C 0 km/h
445 10-06-2004 16:56:01 19.4 C 15.02 g/m*3 19.4 C 0 km/h
446 10-06-2004 17:08:01 19.5 C 15.27 g/m*3 19.5 C 0 km/h
447 10-06-2004 17:20:01 19.5 C 15.44 g/m*3 19.5 C 0 km/h
448 10-06-2004 17:32:01 19.5 C 15.44 g/m*3 19.5 C 0 km/h
449 10-06-2004 17:44:01 20 C 15.9 g/m*3 20 C 0 km/h
450 10-06-2004 17:56:01 19.9 C 15.81 g/m*3 19.9 C 0 km/h
Sensor: Nr:Datum:Temp:Abs-Feuchte:Windchill:Wind:
Aussen-T/F 451 10-06-2004 18:08:01 20.4 C 16.1 g/m*3 20.4 C 0 km/h
452 10-06-2004 18:20:01 21.9 C 17.56 g/m*3 21.9 C 0 km/h
453 10-06-2004 18:32:01 21.5 C 16.22 g/m*3 21.5 C 0 km/h
454 10-06-2004 18:44:01 23.3 C 16.31 g/m*3 23.3 C 0 km/h
455 10-06-2004 18:56:01 22.5 C 14.78 g/m*3 22.5 C 0 km/h
456 10-06-2004 19:08:01 22.2 C 15.12 g/m*3 22.2 C 0 km/h
457 10-06-2004 19:20:01 22.1 C 15.62 g/m*3 22.1 C 0 km/h
458 10-06-2004 19:32:01 21.6 C 15.55 g/m*3 21.6 C 0 km/h
459 10-06-2004 19:44:01 21.2 C 15.01 g/m*3 21.2 C 0 km/h
460 10-06-2004 19:56:01 20.7 C 14.76 g/m*3 20.7 C 0 km/h
461 10-06-2004 20:08:01 20.2 C 14.51 g/m*3 20.2 C 0 km/h
462 10-06-2004 20:20:01 19.7 C 14.6 g/m*3 19.7 C 0 km/h
463 10-06-2004 20:32:01 19.5 C 14.43 g/m*3 19.5 C 0 km/h
464 10-06-2004 20:44:01 19.5 C 14.43 g/m*3 19.5 C 0 km/h
465 10-06-2004 20:56:01 19.6 C 14.69 g/m*3 19.6 C 0 km/h
466 10-06-2004 21:08:01 19.5 C 14.6 g/m*3 19.5 C 0 km/h
467 10-06-2004 21:20:01 19.3 C 14.6 g/m*3 19.3 C 0 km/h
468 10-06-2004 21:32:01 19.2 C 14.84 g/m*3 19.2 C 0 km/h
469 10-06-2004 21:44:01 19.2 C 15.01 g/m*3 19.2 C 0 km/h
470 10-06-2004 21:56:01 19 C 14.83 g/m*3 19 C 0 km/h
471 10-06-2004 22:08:01 18.8 C 14.82 g/m*3 18.8 C 0 km/h
472 10-06-2004 22:20:01 18.7 C 14.73 g/m*3 18.7 C 0 km/h
473 10-06-2004 22:32:01 18.7 C 14.73 g/m*3 18.7 C 0 km/h
474 10-06-2004 22:44:01 18.5 C 14.56 g/m*3 18.5 C 0 km/h
475 10-06-2004 22:56:01 18.4 C 14.47 g/m*3 18.4 C 0 km/h
Sensor: Nr:Datum:Temp:Abs-Feuchte:Windchill:Wind:
Aussen-T/F 476 10-06-2004 23:08:01 18.4 C 14.47 g/m*3 18.4 C 0 km/h
477 10-06-2004 23:20:01 18.5 C 14.71 g/m*3 18.5 C 0 km/h
478 10-06-2004 23:32:01 18.5 C 14.71 g/m*3 18.5 C 0 km/h
479 10-06-2004 23:44:01 18.5 C 14.71 g/m*3 18.5 C 0 km/h
480 10-06-2004 23:56:01 18.5 C 14.71 g/m*3 18.5 C 0 km/h
481 11-06-2004 00:08:01 18.4 C 14.63 g/m*3 18.4 C 0 km/h
482 11-06-2004 00:20:02 18.4 C 14.63 g/m*3 18.4 C 0 km/h
483 11-06-2004 00:32:02 18.4 C 14.63 g/m*3 18.4 C 0 km/h
484 11-06-2004 00:44:02 18.5 C 14.71 g/m*3 18.5 C 0 km/h
485 11-06-2004 00:56:01 18.5 C 14.71 g/m*3 18.5 C 0 km/h
486 11-06-2004 01:08:01 18.6 C 14.8 g/m*3 18.6 C 0 km/h
487 11-06-2004 01:20:01 18.7 C 14.89 g/m*3 18.7 C 0 km/h
488 11-06-2004 01:32:01 18.7 C 14.89 g/m*3 18.7 C 0 km/h
489 11-06-2004 01:44:01 18.5 C 14.71 g/m*3 18.5 C 0 km/h
490 11-06-2004 01:56:01 18.3 C 14.38 g/m*3 18.3 C 0 km/h
491 11-06-2004 02:08:01 18.4 C 14.63 g/m*3 18.4 C 0 km/h
492 11-06-2004 02:20:01 18.4 C 14.63 g/m*3 18.4 C 0 km/h
493 11-06-2004 02:32:01 18.3 C 14.38 g/m*3 18.3 C 0 km/h
494 11-06-2004 02:44:01 18.4 C 14.31 g/m*3 18.4 C 0 km/h
495 11-06-2004 02:57:02 18.2 C 14.14 g/m*3 18.2 C 0 km/h
496 11-06-2004 03:09:02 17.9 C 14.05 g/m*3 17.9 C 0 km/h
497 11-06-2004 03:21:02 17.8 C 13.96 g/m*3 17.8 C 0 km/h
498 11-06-2004 03:33:01 17.5 C 13.72 g/m*3 17.5 C 0 km/h
499 11-06-2004 03:45:01 17.2 C 13.47 g/m*3 17.2 C 0 km/h
500 11-06-2004 03:57:01 17.2 C 13.47 g/m*3 17.2 C 0 km/h
Sensor: Nr:Datum:Temp:Abs-Feuchte:Windchill:Wind:
Aussen-T/F 501 11-06-2004 04:09:01 17.2 C 13.62 g/m*3 17.2 C 0 km/h
502 11-06-2004 04:21:01 17.6 C 14.1 g/m*3 17.6 C 0 km/h
503 11-06-2004 04:33:01 17.6 C 14.1 g/m*3 17.6 C 0 km/h
504 11-06-2004 04:45:01 17.7 C 14.18 g/m*3 17.7 C 0 km/h
505 11-06-2004 04:57:01 17.8 C 14.27 g/m*3 17.8 C 0 km/h
506 11-06-2004 05:09:01 17.8 C 14.12 g/m*3 17.8 C 0 km/h
507 11-06-2004 05:21:01 17.7 C 14.03 g/m*3 17.7 C 0 km/h
508 11-06-2004 05:33:01 17.7 C 13.88 g/m*3 17.7 C 0 km/h
509 11-06-2004 05:45:01 17.7 C 13.88 g/m*3 17.7 C 0 km/h
510 11-06-2004 05:57:01 17.8 C 13.96 g/m*3 17.8 C 0 km/h
511 11-06-2004 06:09:01 17.8 C 13.96 g/m*3 17.8 C 0 km/h
512 11-06-2004 06:21:02 17.9 C 13.89 g/m*3 17.9 C 0 km/h
513 11-06-2004 06:33:01 17.7 C 13.58 g/m*3 17.7 C 0 km/h
514 11-06-2004 06:45:01 17.5 C 13.27 g/m*3 17.5 C 0 km/h
515 11-06-2004 06:57:01 17.5 C 13.12 g/m*3 17.5 C 0 km/h
516 11-06-2004 07:09:01 17.4 C 12.6 g/m*3 17.4 C 0 km/h
517 11-06-2004 07:21:01 17.2 C 12.01 g/m*3 17.2 C 0 km/h
518 11-06-2004 07:33:01 17 C 11.87 g/m*3 17 C 0 km/h
519 11-06-2004 07:45:01 17.2 C 12.15 g/m*3 17.2 C 0 km/h
520 11-06-2004 07:57:01 17.5 C 12.37 g/m*3 17.5 C 0 km/h
521 11-06-2004 08:09:01 17.7 C 11.92 g/m*3 17.7 C 0 km/h
522 11-06-2004 08:21:02 17.9 C 11.91 g/m*3 17.9 C 0 km/h
523 11-06-2004 08:33:02 18 C 11.21 g/m*3 18 C 0 km/h
524 11-06-2004 08:45:01 18.3 C 11.1 g/m*3 18.3 C 0 km/h
525 11-06-2004 08:57:01 18.4 C 11.01 g/m*3 18.4 C 0 km/h
Sensor: Nr:Datum:Temp:Abs-Feuchte:Windchill:Wind:
Aussen-T/F 526 11-06-2004 09:09:01 18.6 C 11.14 g/m*3 18.6 C 0 km/h
527 11-06-2004 09:21:01 18.7 C 10.89 g/m*3 18.7 C 0 km/h
528 11-06-2004 09:33:01 18.9 C 10.85 g/m*3 18.9 C 0 km/h
529 11-06-2004 09:45:01 19.1 C 10.16 g/m*3 19.1 C 0 km/h
530 11-06-2004 09:57:01 19.3 C 10.28 g/m*3 19.3 C 0 km/h
531 11-06-2004 10:09:01 19.6 C 10.47 g/m*3 19.6 C 0 km/h
532 11-06-2004 10:21:01 19.1 C 9.67 g/m*3 19.1 C 0 km/h
533 11-06-2004 10:33:01 19.5 C 9.57 g/m*3 19.5 C 0 km/h
534 11-06-2004 10:45:01 20 C 10.2 g/m*3 20 C 0 km/h
535 11-06-2004 10:57:01 20 C 9.85 g/m*3 20 C 0 km/h
536 11-06-2004 11:09:01 20.7 C 10.26 g/m*3 20.7 C 0 km/h
537 11-06-2004 11:21:01 20.4 C 10.26 g/m*3 20.4 C 0 km/h
538 11-06-2004 11:33:01 20.4 C 9.91 g/m*3 20.4 C 0 km/h
539 11-06-2004 11:45:01 21.3 C 9.88 g/m*3 21.3 C 0 km/h
540 11-06-2004 11:57:01 23.3 C 10.04 g/m*3 23.3 C 0 km/h
541 11-06-2004 12:09:01 22.5 C 9.79 g/m*3 22.5 C 0 km/h
542 11-06-2004 12:21:01 21.7 C 9.92 g/m*3 21.7 C 0 km/h
543 11-06-2004 12:33:01 24 C 9.57 g/m*3 24 C 0 km/h
544 11-06-2004 12:45:01 23.8 C 9.03 g/m*3 23.8 C 0 km/h
545 11-06-2004 12:57:01 24.4 C 9.12 g/m*3 24.4 C 0 km/h
546 11-06-2004 13:09:01 24.7 C 8.83 g/m*3 24.7 C 0 km/h
547 11-06-2004 13:21:01 25.5 C 9 g/m*3 25.5 C 0 km/h
548 11-06-2004 13:33:01 24.2 C 9.46 g/m*3 24.2 C 0 km/h
549 11-06-2004 13:45:01 25 C 9.21 g/m*3 25 C 0 km/h
550 11-06-2004 13:57:01 24.8 C 9.1 g/m*3 24.8 C 0 km/h
Sensor: Nr:Datum:Temp:Abs-Feuchte:Windchill:Wind:
Aussen-T/F 551 11-06-2004 14:09:01 25.5 C 9 g/m*3 25.5 C 0 km/h
552 11-06-2004 14:21:01 24.1 C 9.63 g/m*3 24.1 C 0 km/h
553 11-06-2004 14:33:01 24.5 C 9.85 g/m*3 24.5 C 0 km/h
554 11-06-2004 14:45:01 24.1 C 9.85 g/m*3 24.1 C 0 km/h
555 11-06-2004 14:57:01 23.6 C 10 g/m*3 23.6 C 0 km/h
556 11-06-2004 15:09:01 19.1 C 12.29 g/m*3 19.1 C 0 km/h
557 11-06-2004 15:21:01 19.6 C 14.35 g/m*3 19.6 C 0 km/h
558 11-06-2004 15:33:01 20.1 C 14.08 g/m*3 20.1 C 0 km/h
559 11-06-2004 15:45:01 21.8 C 14.77 g/m*3 21.8 C 0 km/h
560 11-06-2004 15:57:01 22.6 C 14.26 g/m*3 22.6 C 0 km/h
561 11-06-2004 16:09:03 21.8 C 13.81 g/m*3 21.8 C 0 km/h
562 11-06-2004 16:21:01 21.1 C 14.19 g/m*3 21.1 C 0 km/h
563 11-06-2004 16:33:02 20 C 14.17 g/m*3 20 C 0 km/h
564 11-06-2004 16:45:01 19.1 C 13.93 g/m*3 19.1 C 0 km/h
565 11-06-2004 16:57:01 18.4 C 12.74 g/m*3 18.4 C 0 km/h
566 11-06-2004 17:09:01 17.6 C 13.05 g/m*3 17.6 C 0 km/h
567 11-06-2004 17:21:01 16.9 C 12.94 g/m*3 16.9 C 0 km/h
568 11-06-2004 17:33:01 16.8 C 13.15 g/m*3 16.8 C 0 km/h
569 11-06-2004 17:45:01 17.1 C 13.39 g/m*3 17.1 C 0 km/h
570 11-06-2004 17:57:01 17.4 C 13.63 g/m*3 17.4 C 0 km/h
571 11-06-2004 18:09:01 17.5 C 13.87 g/m*3 17.5 C 0 km/h
572 11-06-2004 18:21:01 17.9 C 14.05 g/m*3 17.9 C 0 km/h
573 11-06-2004 18:33:01 19.1 C 14.1 g/m*3 19.1 C 0 km/h
574 11-06-2004 18:45:01 19.4 C 14.01 g/m*3 19.4 C 0 km/h
575 11-06-2004 18:57:01 19.4 C 14.01 g/m*3 19.4 C 0 km/h
Sensor: Nr:Datum:Temp:Abs-Feuchte:Windchill:Wind:
Aussen-T/F 576 11-06-2004 19:09:01 18.9 C 13.77 g/m*3 18.9 C 0 km/h
577 11-06-2004 19:21:02 18.5 C 13.61 g/m*3 18.5 C 0 km/h
578 11-06-2004 19:33:01 17.7 C 13.28 g/m*3 17.7 C 0 km/h
579 11-06-2004 19:45:01 17.3 C 13.26 g/m*3 17.3 C 0 km/h
580 11-06-2004 19:57:01 17.2 C 13.33 g/m*3 17.2 C 0 km/h
581 11-06-2004 20:09:02 17.2 C 13.47 g/m*3 17.2 C 0 km/h
582 11-06-2004 20:21:02 17.2 C 13.47 g/m*3 17.2 C 0 km/h
583 11-06-2004 20:33:01 17.1 C 13.39 g/m*3 17.1 C 0 km/h
584 11-06-2004 20:45:03 16.7 C 13.22 g/m*3 16.7 C 0 km/h
585 11-06-2004 20:57:03 16.4 C 12.98 g/m*3 16.4 C 0 km/h
586 11-06-2004 21:09:02 16.5 C 13.06 g/m*3 16.5 C 0 km/h
587 11-06-2004 21:21:02 16.7 C 13.22 g/m*3 16.7 C 0 km/h
588 11-06-2004 21:33:02 16.8 C 13.3 g/m*3 16.8 C 0 km/h
589 11-06-2004 21:45:01 16.7 C 13.07 g/m*3 16.7 C 0 km/h
590 11-06-2004 21:57:01 16.6 C 13.14 g/m*3 16.6 C 0 km/h
591 11-06-2004 22:09:01 16.3 C 12.9 g/m*3 16.3 C 0 km/h
592 11-06-2004 22:21:01 16.2 C 12.82 g/m*3 16.2 C 0 km/h
593 11-06-2004 22:33:01 16.2 C 12.69 g/m*3 16.2 C 0 km/h
594 11-06-2004 22:45:01 16 C 12.53 g/m*3 16 C 0 km/h
595 11-06-2004 22:57:01 15.7 C 12.31 g/m*3 15.7 C 0 km/h
596 11-06-2004 23:09:01 15.5 C 12.29 g/m*3 15.5 C 0 km/h
597 11-06-2004 23:21:01 15.2 C 12.07 g/m*3 15.2 C 0 km/h
598 11-06-2004 23:33:01 15.3 C 12.14 g/m*3 15.3 C 0 km/h
599 11-06-2004 23:45:01 15.5 C 12.43 g/m*3 15.5 C 0 km/h
600 11-06-2004 23:57:01 15.4 C 12.35 g/m*3 15.4 C 0 km/h
Sensor: Nr:Datum:Temp:Abs-Feuchte:Windchill:Wind:
Aussen-T/F 601 12-06-2004 00:09:01 15.5 C 12.43 g/m*3 15.5 C 0 km/h
602 12-06-2004 00:21:01 15.6 C 12.5 g/m*3 15.6 C 0 km/h
603 12-06-2004 00:33:01 15.6 C 12.5 g/m*3 15.6 C 0 km/h
604 12-06-2004 00:45:01 15.4 C 12.35 g/m*3 15.4 C 0 km/h
605 12-06-2004 00:57:01 15.2 C 12.2 g/m*3 15.2 C 0 km/h
606 12-06-2004 01:09:01 15.1 C 12.13 g/m*3 15.1 C 0 km/h
607 12-06-2004 01:21:01 15.1 C 12.13 g/m*3 15.1 C 0 km/h
608 12-06-2004 01:33:01 15.1 C 12.13 g/m*3 15.1 C 0 km/h
609 12-06-2004 01:45:01 15.2 C 12.2 g/m*3 15.2 C 0 km/h
610 12-06-2004 01:57:02 15.1 C 12.13 g/m*3 15.1 C 0 km/h
611 12-06-2004 02:09:01 14.8 C 11.91 g/m*3 14.8 C 0 km/h
612 12-06-2004 02:21:01 14.9 C 11.98 g/m*3 14.9 C 0 km/h
613 12-06-2004 02:33:01 14.8 C 11.91 g/m*3 14.8 C 0 km/h
614 12-06-2004 02:46:02 14.8 C 11.78 g/m*3 14.8 C 0 km/h
615 12-06-2004 02:58:02 14.6 C 11.64 g/m*3 14.6 C 0 km/h
616 12-06-2004 03:10:03 14.2 C 11.23 g/m*3 14.2 C 0 km/h
617 12-06-2004 03:22:03 13.9 C 11.15 g/m*3 13.9 C 0 km/h
618 12-06-2004 03:34:01 13.8 C 11.08 g/m*3 13.8 C 0 km/h
619 12-06-2004 03:46:01 13.9 C 11.27 g/m*3 13.9 C 0 km/h
620 12-06-2004 03:58:01 14 C 11.22 g/m*3 14 C 0 km/h
621 12-06-2004 04:10:01 13.7 C 11.01 g/m*3 13.7 C 0 km/h
622 12-06-2004 04:22:01 13.5 C 10.88 g/m*3 13.5 C 0 km/h
623 12-06-2004 04:34:01 13.5 C 10.76 g/m*3 13.5 C 0 km/h
624 12-06-2004 04:46:01 13.6 C 10.83 g/m*3 13.6 C 0 km/h
625 12-06-2004 04:58:01 13.4 C 10.69 g/m*3 13.4 C 0 km/h
Sensor: Nr:Datum:Temp:Abs-Feuchte:Windchill:Wind:
Aussen-T/F 626 12-06-2004 05:10:01 13.3 C 10.51 g/m*3 13.3 C 0 km/h
627 12-06-2004 05:22:01 13.3 C 10.51 g/m*3 13.3 C 0 km/h
628 12-06-2004 05:34:01 13.2 C 10.45 g/m*3 13.2 C 0 km/h
629 12-06-2004 05:46:01 13.2 C 10.45 g/m*3 13.2 C 0 km/h
630 12-06-2004 05:58:01 13.2 C 10.45 g/m*3 13.2 C 0 km/h
631 12-06-2004 06:10:01 13.3 C 10.51 g/m*3 13.3 C 0 km/h
632 12-06-2004 06:22:01 13.2 C 10.33 g/m*3 13.2 C 0 km/h
633 12-06-2004 06:34:01 13.5 C 10.53 g/m*3 13.5 C 0 km/h
634 12-06-2004 06:46:01 13.8 C 10.6 g/m*3 13.8 C 0 km/h
635 12-06-2004 06:58:01 14 C 10.25 g/m*3 14 C 0 km/h
636 12-06-2004 07:10:01 13.8 C 10.01 g/m*3 13.8 C 0 km/h
637 12-06-2004 07:22:01 13.9 C 10.19 g/m*3 13.9 C 0 km/h
638 12-06-2004 07:34:01 13.9 C 10.19 g/m*3 13.9 C 0 km/h
639 12-06-2004 07:46:01 14 C 10.01 g/m*3 14 C 0 km/h
640 12-06-2004 07:58:01 14 C 10.01 g/m*3 14 C 0 km/h
641 12-06-2004 08:10:01 14.1 C 10.07 g/m*3 14.1 C 0 km/h
642 12-06-2004 08:22:01 14.2 C 10.14 g/m*3 14.2 C 0 km/h
643 12-06-2004 08:34:01 14.1 C 9.95 g/m*3 14.1 C 0 km/h
644 12-06-2004 08:46:01 14.1 C 10.07 g/m*3 14.1 C 0 km/h
645 12-06-2004 08:58:01 14.3 C 9.95 g/m*3 14.3 C 0 km/h
646 12-06-2004 09:10:01 14.8 C 9.88 g/m*3 14.8 C 0 km/h
647 12-06-2004 09:22:01 15.2 C 9.73 g/m*3 15.2 C 0 km/h
648 12-06-2004 09:34:01 15.5 C 10.05 g/m*3 15.5 C 0 km/h
649 12-06-2004 09:46:01 16 C 10.08 g/m*3 16 C 0 km/h
650 12-06-2004 09:58:01 16.4 C 9.77 g/m*3 16.4 C 0 km/h
Sensor: Nr:Datum:Temp:Abs-Feuchte:Windchill:Wind:
Aussen-T/F 651 12-06-2004 10:10:01 16.9 C 9.35 g/m*3 16.9 C 0 km/h
652 12-06-2004 10:22:01 16.4 C 9.07 g/m*3 16.4 C 0 km/h
653 12-06-2004 10:34:01 16.6 C 9.46 g/m*3 16.6 C 0 km/h
654 12-06-2004 10:46:02 17 C 8.97 g/m*3 17 C 0 km/h
655 12-06-2004 10:58:02 17.4 C 8.89 g/m*3 17.4 C 0 km/h
656 12-06-2004 11:10:01 17 C 8.68 g/m*3 17 C 0 km/h
657 12-06-2004 11:22:01 17.2 C 9.08 g/m*3 17.2 C 0 km/h
658 12-06-2004 11:34:01 17.6 C 9.3 g/m*3 17.6 C 0 km/h
659 12-06-2004 11:46:01 18.8 C 8.37 g/m*3 18.8 C 0 km/h
660 12-06-2004 11:58:01 20 C 8.12 g/m*3 20 C 0 km/h
661 12-06-2004 12:10:01 19.7 C 7.64 g/m*3 19.7 C 0 km/h
662 12-06-2004 12:22:01 19.1 C 7.54 g/m*3 19.1 C 0 km/h
663 12-06-2004 12:34:01 21 C 7.33 g/m*3 21 C 0 km/h
664 12-06-2004 12:46:01 21.7 C 7.06 g/m*3 21.7 C 0 km/h
665 12-06-2004 12:58:01 19.6 C 7.6 g/m*3 19.6 C 0 km/h
666 12-06-2004 13:10:01 21.1 C 7.19 g/m*3 21.1 C 0 km/h
667 12-06-2004 13:22:01 17.7 C 8.15 g/m*3 17.7 C 0 km/h
668 12-06-2004 13:34:01 15.2 C 8.31 g/m*3 15.2 C 0 km/h
669 12-06-2004 13:46:01 15.6 C 8.78 g/m*3 15.6 C 0 km/h
670 12-06-2004 13:58:01 14.8 C 7.98 g/m*3 14.8 C 0 km/h
671 12-06-2004 14:10:01 14.6 C 8.63 g/m*3 14.6 C 0 km/h
672 12-06-2004 14:22:01 14.9 C 8.41 g/m*3 14.9 C 0 km/h
673 12-06-2004 14:34:01 15.4 C 7.75 g/m*3 15.4 C 0 km/h
674 12-06-2004 14:46:01 15.5 C 8.33 g/m*3 15.5 C 0 km/h
675 12-06-2004 14:58:01 16.2 C 8.14 g/m*3 16.2 C 0 km/h
Sensor: Nr:Datum:Temp:Abs-Feuchte:Windchill:Wind:
Aussen-T/F 676 12-06-2004 15:10:01 18.5 C 9.02 g/m*3 18.5 C 0 km/h
677 12-06-2004 15:22:01 19.6 C 8.27 g/m*3 19.6 C 0 km/h
678 12-06-2004 15:34:01 20.1 C 8.17 g/m*3 20.1 C 0 km/h
679 12-06-2004 15:46:01 19.1 C 8.03 g/m*3 19.1 C 0 km/h
680 12-06-2004 15:58:01 18.5 C 8.54 g/m*3 18.5 C 0 km/h
681 12-06-2004 16:10:01 18.8 C 8.54 g/m*3 18.8 C 0 km/h
682 12-06-2004 16:22:01 18.3 C 8.44 g/m*3 18.3 C 0 km/h
683 12-06-2004 16:34:01 17 C 7.81 g/m*3 17 C 0 km/h
684 12-06-2004 16:46:01 17.7 C 8.15 g/m*3 17.7 C 0 km/h
685 12-06-2004 16:58:01 16.6 C 9.61 g/m*3 16.6 C 0 km/h
686 12-06-2004 17:10:02 16.4 C 10.05 g/m*3 16.4 C 0 km/h
687 12-06-2004 17:22:01 16.7 C 10.52 g/m*3 16.7 C 0 km/h
688 12-06-2004 17:34:01 18.1 C 9.12 g/m*3 18.1 C 0 km/h
689 12-06-2004 17:46:01 18.5 C 8.54 g/m*3 18.5 C 0 km/h
690 12-06-2004 17:58:01 18.1 C 8.96 g/m*3 18.1 C 0 km/h
691 12-06-2004 18:10:01 17.9 C 8.7 g/m*3 17.9 C 0 km/h
692 12-06-2004 18:22:01 17.5 C 8.05 g/m*3 17.5 C 0 km/h
693 12-06-2004 18:34:01 18.1 C 8.34 g/m*3 18.1 C 0 km/h
694 12-06-2004 18:46:01 17.3 C 7.96 g/m*3 17.3 C 0 km/h
695 12-06-2004 18:58:01 17.3 C 8.54 g/m*3 17.3 C 0 km/h
696 12-06-2004 19:10:01 16.9 C 8.92 g/m*3 16.9 C 0 km/h
697 12-06-2004 19:22:02 17 C 8.97 g/m*3 17 C 0 km/h
698 12-06-2004 19:34:01 16.5 C 8.99 g/m*3 16.5 C 0 km/h
699 12-06-2004 19:46:01 16.2 C 8.96 g/m*3 16.2 C 0 km/h
700 12-06-2004 19:58:01 15.8 C 9.02 g/m*3 15.8 C 0 km/h
Sensor: Nr:Datum:Temp:Abs-Feuchte:Windchill:Wind:
Aussen-T/F 701 12-06-2004 20:10:01 15.7 C 8.96 g/m*3 15.7 C 0 km/h
702 12-06-2004 20:22:01 15.1 C 9.16 g/m*3 15.1 C 0 km/h
703 12-06-2004 20:34:01 15 C 9.36 g/m*3 15 C 0 km/h
704 12-06-2004 20:46:01 15.5 C 8.99 g/m*3 15.5 C 0 km/h
705 12-06-2004 20:58:01 15.4 C 8.93 g/m*3 15.4 C 0 km/h
706 12-06-2004 21:10:02 15.5 C 8.99 g/m*3 15.5 C 0 km/h
707 12-06-2004 21:22:02 15 C 8.85 g/m*3 15 C 0 km/h
708 12-06-2004 21:34:02 14.5 C 8.95 g/m*3 14.5 C 0 km/h
709 12-06-2004 21:46:02 14 C 8.68 g/m*3 14 C 0 km/h
710 12-06-2004 21:58:02 13.7 C 8.64 g/m*3 13.7 C 0 km/h
711 12-06-2004 22:10:02 13.5 C 8.66 g/m*3 13.5 C 0 km/h
712 12-06-2004 22:22:02 13.3 C 8.55 g/m*3 13.3 C 0 km/h
713 12-06-2004 22:34:02 13.1 C 8.44 g/m*3 13.1 C 0 km/h
714 12-06-2004 22:46:01 13 C 8.39 g/m*3 13 C 0 km/h
715 12-06-2004 22:58:01 13 C 8.51 g/m*3 13 C 0 km/h
716 12-06-2004 23:10:01 13.1 C 8.44 g/m*3 13.1 C 0 km/h
717 12-06-2004 23:22:01 13 C 8.51 g/m*3 13 C 0 km/h
718 12-06-2004 23:34:01 13.4 C 8.83 g/m*3 13.4 C 0 km/h
719 12-06-2004 23:46:01 13.2 C 8.84 g/m*3 13.2 C 0 km/h
720 12-06-2004 23:58:01 13.2 C 8.84 g/m*3 13.2 C 0 km/h
721 13-06-2004 00:10:01 13 C 8.73 g/m*3 13 C 0 km/h
722 13-06-2004 00:22:00 13.1 C 8.79 g/m*3 13.1 C 0 km/h
723 13-06-2004 00:34:00 13.1 C 8.79 g/m*3 13.1 C 0 km/h
724 13-06-2004 00:46:01 12.8 C 8.85 g/m*3 12.8 C 0 km/h
725 13-06-2004 00:58:01 12.6 C 8.96 g/m*3 12.6 C 0 km/h
Sensor: Nr:Datum:Temp:Abs-Feuchte:Windchill:Wind:
Aussen-T/F 726 13-06-2004 01:10:01 12.5 C 9.02 g/m*3 12.5 C 0 km/h
727 13-06-2004 01:22:01 12.5 C 9.13 g/m*3 12.5 C 0 km/h
728 13-06-2004 01:34:01 12.7 C 9.13 g/m*3 12.7 C 0 km/h
729 13-06-2004 01:46:01 12.7 C 9.13 g/m*3 12.7 C 0 km/h
730 13-06-2004 01:58:01 12.5 C 9.35 g/m*3 12.5 C 0 km/h
731 13-06-2004 02:10:01 12.4 C 9.51 g/m*3 12.4 C 0 km/h
732 13-06-2004 02:22:01 12.4 C 9.51 g/m*3 12.4 C 0 km/h
733 13-06-2004 02:34:01 12.5 C 9.57 g/m*3 12.5 C 0 km/h
734 13-06-2004 02:47:03 12.5 C 9.57 g/m*3 12.5 C 0 km/h
735 13-06-2004 02:59:03 12.6 C 9.62 g/m*3 12.6 C 0 km/h
736 13-06-2004 03:11:03 12.7 C 9.68 g/m*3 12.7 C 0 km/h
737 13-06-2004 03:23:03 12.5 C 9.78 g/m*3 12.5 C 0 km/h
738 13-06-2004 03:35:01 12.4 C 9.83 g/m*3 12.4 C 0 km/h
739 13-06-2004 03:47:01 12.4 C 9.94 g/m*3 12.4 C 0 km/h
740 13-06-2004 03:59:01 12.4 C 10.05 g/m*3 12.4 C 0 km/h
741 13-06-2004 04:11:01 12.5 C 10.11 g/m*3 12.5 C 0 km/h
742 13-06-2004 04:23:01 12.5 C 10.11 g/m*3 12.5 C 0 km/h
743 13-06-2004 04:35:01 12.6 C 10.18 g/m*3 12.6 C 0 km/h
744 13-06-2004 04:47:01 12.7 C 10.24 g/m*3 12.7 C 0 km/h
745 13-06-2004 04:59:01 12.7 C 10.24 g/m*3 12.7 C 0 km/h
746 13-06-2004 05:11:01 12.7 C 10.13 g/m*3 12.7 C 0 km/h
747 13-06-2004 05:23:01 12.6 C 10.07 g/m*3 12.6 C 0 km/h
748 13-06-2004 05:35:01 12.7 C 10.13 g/m*3 12.7 C 0 km/h
749 13-06-2004 05:47:01 12.4 C 9.83 g/m*3 12.4 C 0 km/h
750 13-06-2004 05:59:01 12.2 C 9.71 g/m*3 12.2 C 0 km/h
Sensor: Nr:Datum:Temp:Abs-Feuchte:Windchill:Wind:
Aussen-T/F 751 13-06-2004 06:11:01 12.5 C 10 g/m*3 12.5 C 0 km/h
752 13-06-2004 06:23:01 12.8 C 10.19 g/m*3 12.8 C 0 km/h
753 13-06-2004 06:35:01 13 C 10.09 g/m*3 13 C 0 km/h
754 13-06-2004 06:47:01 13.1 C 10.16 g/m*3 13.1 C 0 km/h
755 13-06-2004 06:59:01 13.2 C 10.22 g/m*3 13.2 C 0 km/h
756 13-06-2004 07:11:01 13.4 C 10.23 g/m*3 13.4 C 0 km/h
757 13-06-2004 07:23:01 13.5 C 10.18 g/m*3 13.5 C 0 km/h
758 13-06-2004 07:35:01 13.6 C 10.12 g/m*3 13.6 C 0 km/h
759 13-06-2004 07:47:01 13.4 C 9.88 g/m*3 13.4 C 0 km/h
760 13-06-2004 07:59:01 13.1 C 9.93 g/m*3 13.1 C 0 km/h
761 13-06-2004 08:11:01 13.1 C 10.04 g/m*3 13.1 C 0 km/h
762 13-06-2004 08:23:01 13 C 9.98 g/m*3 13 C 0 km/h
763 13-06-2004 08:35:03 13 C 9.98 g/m*3 13 C 0 km/h
764 13-06-2004 08:47:02 12.9 C 10.03 g/m*3 12.9 C 0 km/h
765 13-06-2004 08:59:02 13.2 C 10.1 g/m*3 13.2 C 0 km/h
766 13-06-2004 09:11:02 13.8 C 10.37 g/m*3 13.8 C 0 km/h
767 13-06-2004 09:23:01 13.9 C 10.07 g/m*3 13.9 C 0 km/h
768 13-06-2004 09:35:01 13.9 C 9.95 g/m*3 13.9 C 0 km/h
769 13-06-2004 09:47:01 13.9 C 9.71 g/m*3 13.9 C 0 km/h
770 13-06-2004 09:59:01 14.4 C 9.77 g/m*3 14.4 C 0 km/h
771 13-06-2004 10:11:01 14.8 C 9.75 g/m*3 14.8 C 0 km/h
772 13-06-2004 10:23:01 14.4 C 9.52 g/m*3 14.4 C 0 km/h
773 13-06-2004 10:35:01 14.5 C 9.7 g/m*3 14.5 C 0 km/h
774 13-06-2004 10:47:01 14.8 C 9.75 g/m*3 14.8 C 0 km/h
775 13-06-2004 10:59:01 15.1 C 9.42 g/m*3 15.1 C 0 km/h
Sensor: Nr:Datum:Temp:Abs-Feuchte:Windchill:Wind:
Aussen-T/F 776 13-06-2004 11:11:01 15.5 C 9.52 g/m*3 15.5 C 0 km/h
777 13-06-2004 11:23:01 15.8 C 9.42 g/m*3 15.8 C 0 km/h
778 13-06-2004 11:35:02 16.2 C 9.38 g/m*3 16.2 C 0 km/h
779 13-06-2004 11:47:01 16.5 C 9.13 g/m*3 16.5 C 0 km/h
780 13-06-2004 11:59:01 17 C 8.83 g/m*3 17 C 0 km/h
781 13-06-2004 12:11:01 16.2 C 8.83 g/m*3 16.2 C 0 km/h
782 13-06-2004 12:23:01 15.8 C 8.88 g/m*3 15.8 C 0 km/h
783 13-06-2004 12:35:01 15.1 C 8.9 g/m*3 15.1 C 0 km/h
784 13-06-2004 12:47:01 15.6 C 9.31 g/m*3 15.6 C 0 km/h
785 13-06-2004 12:59:01 16.2 C 8.96 g/m*3 16.2 C 0 km/h
786 13-06-2004 13:11:01 16.7 C 8.95 g/m*3 16.7 C 0 km/h
787 13-06-2004 13:23:01 16.2 C 8.69 g/m*3 16.2 C 0 km/h
788 13-06-2004 13:35:01 17 C 8.83 g/m*3 17 C 0 km/h
789 13-06-2004 13:47:01 17.8 C 8.95 g/m*3 17.8 C 0 km/h
790 13-06-2004 13:59:01 16.6 C 8.48 g/m*3 16.6 C 0 km/h
791 13-06-2004 14:11:01 16.7 C 8.38 g/m*3 16.7 C 0 km/h
792 13-06-2004 14:23:01 17.2 C 8.35 g/m*3 17.2 C 0 km/h
793 13-06-2004 14:35:01 17.7 C 8.45 g/m*3 17.7 C 0 km/h
794 13-06-2004 14:47:01 17.4 C 8.15 g/m*3 17.4 C 0 km/h
795 13-06-2004 14:59:01 17.4 C 8.15 g/m*3 17.4 C 0 km/h
796 13-06-2004 15:11:01 17.9 C 8.55 g/m*3 17.9 C 0 km/h
797 13-06-2004 15:23:01 18.5 C 8.23 g/m*3 18.5 C 0 km/h
798 13-06-2004 15:35:02 18.9 C 7.94 g/m*3 18.9 C 0 km/h
799 13-06-2004 15:47:01 19.3 C 8.13 g/m*3 19.3 C 0 km/h
800 13-06-2004 15:59:01 19.3 C 7.96 g/m*3 19.3 C 0 km/h
Sensor: Nr:Datum:Temp:Abs-Feuchte:Windchill:Wind:
Aussen-T/F 801 13-06-2004 16:11:01 19.5 C 8.22 g/m*3 19.5 C 0 km/h
802 13-06-2004 16:23:01 20.2 C 8.22 g/m*3 20.2 C 0 km/h
803 13-06-2004 16:35:02 18.3 C 7.82 g/m*3 18.3 C 0 km/h
804 13-06-2004 16:47:01 19 C 8.47 g/m*3 19 C 0 km/h
805 13-06-2004 16:59:02 19.3 C 7.96 g/m*3 19.3 C 0 km/h
806 13-06-2004 17:11:01 19.2 C 8.08 g/m*3 19.2 C 0 km/h
807 13-06-2004 17:23:01 19.2 C 8.08 g/m*3 19.2 C 0 km/h
808 13-06-2004 17:35:01 19.6 C 7.93 g/m*3 19.6 C 0 km/h
809 13-06-2004 17:47:01 20 C 7.6 g/m*3 20 C 0 km/h
810 13-06-2004 17:59:01 19.9 C 7.73 g/m*3 19.9 C 0 km/h
811 13-06-2004 18:11:01 20.4 C 7.78 g/m*3 20.4 C 0 km/h
812 13-06-2004 18:23:01 21.1 C 7.92 g/m*3 21.1 C 0 km/h
813 13-06-2004 18:35:01 19.6 C 7.77 g/m*3 19.6 C 0 km/h
814 13-06-2004 18:47:01 18.4 C 7.86 g/m*3 18.4 C 0 km/h
815 13-06-2004 18:59:01 19.2 C 7.91 g/m*3 19.2 C 0 km/h
816 13-06-2004 19:11:01 19.5 C 7.72 g/m*3 19.5 C 0 km/h
817 13-06-2004 19:23:01 19.5 C 7.89 g/m*3 19.5 C 0 km/h
818 13-06-2004 19:35:01 19.5 C 7.72 g/m*3 19.5 C 0 km/h
819 13-06-2004 19:47:01 18.8 C 7.73 g/m*3 18.8 C 0 km/h
820 13-06-2004 19:59:01 19.3 C 7.8 g/m*3 19.3 C 0 km/h
821 13-06-2004 20:11:01 19.4 C 7.84 g/m*3 19.4 C 0 km/h
822 13-06-2004 20:23:01 18.1 C 7.73 g/m*3 18.1 C 0 km/h
823 13-06-2004 20:35:01 17.9 C 7.94 g/m*3 17.9 C 0 km/h
824 13-06-2004 20:47:01 17.7 C 8.15 g/m*3 17.7 C 0 km/h
825 13-06-2004 20:59:01 17.3 C 7.81 g/m*3 17.3 C 0 km/h
Sensor: Nr:Datum:Temp:Abs-Feuchte:Windchill:Wind:
Aussen-T/F 826 13-06-2004 21:11:02 16.7 C 7.96 g/m*3 16.7 C 0 km/h
827 13-06-2004 21:23:01 16.3 C 8.32 g/m*3 16.3 C 0 km/h
828 13-06-2004 21:35:01 15.9 C 8.4 g/m*3 15.9 C 0 km/h
829 13-06-2004 21:47:01 15.4 C 8.41 g/m*3 15.4 C 0 km/h
830 13-06-2004 21:59:01 15.1 C 8.51 g/m*3 15.1 C 0 km/h
831 13-06-2004 22:11:01 14.7 C 8.69 g/m*3 14.7 C 0 km/h
832 13-06-2004 22:23:01 14.4 C 8.65 g/m*3 14.4 C 0 km/h
833 13-06-2004 22:35:02 14.2 C 8.55 g/m*3 14.2 C 0 km/h
834 13-06-2004 22:47:01 14.1 C 8.62 g/m*3 14.1 C 0 km/h
835 13-06-2004 22:59:01 13.9 C 8.63 g/m*3 13.9 C 0 km/h
836 13-06-2004 23:12:01 13.7 C 8.64 g/m*3 13.7 C 0 km/h
837 13-06-2004 23:24:01 13.4 C 8.6 g/m*3 13.4 C 0 km/h
838 13-06-2004 23:36:01 13.2 C 8.61 g/m*3 13.2 C 0 km/h
839 13-06-2004 23:48:01 13.1 C 8.67 g/m*3 13.1 C 0 km/h
840 14-06-2004 00:00:01 12.6 C 8.52 g/m*3 12.6 C 0 km/h
841 14-06-2004 00:12:01 12.4 C 8.52 g/m*3 12.4 C 0 km/h
842 14-06-2004 00:24:01 12 C 8.42 g/m*3 12 C 0 km/h
843 14-06-2004 00:36:01 12 C 8.63 g/m*3 12 C 0 km/h
844 14-06-2004 00:48:01 11.6 C 8.42 g/m*3 11.6 C 0 km/h
845 14-06-2004 01:00:01 11.5 C 8.47 g/m*3 11.5 C 0 km/h
846 14-06-2004 01:12:01 11.5 C 8.47 g/m*3 11.5 C 0 km/h
847 14-06-2004 01:24:01 11.3 C 8.47 g/m*3 11.3 C 0 km/h
848 14-06-2004 01:36:01 11.1 C 8.36 g/m*3 11.1 C 0 km/h
849 14-06-2004 01:48:01 11 C 8.51 g/m*3 11 C 0 km/h
850 14-06-2004 02:00:01 11 C 8.51 g/m*3 11 C 0 km/h
Sensor: Nr:Datum:Temp:Abs-Feuchte:Windchill:Wind:
Aussen-T/F 851 14-06-2004 02:12:01 10.8 C 8.4 g/m*3 10.8 C 0 km/h
852 14-06-2004 02:24:01 10.7 C 8.45 g/m*3 10.7 C 0 km/h
853 14-06-2004 02:36:01 10.4 C 8.38 g/m*3 10.4 C 0 km/h
854 14-06-2004 02:48:01 10.4 C 8.38 g/m*3 10.4 C 0 km/h
855 14-06-2004 03:00:01 10.2 C 8.28 g/m*3 10.2 C 0 km/h
856 14-06-2004 03:12:02 10.1 C 8.32 g/m*3 10.1 C 0 km/h
857 14-06-2004 03:24:02 9.9 C 8.31 g/m*3 9.9 C 0 km/h
858 14-06-2004 03:36:02 9.7 C 8.2 g/m*3 9.7 C 0 km/h
859 14-06-2004 03:48:02 9.5 C 8.19 g/m*3 9.5 C 0 km/h
860 14-06-2004 04:00:02 9.5 C 8.28 g/m*3 9.5 C 0 km/h
861 14-06-2004 04:12:02 9.4 C 8.23 g/m*3 9.4 C 0 km/h
862 14-06-2004 04:24:02 9.2 C 8.13 g/m*3 9.2 C 0 km/h
863 14-06-2004 04:36:02 9.3 C 8.18 g/m*3 9.3 C 0 km/h
864 14-06-2004 04:48:02 9.4 C 8.23 g/m*3 9.4 C 0 km/h
865 14-06-2004 05:00:02 9.4 C 8.14 g/m*3 9.4 C 0 km/h
866 14-06-2004 05:12:02 9.3 C 8.09 g/m*3 9.3 C 0 km/h
867 14-06-2004 05:24:02 9.3 C 8 g/m*3 9.3 C 0 km/h
868 14-06-2004 05:36:02 9.5 C 8.1 g/m*3 9.5 C 0 km/h
869 14-06-2004 05:48:02 9.5 C 8.1 g/m*3 9.5 C 0 km/h
870 14-06-2004 06:00:02 9.7 C 8.2 g/m*3 9.7 C 0 km/h
871 14-06-2004 06:12:02 9.9 C 8.22 g/m*3 9.9 C 0 km/h
872 14-06-2004 06:24:02 9.9 C 8.22 g/m*3 9.9 C 0 km/h
873 14-06-2004 06:36:02 10 C 8.17 g/m*3 10 C 0 km/h
874 14-06-2004 06:48:02 9.9 C 8.22 g/m*3 9.9 C 0 km/h
875 14-06-2004 07:00:02 10.3 C 8.24 g/m*3 10.3 C 0 km/h
Sensor: Nr:Datum:Temp:Abs-Feuchte:Windchill:Wind:
Aussen-T/F 876 14-06-2004 07:12:02 10.6 C 8.3 g/m*3 10.6 C 0 km/h
877 14-06-2004 07:24:02 11.1 C 8.36 g/m*3 11.1 C 0 km/h
878 14-06-2004 07:36:02 11.4 C 8.31 g/m*3 11.4 C 0 km/h
879 14-06-2004 07:48:03 11.2 C 8.21 g/m*3 11.2 C 0 km/h
880 14-06-2004 08:00:03 11.4 C 8.31 g/m*3 11.4 C 0 km/h
881 14-06-2004 08:12:03 11.3 C 8.36 g/m*3 11.3 C 0 km/h
882 14-06-2004 08:24:03 11.6 C 8.42 g/m*3 11.6 C 0 km/h
883 14-06-2004 08:36:03 11.7 C 8.37 g/m*3 11.7 C 0 km/h
884 14-06-2004 08:48:03 11.2 C 8.21 g/m*3 11.2 C 0 km/h
885 14-06-2004 09:00:03 11.7 C 8.68 g/m*3 11.7 C 0 km/h
886 14-06-2004 09:12:03 12.2 C 8.63 g/m*3 12.2 C 0 km/h
887 14-06-2004 09:24:03 12.7 C 8.68 g/m*3 12.7 C 0 km/h
888 14-06-2004 09:36:04 13 C 8.39 g/m*3 13 C 0 km/h
889 14-06-2004 09:48:04 13.5 C 8.54 g/m*3 13.5 C 0 km/h
890 14-06-2004 10:00:04 14.8 C 8.87 g/m*3 14.8 C 0 km/h
891 14-06-2004 10:12:04 15.5 C 8.86 g/m*3 15.5 C 0 km/h
892 14-06-2004 10:24:04 16.4 C 8.79 g/m*3 16.4 C 0 km/h
893 14-06-2004 10:36:04 16.9 C 8.92 g/m*3 16.9 C 0 km/h
894 14-06-2004 10:48:05 17.5 C 8.95 g/m*3 17.5 C 0 km/h
895 14-06-2004 11:00:05 18.2 C 9.33 g/m*3 18.2 C 0 km/h
896 14-06-2004 11:12:05 18.8 C 8.7 g/m*3 18.8 C 0 km/h
897 14-06-2004 11:24:05 19.7 C 9 g/m*3 19.7 C 0 km/h
898 14-06-2004 11:36:05 20.2 C 8.57 g/m*3 20.2 C 0 km/h
899 14-06-2004 11:48:05 19.7 C 8.15 g/m*3 19.7 C 0 km/h
900 14-06-2004 12:00:05 21 C 8.79 g/m*3 21 C 0 km/h
Sensor: Nr:Datum:Temp:Abs-Feuchte:Windchill:Wind:
Aussen-T/F 901 14-06-2004 12:12:05 22.2 C 8.83 g/m*3 22.2 C 0 km/h
902 14-06-2004 12:24:05 21.8 C 7.87 g/m*3 21.8 C 0 km/h
903 14-06-2004 12:36:05 23.5 C 8.04 g/m*3 23.5 C 0 km/h
904 14-06-2004 12:48:05 23.3 C 7.53 g/m*3 23.3 C 0 km/h
905 14-06-2004 13:00:06 23 C 7.4 g/m*3 23 C 0 km/h
906 14-06-2004 13:12:06 23.7 C 7.91 g/m*3 23.7 C 0 km/h
907 14-06-2004 13:24:06 25.7 C 7.66 g/m*3 25.7 C 0 km/h
908 14-06-2004 13:36:06 25.6 C 7.14 g/m*3 25.6 C 0 km/h
909 14-06-2004 13:48:06 25.4 C 7.06 g/m*3 25.4 C 0 km/h
910 14-06-2004 14:00:06 24.6 C 6.75 g/m*3 24.6 C 0 km/h
911 14-06-2004 14:12:06 24.5 C 6.71 g/m*3 24.5 C 0 km/h
912 14-06-2004 14:24:06 25.2 C 7.22 g/m*3 25.2 C 0 km/h
913 14-06-2004 14:36:06 24.6 C 6.98 g/m*3 24.6 C 0 km/h
914 14-06-2004 14:48:06 25 C 7.14 g/m*3 25 C 0 km/h
915 14-06-2004 15:00:06 26.3 C 7.18 g/m*3 26.3 C 0 km/h
916 14-06-2004 15:12:06 25.5 C 6.39 g/m*3 25.5 C 0 km/h
917 14-06-2004 15:24:06 26.3 C 6.44 g/m*3 26.3 C 0 km/h
918 14-06-2004 15:36:06 26.2 C 6.15 g/m*3 26.2 C 0 km/h
919 14-06-2004 15:48:01 26.2 C 5.42 g/m*3 26.2 C 0 km/h
920 14-06-2004 16:00:01 26 C 5.36 g/m*3 26 C 0 km/h
921 14-06-2004 16:12:01 26.5 C 5.76 g/m*3 26.5 C 0 km/h
922 14-06-2004 16:24:01 26 C 5.6 g/m*3 26 C 0 km/h
923 14-06-2004 16:36:01 26.4 C 4.98 g/m*3 26.4 C 0 km/h
924 14-06-2004 16:48:01 27.1 C 5.43 g/m*3 27.1 C 0 km/h
925 14-06-2004 17:00:01 27.4 C 6.05 g/m*3 27.4 C 0 km/h
Sensor: Nr:Datum:Temp:Abs-Feuchte:Windchill:Wind:
Aussen-T/F 926 14-06-2004 17:12:01 27.2 C 6.51 g/m*3 27.2 C 0 km/h
927 14-06-2004 17:24:02 26.3 C 6.44 g/m*3 26.3 C 0 km/h
928 14-06-2004 17:36:00 26.5 C 7.01 g/m*3 26.5 C 0 km/h
929 14-06-2004 17:48:03 26.4 C 6.97 g/m*3 26.4 C 0 km/h
930 14-06-2004 18:00:03 25.1 C 6.94 g/m*3 25.1 C 0 km/h
931 14-06-2004 18:12:01 24.4 C 7.57 g/m*3 24.4 C 0 km/h
932 14-06-2004 18:24:01 24.5 C 7.83 g/m*3 24.5 C 0 km/h
933 14-06-2004 18:36:01 24.7 C 7.92 g/m*3 24.7 C 0 km/h
934 14-06-2004 18:48:01 24.7 C 7.92 g/m*3 24.7 C 0 km/h
935 14-06-2004 19:00:01 24.8 C 8.19 g/m*3 24.8 C 0 km/h
936 14-06-2004 19:12:02 24.4 C 8.01 g/m*3 24.4 C 0 km/h
937 14-06-2004 19:24:02 23.9 C 8.44 g/m*3 23.9 C 0 km/h
938 14-06-2004 19:36:01 23.7 C 8.56 g/m*3 23.7 C 0 km/h
939 14-06-2004 19:48:02 23.6 C 9.78 g/m*3 23.6 C 0 km/h
940 14-06-2004 20:00:02 23.2 C 9.98 g/m*3 23.2 C 0 km/h
941 14-06-2004 20:12:02 22.7 C 9.5 g/m*3 22.7 C 0 km/h
942 14-06-2004 20:24:02 22.5 C 10.39 g/m*3 22.5 C 0 km/h
943 14-06-2004 20:36:01 22.3 C 10.47 g/m*3 22.3 C 0 km/h
944 14-06-2004 20:48:02 21.7 C 10.11 g/m*3 21.7 C 0 km/h
945 14-06-2004 21:00:02 21.2 C 9.82 g/m*3 21.2 C 0 km/h
946 14-06-2004 21:12:01 20.6 C 10.02 g/m*3 20.6 C 0 km/h
947 14-06-2004 21:24:01 19.9 C 9.97 g/m*3 19.9 C 0 km/h
948 14-06-2004 21:36:02 19.1 C 9.67 g/m*3 19.1 C 0 km/h
949 14-06-2004 21:48:02 18.8 C 9.66 g/m*3 18.8 C 0 km/h
950 14-06-2004 22:00:02 18.5 C 9.33 g/m*3 18.5 C 0 km/h
Sensor: Nr:Datum:Temp:Abs-Feuchte:Windchill:Wind:
Aussen-T/F 951 14-06-2004 22:12:01 18.1 C 9.27 g/m*3 18.1 C 0 km/h
952 14-06-2004 22:24:02 17.7 C 9.51 g/m*3 17.7 C 0 km/h
953 14-06-2004 22:36:03 17.4 C 9.34 g/m*3 17.4 C 0 km/h
954 14-06-2004 22:48:04 17.3 C 9.58 g/m*3 17.3 C 0 km/h
955 14-06-2004 23:00:04 17.6 C 9.75 g/m*3 17.6 C 0 km/h
956 14-06-2004 23:12:01 17.5 C 9.84 g/m*3 17.5 C 0 km/h
957 14-06-2004 23:24:01 17.3 C 9.87 g/m*3 17.3 C 0 km/h
958 14-06-2004 23:36:01 17.1 C 9.75 g/m*3 17.1 C 0 km/h
959 14-06-2004 23:48:01 16.9 C 9.92 g/m*3 16.9 C 0 km/h
960 15-06-2004 00:00:01 16.6 C 9.89 g/m*3 16.6 C 0 km/h
961 15-06-2004 00:12:01 16.5 C 9.97 g/m*3 16.5 C 0 km/h
962 15-06-2004 00:24:01 16.3 C 9.99 g/m*3 16.3 C 0 km/h
963 15-06-2004 00:36:01 16.2 C 9.93 g/m*3 16.2 C 0 km/h
964 15-06-2004 00:48:01 15.9 C 10.02 g/m*3 15.9 C 0 km/h
965 15-06-2004 01:00:01 15.8 C 10.1 g/m*3 15.8 C 0 km/h
966 15-06-2004 01:12:01 15.6 C 9.97 g/m*3 15.6 C 0 km/h
967 15-06-2004 01:24:01 15.6 C 10.11 g/m*3 15.6 C 0 km/h
968 15-06-2004 01:36:01 15.3 C 10.06 g/m*3 15.3 C 0 km/h
969 15-06-2004 01:48:01 15.1 C 10.06 g/m*3 15.1 C 0 km/h
970 15-06-2004 02:00:01 14.9 C 10.2 g/m*3 14.9 C 0 km/h
971 15-06-2004 02:12:01 14.8 C 10.26 g/m*3 14.8 C 0 km/h
972 15-06-2004 02:24:01 14.5 C 10.2 g/m*3 14.5 C 0 km/h
973 15-06-2004 02:36:01 14.5 C 10.2 g/m*3 14.5 C 0 km/h
974 15-06-2004 02:49:02 14.2 C 10.14 g/m*3 14.2 C 0 km/h
975 15-06-2004 03:01:02 14.2 C 10.14 g/m*3 14.2 C 0 km/h
Sensor: Nr:Datum:Temp:Abs-Feuchte:Windchill:Wind:
Aussen-T/F 976 15-06-2004 03:13:02 14 C 10.01 g/m*3 14 C 0 km/h
977 15-06-2004 03:25:02 13.8 C 10.01 g/m*3 13.8 C 0 km/h
978 15-06-2004 03:37:01 13.7 C 10.07 g/m*3 13.7 C 0 km/h
979 15-06-2004 03:49:01 13.6 C 10 g/m*3 13.6 C 0 km/h
980 15-06-2004 04:01:01 13.5 C 9.94 g/m*3 13.5 C 0 km/h
981 15-06-2004 04:13:01 13.5 C 9.94 g/m*3 13.5 C 0 km/h
982 15-06-2004 04:25:01 13.4 C 9.88 g/m*3 13.4 C 0 km/h
983 15-06-2004 04:37:01 13.3 C 9.94 g/m*3 13.3 C 0 km/h
984 15-06-2004 04:49:01 13.2 C 9.87 g/m*3 13.2 C 0 km/h
985 15-06-2004 05:01:01 13.2 C 9.87 g/m*3 13.2 C 0 km/h
986 15-06-2004 05:13:01 13.1 C 9.81 g/m*3 13.1 C 0 km/h
987 15-06-2004 05:25:01 13 C 9.75 g/m*3 13 C 0 km/h
988 15-06-2004 05:37:01 13.1 C 9.81 g/m*3 13.1 C 0 km/h
989 15-06-2004 05:49:01 13.2 C 9.87 g/m*3 13.2 C 0 km/h
990 15-06-2004 06:01:01 13.4 C 9.88 g/m*3 13.4 C 0 km/h
991 15-06-2004 06:13:01 13.6 C 9.89 g/m*3 13.6 C 0 km/h
992 15-06-2004 06:25:01 13.4 C 9.76 g/m*3 13.4 C 0 km/h
993 15-06-2004 06:37:02 13.4 C 9.76 g/m*3 13.4 C 0 km/h
994 15-06-2004 06:49:02 13.4 C 9.76 g/m*3 13.4 C 0 km/h
995 15-06-2004 07:01:01 13.4 C 9.76 g/m*3 13.4 C 0 km/h
996 15-06-2004 07:13:01 13.6 C 9.89 g/m*3 13.6 C 0 km/h
997 15-06-2004 07:25:02 14 C 10.01 g/m*3 14 C 0 km/h
998 15-06-2004 07:37:02 14.6 C 10.26 g/m*3 14.6 C 0 km/h
999 15-06-2004 07:49:02 14.7 C 9.95 g/m*3 14.7 C 0 km/h
1000 15-06-2004 08:01:02 14.9 C 10.07 g/m*3 14.9 C 0 km/h
Sensor: Nr:Datum:Temp:Abs-Feuchte:Windchill:Wind:
Aussen-T/F 1001 15-06-2004 08:13:02 15.2 C 10.12 g/m*3 15.2 C 0 km/h
1002 15-06-2004 08:25:02 15.4 C 10.25 g/m*3 15.4 C 0 km/h
1003 15-06-2004 08:37:02 15.7 C 10.44 g/m*3 15.7 C 0 km/h
1004 15-06-2004 08:49:01 16 C 10.63 g/m*3 16 C 0 km/h
1005 15-06-2004 09:01:01 17.1 C 10.77 g/m*3 17.1 C 0 km/h
1006 15-06-2004 09:13:01 17.3 C 10.61 g/m*3 17.3 C 0 km/h
1007 15-06-2004 09:25:01 17.9 C 11.15 g/m*3 17.9 C 0 km/h
1008 15-06-2004 09:37:01 18.5 C 11.08 g/m*3 18.5 C 0 km/h
1009 15-06-2004 09:49:01 19.3 C 11.44 g/m*3 19.3 C 0 km/h
1010 15-06-2004 10:01:01 20 C 11.58 g/m*3 20 C 0 km/h
1011 15-06-2004 10:13:01 20.4 C 11.5 g/m*3 20.4 C 0 km/h
1012 15-06-2004 10:25:01 21 C 11.17 g/m*3 21 C 0 km/h
1013 15-06-2004 10:37:01 21.6 C 11.19 g/m*3 21.6 C 0 km/h
1014 15-06-2004 10:49:01 22 C 11.06 g/m*3 22 C 0 km/h
1015 15-06-2004 11:01:01 22.9 C 11.24 g/m*3 22.9 C 0 km/h
1016 15-06-2004 11:13:01 23.1 C 11.16 g/m*3 23.1 C 0 km/h
1017 15-06-2004 11:25:01 23.1 C 11.16 g/m*3 23.1 C 0 km/h
1018 15-06-2004 11:37:01 24 C 11.31 g/m*3 24 C 0 km/h
1019 15-06-2004 11:49:01 24.8 C 11.38 g/m*3 24.8 C 0 km/h
1020 15-06-2004 12:01:01 26.2 C 11.08 g/m*3 26.2 C 0 km/h
1021 15-06-2004 12:13:01 27.3 C 11.25 g/m*3 27.3 C 0 km/h
1022 15-06-2004 12:25:01 26.5 C 10.51 g/m*3 26.5 C 0 km/h
1023 15-06-2004 12:37:01 27.2 C 10.41 g/m*3 27.2 C 0 km/h
1024 15-06-2004 12:49:01 28.7 C 10.46 g/m*3 28.7 C 0 km/h
1025 15-06-2004 13:01:01 27.3 C 10.47 g/m*3 27.3 C 0 km/h
Sensor: Nr:Datum:Temp:Abs-Feuchte:Windchill:Wind:
Aussen-T/F 1026 15-06-2004 13:13:01 26.9 C 10.49 g/m*3 26.9 C 0 km/h
1027 15-06-2004 13:25:01 28.1 C 10.94 g/m*3 28.1 C 0 km/h
1028 15-06-2004 13:37:01 28 C 11.42 g/m*3 28 C 0 km/h
1029 15-06-2004 13:49:01 28.7 C 9.89 g/m*3 28.7 C 0 km/h
1030 15-06-2004 14:01:01 27.1 C 10.87 g/m*3 27.1 C 0 km/h
1031 15-06-2004 14:13:01 26.9 C 11.26 g/m*3 26.9 C 0 km/h
1032 15-06-2004 14:25:01 26.6 C 12.33 g/m*3 26.6 C 0 km/h
1033 15-06-2004 14:37:01 27.4 C 11.31 g/m*3 27.4 C 0 km/h
1034 15-06-2004 14:49:01 27 C 9.26 g/m*3 27 C 0 km/h
1035 15-06-2004 15:01:01 26.8 C 10.18 g/m*3 26.8 C 0 km/h
1036 15-06-2004 15:13:01 27.3 C 9.16 g/m*3 27.3 C 0 km/h
1037 15-06-2004 15:25:01 28.1 C 9.57 g/m*3 28.1 C 0 km/h
1038 15-06-2004 15:37:01 28.4 C 8.62 g/m*3 28.4 C 0 km/h
1039 15-06-2004 15:49:01 28.8 C 8.81 g/m*3 28.8 C 0 km/h
1040 15-06-2004 16:01:01 29 C 8.9 g/m*3 29 C 0 km/h
1041 15-06-2004 16:13:01 28.3 C 9.4 g/m*3 28.3 C 0 km/h
1042 15-06-2004 16:25:01 28.2 C 9.07 g/m*3 28.2 C 0 km/h
1043 15-06-2004 16:37:01 28.8 C 10.23 g/m*3 28.8 C 0 km/h
1044 15-06-2004 16:49:02 29.1 C 9.82 g/m*3 29.1 C 0 km/h
1045 15-06-2004 17:01:01 28.3 C 9.95 g/m*3 28.3 C 0 km/h
1046 15-06-2004 17:13:01 27.4 C 9.74 g/m*3 27.4 C 0 km/h
1047 15-06-2004 17:25:01 27.4 C 10 g/m*3 27.4 C 0 km/h
1048 15-06-2004 17:37:01 26.7 C 9.62 g/m*3 26.7 C 0 km/h
1049 15-06-2004 17:49:01 27.3 C 9.68 g/m*3 27.3 C 0 km/h
1050 15-06-2004 18:01:01 28.3 C 9.68 g/m*3 28.3 C 0 km/h
Sensor: Nr:Datum:Temp:Abs-Feuchte:Windchill:Wind:
Aussen-T/F 1051 15-06-2004 18:13:01 28 C 9.79 g/m*3 28 C 0 km/h
1052 15-06-2004 18:25:01 28.1 C 9.84 g/m*3 28.1 C 0 km/h
1053 15-06-2004 18:37:01 28.6 C 10.12 g/m*3 28.6 C 0 km/h
1054 15-06-2004 18:49:01 27.2 C 10.15 g/m*3 27.2 C 0 km/h
1055 15-06-2004 19:01:01 26.6 C 10.57 g/m*3 26.6 C 0 km/h
1056 15-06-2004 19:13:01 25.6 C 10.71 g/m*3 25.6 C 0 km/h
1057 15-06-2004 19:25:01 24.8 C 10.93 g/m*3 24.8 C 0 km/h
1058 15-06-2004 19:37:01 24.6 C 11.03 g/m*3 24.6 C 0 km/h
1059 15-06-2004 19:49:03 24 C 10.88 g/m*3 24 C 0 km/h
1060 15-06-2004 20:01:02 23.6 C 11.06 g/m*3 23.6 C 0 km/h
1061 15-06-2004 20:13:02 23.3 C 10.87 g/m*3 23.3 C 0 km/h
1062 15-06-2004 20:25:02 22.9 C 11.24 g/m*3 22.9 C 0 km/h
1063 15-06-2004 20:37:03 22.3 C 11.26 g/m*3 22.3 C 0 km/h
1064 15-06-2004 20:49:01 22.2 C 11.39 g/m*3 22.2 C 0 km/h
1065 15-06-2004 21:01:01 21.7 C 11.45 g/m*3 21.7 C 0 km/h
1066 15-06-2004 21:13:01 21 C 11.54 g/m*3 21 C 0 km/h
1067 15-06-2004 21:25:02 20.8 C 11.77 g/m*3 20.8 C 0 km/h
1068 15-06-2004 21:37:01 20.5 C 11.39 g/m*3 20.5 C 0 km/h
1069 15-06-2004 21:49:02 20.4 C 11.32 g/m*3 20.4 C 0 km/h
1070 15-06-2004 22:01:03 20.2 C 11.02 g/m*3 20.2 C 0 km/h
1071 15-06-2004 22:13:03 19.9 C 10.82 g/m*3 19.9 C 0 km/h
1072 15-06-2004 22:25:03 19.6 C 10.13 g/m*3 19.6 C 0 km/h
1073 15-06-2004 22:37:04 19.5 C 10.24 g/m*3 19.5 C 0 km/h
1074 15-06-2004 22:49:02 19.4 C 10.34 g/m*3 19.4 C 0 km/h
1075 15-06-2004 23:01:01 19 C 10.27 g/m*3 19 C 0 km/h
Sensor: Nr:Datum:Temp:Abs-Feuchte:Windchill:Wind:
Aussen-T/F 1076 15-06-2004 23:13:01 18.9 C 10.21 g/m*3 18.9 C 0 km/h
1077 15-06-2004 23:25:01 18.9 C 10.37 g/m*3 18.9 C 0 km/h
1078 15-06-2004 23:37:01 18.9 C 10.21 g/m*3 18.9 C 0 km/h
1079 15-06-2004 23:49:01 18.8 C 10.15 g/m*3 18.8 C 0 km/h
1080 16-06-2004 00:01:01 18.4 C 10.22 g/m*3 18.4 C 0 km/h
1081 16-06-2004 00:13:01 18.3 C 10.16 g/m*3 18.3 C 0 km/h
1082 16-06-2004 00:25:01 17.6 C 9.45 g/m*3 17.6 C 0 km/h
1083 16-06-2004 00:37:01 17.7 C 9.2 g/m*3 17.7 C 0 km/h
1084 16-06-2004 00:49:01 17.9 C 9.16 g/m*3 17.9 C 0 km/h
1085 16-06-2004 01:01:01 17.5 C 9.09 g/m*3 17.5 C 0 km/h
1086 16-06-2004 01:13:01 17.2 C 9.23 g/m*3 17.2 C 0 km/h
1087 16-06-2004 01:25:01 16.9 C 9.35 g/m*3 16.9 C 0 km/h
1088 16-06-2004 01:37:01 16.4 C 9.07 g/m*3 16.4 C 0 km/h
1089 16-06-2004 01:49:01 16.1 C 8.64 g/m*3 16.1 C 0 km/h
1090 16-06-2004 02:01:01 15.9 C 8.53 g/m*3 15.9 C 0 km/h
1091 16-06-2004 02:13:01 15.6 C 8.78 g/m*3 15.6 C 0 km/h
1092 16-06-2004 02:25:01 15.6 C 8.78 g/m*3 15.6 C 0 km/h
1093 16-06-2004 02:37:01 15.3 C 8.88 g/m*3 15.3 C 0 km/h
1094 16-06-2004 02:50:02 15.1 C 9.16 g/m*3 15.1 C 0 km/h
1095 16-06-2004 03:02:02 15 C 9.23 g/m*3 15 C 0 km/h
1096 16-06-2004 03:14:02 15.2 C 9.09 g/m*3 15.2 C 0 km/h
1097 16-06-2004 03:26:02 15 C 8.85 g/m*3 15 C 0 km/h
1098 16-06-2004 03:38:01 14.9 C 8.92 g/m*3 14.9 C 0 km/h
1099 16-06-2004 03:50:01 14.8 C 8.87 g/m*3 14.8 C 0 km/h
1100 16-06-2004 04:02:01 14.5 C 8.83 g/m*3 14.5 C 0 km/h
Sensor: Nr:Datum:Temp:Abs-Feuchte:Windchill:Wind:
Aussen-T/F 1101 16-06-2004 04:14:01 14.5 C 8.83 g/m*3 14.5 C 0 km/h
1102 16-06-2004 04:26:01 14.2 C 8.67 g/m*3 14.2 C 0 km/h
1103 16-06-2004 04:38:01 14.1 C 8.62 g/m*3 14.1 C 0 km/h
1104 16-06-2004 04:50:01 13.7 C 8.41 g/m*3 13.7 C 0 km/h
1105 16-06-2004 05:02:01 13.6 C 8.47 g/m*3 13.6 C 0 km/h
1106 16-06-2004 05:14:01 13.6 C 8.24 g/m*3 13.6 C 0 km/h
1107 16-06-2004 05:26:01 13.7 C 8.17 g/m*3 13.7 C 0 km/h
1108 16-06-2004 05:38:01 13.4 C 7.9 g/m*3 13.4 C 0 km/h
1109 16-06-2004 05:50:01 13.3 C 7.97 g/m*3 13.3 C 0 km/h
1110 16-06-2004 06:02:01 13.2 C 7.81 g/m*3 13.2 C 0 km/h
1111 16-06-2004 06:14:01 13.2 C 7.81 g/m*3 13.2 C 0 km/h
1112 16-06-2004 06:26:01 13.2 C 7.58 g/m*3 13.2 C 0 km/h
1113 16-06-2004 06:38:01 12.8 C 7.62 g/m*3 12.8 C 0 km/h
1114 16-06-2004 06:50:01 12.9 C 7.66 g/m*3 12.9 C 0 km/h
1115 16-06-2004 07:02:01 13 C 7.6 g/m*3 13 C 0 km/h
1116 16-06-2004 07:14:01 13.1 C 7.42 g/m*3 13.1 C 0 km/h
1117 16-06-2004 07:26:02 13.2 C 7.23 g/m*3 13.2 C 0 km/h
1118 16-06-2004 07:38:01 13.3 C 7.28 g/m*3 13.3 C 0 km/h
1119 16-06-2004 07:50:01 13.9 C 7.31 g/m*3 13.9 C 0 km/h
1120 16-06-2004 08:02:02 14.1 C 6.43 g/m*3 14.1 C 0 km/h
1121 16-06-2004 08:14:02 14.4 C 6.68 g/m*3 14.4 C 0 km/h
1122 16-06-2004 08:26:01 14.9 C 6.5 g/m*3 14.9 C 0 km/h
1123 16-06-2004 08:38:02 14.7 C 6.42 g/m*3 14.7 C 0 km/h
1124 16-06-2004 08:50:02 14.8 C 6.46 g/m*3 14.8 C 0 km/h
1125 16-06-2004 09:02:02 15 C 6.54 g/m*3 15 C 0 km/h
Sensor: Nr:Datum:Temp:Abs-Feuchte:Windchill:Wind:
Aussen-T/F 1126 16-06-2004 09:14:02 15.1 C 5.81 g/m*3 15.1 C 0 km/h
1127 16-06-2004 09:26:02 15.1 C 5.93 g/m*3 15.1 C 0 km/h
1128 16-06-2004 09:38:02 16 C 6.13 g/m*3 16 C 0 km/h
1129 16-06-2004 09:50:01 16.4 C 6 g/m*3 16.4 C 0 km/h
1130 16-06-2004 10:02:01 16.1 C 6.03 g/m*3 16.1 C 0 km/h
1131 16-06-2004 10:14:01 15.2 C 6.36 g/m*3 15.2 C 0 km/h
1132 16-06-2004 10:26:01 15.2 C 6.62 g/m*3 15.2 C 0 km/h
1133 16-06-2004 10:38:01 15.2 C 6.88 g/m*3 15.2 C 0 km/h
1134 16-06-2004 10:50:01 15.5 C 7.01 g/m*3 15.5 C 0 km/h
1135 16-06-2004 11:02:01 15.8 C 7.13 g/m*3 15.8 C 0 km/h
1136 16-06-2004 11:14:01 16 C 7.08 g/m*3 16 C 0 km/h
1137 16-06-2004 11:26:01 15.2 C 7.27 g/m*3 15.2 C 0 km/h
1138 16-06-2004 11:38:01 15.6 C 7.31 g/m*3 15.6 C 0 km/h
1139 16-06-2004 11:50:01 16.4 C 7.26 g/m*3 16.4 C 0 km/h
1140 16-06-2004 12:02:01 17 C 6.95 g/m*3 17 C 0 km/h
1141 16-06-2004 12:14:01 17.1 C 6.84 g/m*3 17.1 C 0 km/h
1142 16-06-2004 12:26:01 17.3 C 7.07 g/m*3 17.3 C 0 km/h
1143 16-06-2004 12:38:01 17.4 C 6.67 g/m*3 17.4 C 0 km/h
1144 16-06-2004 12:50:01 18 C 6.76 g/m*3 18 C 0 km/h
1145 16-06-2004 13:02:01 18.5 C 6.49 g/m*3 18.5 C 0 km/h
1146 16-06-2004 13:14:01 18.3 C 6.25 g/m*3 18.3 C 0 km/h
1147 16-06-2004 13:26:01 18.7 C 6.24 g/m*3 18.7 C 0 km/h
1148 16-06-2004 13:38:00 18.7 C 6.4 g/m*3 18.7 C 0 km/h
1149 16-06-2004 13:50:01 19.2 C 5.61 g/m*3 19.2 C 0 km/h
1150 16-06-2004 14:02:01 19 C 6.03 g/m*3 19 C 0 km/h
Sensor: Nr:Datum:Temp:Abs-Feuchte:Windchill:Wind:
Aussen-T/F 1151 16-06-2004 14:14:01 18.3 C 6.1 g/m*3 18.3 C 0 km/h
1152 16-06-2004 14:26:01 19.1 C 6.23 g/m*3 19.1 C 0 km/h
1153 16-06-2004 14:38:01 20.7 C 6.48 g/m*3 20.7 C 0 km/h
1154 16-06-2004 14:50:01 20.2 C 6.12 g/m*3 20.2 C 0 km/h
1155 16-06-2004 15:02:01 20.3 C 6.16 g/m*3 20.3 C 0 km/h
1156 16-06-2004 15:14:01 22.1 C 6.83 g/m*3 22.1 C 0 km/h
1157 16-06-2004 15:26:02 22.4 C 6.16 g/m*3 22.4 C 0 km/h
1158 16-06-2004 15:38:01 22.5 C 6.39 g/m*3 22.5 C 0 km/h
1159 16-06-2004 15:50:01 21.5 C 6.03 g/m*3 21.5 C 0 km/h
1160 16-06-2004 16:02:01 20.9 C 6.37 g/m*3 20.9 C 0 km/h
1161 16-06-2004 16:14:01 21.7 C 6.49 g/m*3 21.7 C 0 km/h
1162 16-06-2004 16:26:01 21 C 5.68 g/m*3 21 C 0 km/h
1163 16-06-2004 16:38:01 22.5 C 6.59 g/m*3 22.5 C 0 km/h
1164 16-06-2004 16:50:01 22.9 C 6.13 g/m*3 22.9 C 0 km/h
1165 16-06-2004 17:02:01 20.8 C 5.98 g/m*3 20.8 C 0 km/h
1166 16-06-2004 17:14:01 22.2 C 6.09 g/m*3 22.2 C 0 km/h
1167 16-06-2004 17:26:01 22 C 5.82 g/m*3 22 C 0 km/h
1168 16-06-2004 17:38:01 21.1 C 6.26 g/m*3 21.1 C 0 km/h
1169 16-06-2004 17:50:01 22.2 C 5.89 g/m*3 22.2 C 0 km/h
1170 16-06-2004 18:02:01 21.9 C 5.79 g/m*3 21.9 C 0 km/h
1171 16-06-2004 18:14:01 21.1 C 5.71 g/m*3 21.1 C 0 km/h
1172 16-06-2004 18:26:01 21.8 C 5.95 g/m*3 21.8 C 0 km/h
1173 16-06-2004 18:38:01 21.8 C 6.33 g/m*3 21.8 C 0 km/h
1174 16-06-2004 18:50:01 21.6 C 6.07 g/m*3 21.6 C 0 km/h
1175 16-06-2004 19:02:01 21.6 C 6.26 g/m*3 21.6 C 0 km/h
Sensor: Nr:Datum:Temp:Abs-Feuchte:Windchill:Wind:
Aussen-T/F 1176 16-06-2004 19:14:01 21.2 C 6.3 g/m*3 21.2 C 0 km/h
1177 16-06-2004 19:26:01 21.5 C 6.6 g/m*3 21.5 C 0 km/h
1178 16-06-2004 19:38:01 22 C 6.6 g/m*3 22 C 0 km/h
1179 16-06-2004 19:50:01 21.9 C 6.75 g/m*3 21.9 C 0 km/h
1180 16-06-2004 20:02:01 21.6 C 6.64 g/m*3 21.6 C 0 km/h
1181 16-06-2004 20:14:01 20.6 C 6.62 g/m*3 20.6 C 0 km/h
1182 16-06-2004 20:26:01 21.2 C 6.67 g/m*3 21.2 C 0 km/h
1183 16-06-2004 20:38:01 20.2 C 6.64 g/m*3 20.2 C 0 km/h
1184 16-06-2004 20:50:01 19.6 C 7.09 g/m*3 19.6 C 0 km/h
1185 16-06-2004 21:02:01 19 C 7.33 g/m*3 19 C 0 km/h
1186 16-06-2004 21:14:01 18.3 C 7.51 g/m*3 18.3 C 0 km/h
1187 16-06-2004 21:26:01 17.4 C 7.56 g/m*3 17.4 C 0 km/h
1188 16-06-2004 21:38:01 16.9 C 7.62 g/m*3 16.9 C 0 km/h
1189 16-06-2004 21:50:01 16.5 C 7.44 g/m*3 16.5 C 0 km/h
1190 16-06-2004 22:02:01 16 C 7.49 g/m*3 16 C 0 km/h
1191 16-06-2004 22:14:01 16.1 C 7.68 g/m*3 16.1 C 0 km/h
1192 16-06-2004 22:26:01 15.9 C 7.72 g/m*3 15.9 C 0 km/h
1193 16-06-2004 22:38:01 15.4 C 7.62 g/m*3 15.4 C 0 km/h
1194 16-06-2004 22:50:01 15.1 C 7.61 g/m*3 15.1 C 0 km/h
1195 16-06-2004 23:02:01 14.7 C 7.81 g/m*3 14.7 C 0 km/h
1196 16-06-2004 23:14:01 14.4 C 7.79 g/m*3 14.4 C 0 km/h
1197 16-06-2004 23:26:01 14.2 C 7.82 g/m*3 14.2 C 0 km/h
1198 16-06-2004 23:38:01 14.1 C 7.89 g/m*3 14.1 C 0 km/h
1199 16-06-2004 23:50:01 13.9 C 8.03 g/m*3 13.9 C 0 km/h
1200 17-06-2004 00:02:02 13.4 C 7.9 g/m*3 13.4 C 0 km/h
Sensor: Nr:Datum:Temp:Abs-Feuchte:Windchill:Wind:
Aussen-T/F 1201 17-06-2004 00:14:02 13.2 C 7.92 g/m*3 13.2 C 0 km/h
1202 17-06-2004 00:26:01 13.1 C 7.87 g/m*3 13.1 C 0 km/h
1203 17-06-2004 00:38:01 12.8 C 8.06 g/m*3 12.8 C 0 km/h
1204 17-06-2004 00:50:01 12.5 C 8.03 g/m*3 12.5 C 0 km/h
1205 17-06-2004 01:02:01 12.3 C 7.93 g/m*3 12.3 C 0 km/h
1206 17-06-2004 01:14:01 12.1 C 7.94 g/m*3 12.1 C 0 km/h
1207 17-06-2004 01:26:01 12 C 7.99 g/m*3 12 C 0 km/h
1208 17-06-2004 01:38:01 11.8 C 8 g/m*3 11.8 C 0 km/h
1209 17-06-2004 01:50:01 11.5 C 7.85 g/m*3 11.5 C 0 km/h
1210 17-06-2004 02:02:01 11.5 C 7.85 g/m*3 11.5 C 0 km/h
1211 17-06-2004 02:14:01 11.6 C 8 g/m*3 11.6 C 0 km/h
1212 17-06-2004 02:26:01 11.4 C 8.01 g/m*3 11.4 C 0 km/h
1213 17-06-2004 02:38:01 11.3 C 7.96 g/m*3 11.3 C 0 km/h
1214 17-06-2004 02:51:02 11.4 C 8.01 g/m*3 11.4 C 0 km/h
1215 17-06-2004 03:03:02 11.5 C 7.95 g/m*3 11.5 C 0 km/h
1216 17-06-2004 03:15:03 11.7 C 8.05 g/m*3 11.7 C 0 km/h
1217 17-06-2004 03:27:03 12.1 C 7.94 g/m*3 12.1 C 0 km/h
1218 17-06-2004 03:39:02 12.3 C 8.04 g/m*3 12.3 C 0 km/h
1219 17-06-2004 03:51:02 12.5 C 8.03 g/m*3 12.5 C 0 km/h
1220 17-06-2004 04:03:02 12.4 C 7.98 g/m*3 12.4 C 0 km/h
1221 17-06-2004 04:15:02 12.1 C 7.83 g/m*3 12.1 C 0 km/h
1222 17-06-2004 04:27:02 12.1 C 7.83 g/m*3 12.1 C 0 km/h
1223 17-06-2004 04:39:02 12.2 C 7.77 g/m*3 12.2 C 0 km/h
1224 17-06-2004 04:51:01 12.3 C 7.71 g/m*3 12.3 C 0 km/h
1225 17-06-2004 05:03:01 12.3 C 7.71 g/m*3 12.3 C 0 km/h
Sensor: Nr:Datum:Temp:Abs-Feuchte:Windchill:Wind:
Aussen-T/F 1226 17-06-2004 05:15:01 12.3 C 7.71 g/m*3 12.3 C 0 km/h
1227 17-06-2004 05:27:01 12.3 C 7.82 g/m*3 12.3 C 0 km/h
1228 17-06-2004 05:39:01 12.4 C 7.87 g/m*3 12.4 C 0 km/h
1229 17-06-2004 05:51:01 12.4 C 7.98 g/m*3 12.4 C 0 km/h
1230 17-06-2004 06:03:01 12.5 C 7.92 g/m*3 12.5 C 0 km/h
1231 17-06-2004 06:15:01 12.7 C 7.9 g/m*3 12.7 C 0 km/h
1232 17-06-2004 06:27:01 12.7 C 7.9 g/m*3 12.7 C 0 km/h
1233 17-06-2004 06:39:01 12.8 C 7.84 g/m*3 12.8 C 0 km/h
1234 17-06-2004 06:51:01 12.9 C 7.89 g/m*3 12.9 C 0 km/h
1235 17-06-2004 07:03:01 12.7 C 7.9 g/m*3 12.7 C 0 km/h
1236 17-06-2004 07:15:01 12.9 C 8 g/m*3 12.9 C 0 km/h
1237 17-06-2004 07:27:01 13.4 C 7.9 g/m*3 13.4 C 0 km/h
1238 17-06-2004 07:39:00 13.8 C 7.98 g/m*3 13.8 C 0 km/h
1239 17-06-2004 07:51:01 14.2 C 7.94 g/m*3 14.2 C 0 km/h
1240 17-06-2004 08:03:01 14.4 C 8.03 g/m*3 14.4 C 0 km/h
1241 17-06-2004 08:15:01 14.5 C 8.08 g/m*3 14.5 C 0 km/h
1242 17-06-2004 08:27:01 15 C 7.95 g/m*3 15 C 0 km/h
1243 17-06-2004 08:39:01 16.1 C 7.81 g/m*3 16.1 C 0 km/h
1244 17-06-2004 08:51:01 16.1 C 7.68 g/m*3 16.1 C 0 km/h
1245 17-06-2004 09:03:01 16 C 7.77 g/m*3 16 C 0 km/h
1246 17-06-2004 09:15:01 16.7 C 7.82 g/m*3 16.7 C 0 km/h
1247 17-06-2004 09:27:01 16.8 C 7.86 g/m*3 16.8 C 0 km/h
1248 17-06-2004 09:39:00 17 C 7.81 g/m*3 17 C 0 km/h
1249 17-06-2004 09:51:01 16.9 C 8.05 g/m*3 16.9 C 0 km/h
1250 17-06-2004 10:03:01 17 C 8.1 g/m*3 17 C 0 km/h
Sensor: Nr:Datum:Temp:Abs-Feuchte:Windchill:Wind:
Aussen-T/F 1251 17-06-2004 10:15:01 18.6 C 8.59 g/m*3 18.6 C 0 km/h
1252 17-06-2004 10:27:01 19.6 C 8.44 g/m*3 19.6 C 0 km/h
1253 17-06-2004 10:39:01 19.1 C 8.36 g/m*3 19.1 C 0 km/h
1254 17-06-2004 10:51:01 18.9 C 8.59 g/m*3 18.9 C 0 km/h
1255 17-06-2004 11:03:01 19.4 C 8.34 g/m*3 19.4 C 0 km/h
1256 17-06-2004 11:15:01 20.2 C 8.92 g/m*3 20.2 C 0 km/h
1257 17-06-2004 11:27:01 20.7 C 9 g/m*3 20.7 C 0 km/h
1258 17-06-2004 11:39:01 21.4 C 9 g/m*3 21.4 C 0 km/h
1259 17-06-2004 11:51:01 22 C 8.93 g/m*3 22 C 0 km/h
1260 17-06-2004 12:03:01 22.3 C 8.89 g/m*3 22.3 C 0 km/h
1261 17-06-2004 12:15:01 23.2 C 8.94 g/m*3 23.2 C 0 km/h
1262 17-06-2004 12:27:01 23.7 C 8.98 g/m*3 23.7 C 0 km/h
1263 17-06-2004 12:39:01 23.1 C 8.48 g/m*3 23.1 C 0 km/h
1264 17-06-2004 12:51:01 24.4 C 9.12 g/m*3 24.4 C 0 km/h
1265 17-06-2004 13:03:01 24.2 C 8.8 g/m*3 24.2 C 0 km/h
1266 17-06-2004 13:15:01 24.9 C 9.16 g/m*3 24.9 C 0 km/h
1267 17-06-2004 13:27:01 24.8 C 8.42 g/m*3 24.8 C 0 km/h
1268 17-06-2004 13:39:01 25.4 C 9.18 g/m*3 25.4 C 0 km/h
1269 17-06-2004 13:51:01 25.3 C 8.9 g/m*3 25.3 C 0 km/h
1270 17-06-2004 14:03:01 24.8 C 8.65 g/m*3 24.8 C 0 km/h
1271 17-06-2004 14:15:01 24.7 C 9.05 g/m*3 24.7 C 0 km/h
1272 17-06-2004 14:27:01 25.2 C 9.08 g/m*3 25.2 C 0 km/h
1273 17-06-2004 14:39:01 25.7 C 8.86 g/m*3 25.7 C 0 km/h
1274 17-06-2004 14:51:01 25.8 C 8.91 g/m*3 25.8 C 0 km/h
1275 17-06-2004 15:03:01 25.8 C 8.67 g/m*3 25.8 C 0 km/h
Sensor: Nr:Datum:Temp:Abs-Feuchte:Windchill:Wind:
Aussen-T/F 1276 17-06-2004 15:15:01 24.8 C 8.65 g/m*3 24.8 C 0 km/h
1277 17-06-2004 15:27:01 25.2 C 8.85 g/m*3 25.2 C 0 km/h
1278 17-06-2004 15:39:01 25.3 C 8.9 g/m*3 25.3 C 0 km/h
1279 17-06-2004 15:51:01 25.9 C 8.72 g/m*3 25.9 C 0 km/h
1280 17-06-2004 16:03:01 24.9 C 8.93 g/m*3 24.9 C 0 km/h
1281 17-06-2004 16:15:01 22.9 C 9.81 g/m*3 22.9 C 0 km/h
1282 17-06-2004 16:27:01 22.4 C 10.72 g/m*3 22.4 C 0 km/h
1283 17-06-2004 16:39:01 23.1 C 10.96 g/m*3 23.1 C 0 km/h
1284 17-06-2004 16:51:02 24.3 C 8.85 g/m*3 24.3 C 0 km/h
1285 17-06-2004 17:03:02 23.3 C 10.66 g/m*3 23.3 C 0 km/h
1286 17-06-2004 17:15:01 23.9 C 10.38 g/m*3 23.9 C 0 km/h
1287 17-06-2004 17:27:01 23.8 C 9.68 g/m*3 23.8 C 0 km/h
1288 17-06-2004 17:39:01 23.6 C 8.72 g/m*3 23.6 C 0 km/h
1289 17-06-2004 17:51:02 22.5 C 9.39 g/m*3 22.5 C 0 km/h
1290 17-06-2004 18:03:02 22.7 C 9.29 g/m*3 22.7 C 0 km/h
1291 17-06-2004 18:15:01 24.2 C 8.8 g/m*3 24.2 C 0 km/h
1292 17-06-2004 18:27:01 24.8 C 8.42 g/m*3 24.8 C 0 km/h
1293 17-06-2004 18:39:02 23.6 C 7.87 g/m*3 23.6 C 0 km/h
1294 17-06-2004 18:51:01 23.8 C 7.96 g/m*3 23.8 C 0 km/h
1295 17-06-2004 19:03:02 23.1 C 8.06 g/m*3 23.1 C 0 km/h
1296 17-06-2004 19:15:02 23.3 C 7.32 g/m*3 23.3 C 0 km/h
1297 17-06-2004 19:27:02 23.9 C 6.71 g/m*3 23.9 C 0 km/h
1298 17-06-2004 19:39:02 23.9 C 6.49 g/m*3 23.9 C 0 km/h
1299 17-06-2004 19:51:02 22.9 C 6.54 g/m*3 22.9 C 0 km/h
1300 17-06-2004 20:03:02 21.9 C 7.14 g/m*3 21.9 C 0 km/h
Sensor: Nr:Datum:Temp:Abs-Feuchte:Windchill:Wind:
Aussen-T/F 1301 17-06-2004 20:15:02 22 C 7.18 g/m*3 22 C 0 km/h
1302 17-06-2004 20:27:02 21.7 C 7.25 g/m*3 21.7 C 0 km/h
1303 17-06-2004 20:39:02 21 C 7.33 g/m*3 21 C 0 km/h
1304 17-06-2004 20:51:01 20.5 C 7.65 g/m*3 20.5 C 0 km/h
1305 17-06-2004 21:03:01 20.1 C 8.17 g/m*3 20.1 C 0 km/h
1306 17-06-2004 21:15:01 19.4 C 8.34 g/m*3 19.4 C 0 km/h
1307 17-06-2004 21:27:01 18.8 C 8.37 g/m*3 18.8 C 0 km/h
1308 17-06-2004 21:39:01 18.8 C 8.37 g/m*3 18.8 C 0 km/h
1309 17-06-2004 21:51:01 18.7 C 8.33 g/m*3 18.7 C 0 km/h
1310 17-06-2004 22:03:01 18.4 C 8.65 g/m*3 18.4 C 0 km/h
1311 17-06-2004 22:15:01 18.2 C 8.7 g/m*3 18.2 C 0 km/h
1312 17-06-2004 22:27:01 18.2 C 8.86 g/m*3 18.2 C 0 km/h
1313 17-06-2004 22:39:01 18.1 C 8.96 g/m*3 18.1 C 0 km/h
1314 17-06-2004 22:51:01 17.4 C 9.34 g/m*3 17.4 C 0 km/h
1315 17-06-2004 23:03:00 17.5 C 9.09 g/m*3 17.5 C 0 km/h
1316 17-06-2004 23:15:00 17.6 C 9.3 g/m*3 17.6 C 0 km/h
1317 17-06-2004 23:27:00 17.5 C 9.24 g/m*3 17.5 C 0 km/h
1318 17-06-2004 23:39:00 17.4 C 9.34 g/m*3 17.4 C 0 km/h
1319 17-06-2004 23:51:01 15.9 C 9.75 g/m*3 15.9 C 0 km/h
1320 18-06-2004 00:03:01 15.7 C 10.7 g/m*3 15.7 C 0 km/h
1321 18-06-2004 00:15:00 15.2 C 10.64 g/m*3 15.2 C 0 km/h
1322 18-06-2004 00:27:00 14.9 C 10.2 g/m*3 14.9 C 0 km/h
1323 18-06-2004 00:39:00 14.7 C 10.32 g/m*3 14.7 C 0 km/h
1324 18-06-2004 00:51:01 14.7 C 10.45 g/m*3 14.7 C 0 km/h
1325 18-06-2004 01:03:01 15.2 C 9.73 g/m*3 15.2 C 0 km/h
Sensor: Nr:Datum:Temp:Abs-Feuchte:Windchill:Wind:
Aussen-T/F 1326 18-06-2004 01:15:01 15.3 C 9.01 g/m*3 15.3 C 0 km/h
1327 18-06-2004 01:27:01 15.3 C 8.75 g/m*3 15.3 C 0 km/h
1328 18-06-2004 01:39:01 15.3 C 9.14 g/m*3 15.3 C 0 km/h
1329 18-06-2004 01:51:01 15.3 C 9.53 g/m*3 15.3 C 0 km/h
1330 18-06-2004 02:03:01 15.3 C 9.66 g/m*3 15.3 C 0 km/h
1331 18-06-2004 02:15:01 15.2 C 9.61 g/m*3 15.2 C 0 km/h
1332 18-06-2004 02:27:01 15.2 C 9.48 g/m*3 15.2 C 0 km/h
1333 18-06-2004 02:39:01 15.2 C 9.35 g/m*3 15.2 C 0 km/h
1334 18-06-2004 02:52:03 15.1 C 9.42 g/m*3 15.1 C 0 km/h
1335 18-06-2004 03:04:03 15.2 C 9.35 g/m*3 15.2 C 0 km/h
1336 18-06-2004 03:16:03 15.2 C 9.35 g/m*3 15.2 C 0 km/h
1337 18-06-2004 03:28:03 15.2 C 9.35 g/m*3 15.2 C 0 km/h
1338 18-06-2004 03:40:01 15.2 C 9.09 g/m*3 15.2 C 0 km/h
1339 18-06-2004 03:52:01 15.1 C 9.03 g/m*3 15.1 C 0 km/h
1340 18-06-2004 04:04:01 15.2 C 8.96 g/m*3 15.2 C 0 km/h
1341 18-06-2004 04:16:00 15.1 C 8.77 g/m*3 15.1 C 0 km/h
1342 18-06-2004 04:28:00 15 C 9.1 g/m*3 15 C 0 km/h
1343 18-06-2004 04:40:00 15 C 8.98 g/m*3 15 C 0 km/h
1344 18-06-2004 04:52:01 15 C 9.1 g/m*3 15 C 0 km/h
1345 18-06-2004 05:04:01 14.8 C 8.99 g/m*3 14.8 C 0 km/h
1346 18-06-2004 05:16:01 14.7 C 8.94 g/m*3 14.7 C 0 km/h
1347 18-06-2004 05:28:01 14.7 C 8.94 g/m*3 14.7 C 0 km/h
1348 18-06-2004 05:40:00 14.7 C 8.94 g/m*3 14.7 C 0 km/h
1349 18-06-2004 05:52:01 14.5 C 8.83 g/m*3 14.5 C 0 km/h
1350 18-06-2004 06:04:01 14.6 C 8.88 g/m*3 14.6 C 0 km/h
Sensor: Nr:Datum:Temp:Abs-Feuchte:Windchill:Wind:
Aussen-T/F 1351 18-06-2004 06:16:01 14.5 C 8.83 g/m*3 14.5 C 0 km/h
1352 18-06-2004 06:28:01 14.5 C 8.71 g/m*3 14.5 C 0 km/h
1353 18-06-2004 06:40:01 14.1 C 8.98 g/m*3 14.1 C 0 km/h
1354 18-06-2004 06:52:01 13.8 C 9.17 g/m*3 13.8 C 0 km/h
1355 18-06-2004 07:04:01 13.5 C 9.36 g/m*3 13.5 C 0 km/h
1356 18-06-2004 07:16:01 13.2 C 9.76 g/m*3 13.2 C 0 km/h
1357 18-06-2004 07:28:01 13 C 9.75 g/m*3 13 C 0 km/h
1358 18-06-2004 07:40:01 12.9 C 9.69 g/m*3 12.9 C 0 km/h
1359 18-06-2004 07:52:01 13 C 9.75 g/m*3 13 C 0 km/h
1360 18-06-2004 08:04:01 13.5 C 10.06 g/m*3 13.5 C 0 km/h
1361 18-06-2004 08:16:01 13.9 C 10.07 g/m*3 13.9 C 0 km/h
1362 18-06-2004 08:28:01 14.1 C 9.95 g/m*3 14.1 C 0 km/h
1363 18-06-2004 08:40:01 14.1 C 9.71 g/m*3 14.1 C 0 km/h
1364 18-06-2004 08:52:01 14.1 C 9.59 g/m*3 14.1 C 0 km/h
1365 18-06-2004 09:04:01 14.1 C 9.59 g/m*3 14.1 C 0 km/h
1366 18-06-2004 09:16:01 14.3 C 9.58 g/m*3 14.3 C 0 km/h
1367 18-06-2004 09:28:01 14.2 C 9.89 g/m*3 14.2 C 0 km/h
1368 18-06-2004 09:40:01 13.8 C 10.13 g/m*3 13.8 C 0 km/h
1369 18-06-2004 09:52:01 13.5 C 10.29 g/m*3 13.5 C 0 km/h
1370 18-06-2004 10:04:01 14 C 10.74 g/m*3 14 C 0 km/h
1371 18-06-2004 10:16:01 14.5 C 10.94 g/m*3 14.5 C 0 km/h
1372 18-06-2004 10:28:01 15.2 C 10.77 g/m*3 15.2 C 0 km/h
1373 18-06-2004 10:40:01 15.3 C 10.19 g/m*3 15.3 C 0 km/h
1374 18-06-2004 10:52:01 16.2 C 10.76 g/m*3 16.2 C 0 km/h
1375 18-06-2004 11:04:01 16.2 C 10.2 g/m*3 16.2 C 0 km/h
Sensor: Nr:Datum:Temp:Abs-Feuchte:Windchill:Wind:
Aussen-T/F 1376 18-06-2004 11:16:01 17.1 C 10.48 g/m*3 17.1 C 0 km/h
1377 18-06-2004 11:28:01 17.6 C 10.2 g/m*3 17.6 C 0 km/h
1378 18-06-2004 11:40:01 16.9 C 10.07 g/m*3 16.9 C 0 km/h
1379 18-06-2004 11:52:01 17.4 C 10.08 g/m*3 17.4 C 0 km/h
1380 18-06-2004 12:04:01 17.1 C 9.32 g/m*3 17.1 C 0 km/h
1381 18-06-2004 12:16:01 16.2 C 9.52 g/m*3 16.2 C 0 km/h
1382 18-06-2004 12:28:01 17.1 C 9.03 g/m*3 17.1 C 0 km/h
1383 18-06-2004 12:40:01 17.8 C 8.5 g/m*3 17.8 C 0 km/h
1384 18-06-2004 12:52:01 17.9 C 9.16 g/m*3 17.9 C 0 km/h
1385 18-06-2004 13:04:01 17.7 C 9.35 g/m*3 17.7 C 0 km/h
1386 18-06-2004 13:16:01 19 C 8.96 g/m*3 19 C 0 km/h
1387 18-06-2004 13:28:01 19.7 C 9.17 g/m*3 19.7 C 0 km/h
1388 18-06-2004 13:40:01 19.7 C 8.83 g/m*3 19.7 C 0 km/h
1389 18-06-2004 13:52:01 20.6 C 8.05 g/m*3 20.6 C 0 km/h
1390 18-06-2004 14:04:01 18.1 C 8.81 g/m*3 18.1 C 0 km/h
1391 18-06-2004 14:16:01 15.4 C 9.85 g/m*3 15.4 C 0 km/h
1392 18-06-2004 14:28:01 15.8 C 10.9 g/m*3 15.8 C 0 km/h
1393 18-06-2004 14:40:01 18 C 11.06 g/m*3 18 C 0 km/h
1394 18-06-2004 14:52:01 18.6 C 10.66 g/m*3 18.6 C 0 km/h
1395 18-06-2004 15:04:01 18.5 C 10.92 g/m*3 18.5 C 0 km/h
1396 18-06-2004 15:16:01 18.1 C 10.04 g/m*3 18.1 C 0 km/h
1397 18-06-2004 15:28:01 17.3 C 9.58 g/m*3 17.3 C 0 km/h
1398 18-06-2004 15:40:01 16.4 C 10.05 g/m*3 16.4 C 0 km/h
1399 18-06-2004 15:52:01 15.2 C 10.51 g/m*3 15.2 C 0 km/h
1400 18-06-2004 16:04:01 15.6 C 11.04 g/m*3 15.6 C 0 km/h
Sensor: Nr:Datum:Temp:Abs-Feuchte:Windchill:Wind:
Aussen-T/F 1401 18-06-2004 16:16:01 16.4 C 11.03 g/m*3 16.4 C 0 km/h
1402 18-06-2004 16:28:01 17.1 C 10.34 g/m*3 17.1 C 0 km/h
1403 18-06-2004 16:40:01 16.3 C 9.16 g/m*3 16.3 C 0 km/h
1404 18-06-2004 16:52:02 15.6 C 9.04 g/m*3 15.6 C 0 km/h
1405 18-06-2004 17:04:02 15.8 C 9.56 g/m*3 15.8 C 0 km/h
1406 18-06-2004 17:16:02 16.2 C 9.52 g/m*3 16.2 C 0 km/h
1407 18-06-2004 17:28:02 16.6 C 9.75 g/m*3 16.6 C 0 km/h
1408 18-06-2004 17:40:02 16.5 C 9.41 g/m*3 16.5 C 0 km/h
1409 18-06-2004 17:52:01 17 C 9.84 g/m*3 17 C 0 km/h
1410 18-06-2004 18:04:01 17.1 C 9.9 g/m*3 17.1 C 0 km/h
1411 18-06-2004 18:16:01 16.5 C 9.83 g/m*3 16.5 C 0 km/h
1412 18-06-2004 18:28:01 15.9 C 9.89 g/m*3 15.9 C 0 km/h
1413 18-06-2004 18:40:01 15.8 C 9.42 g/m*3 15.8 C 0 km/h
1414 18-06-2004 18:52:01 15.9 C 9.21 g/m*3 15.9 C 0 km/h
1415 18-06-2004 19:04:01 15.8 C 9.15 g/m*3 15.8 C 0 km/h
1416 18-06-2004 19:16:01 15.6 C 9.31 g/m*3 15.6 C 0 km/h
1417 18-06-2004 19:28:01 15.8 C 9.69 g/m*3 15.8 C 0 km/h
1418 18-06-2004 19:40:01 15.6 C 9.31 g/m*3 15.6 C 0 km/h
1419 18-06-2004 19:52:01 15.6 C 9.58 g/m*3 15.6 C 0 km/h
1420 18-06-2004 20:04:01 15.5 C 9.52 g/m*3 15.5 C 0 km/h
1421 18-06-2004 20:16:01 15.5 C 9.25 g/m*3 15.5 C 0 km/h
1422 18-06-2004 20:28:01 15.5 C 9.52 g/m*3 15.5 C 0 km/h
1423 18-06-2004 20:40:01 15.4 C 9.46 g/m*3 15.4 C 0 km/h
1424 18-06-2004 20:52:01 15.2 C 9.35 g/m*3 15.2 C 0 km/h
1425 18-06-2004 21:04:01 15.2 C 9.48 g/m*3 15.2 C 0 km/h
Sensor: Nr:Datum:Temp:Abs-Feuchte:Windchill:Wind:
Aussen-T/F 1426 18-06-2004 21:16:01 15.1 C 9.03 g/m*3 15.1 C 0 km/h
1427 18-06-2004 21:28:01 15.1 C 8.9 g/m*3 15.1 C 0 km/h
1428 18-06-2004 21:40:01 14.8 C 9.25 g/m*3 14.8 C 0 km/h
1429 18-06-2004 21:52:01 15.2 C 8.83 g/m*3 15.2 C 0 km/h
1430 18-06-2004 22:04:01 15.2 C 8.83 g/m*3 15.2 C 0 km/h
1431 18-06-2004 22:18:11 15.2 C 8.83 g/m*3 15.2 C 0 km/h
1432 18-06-2004 22:30:11 14.7 C 9.07 g/m*3 14.7 C 0 km/h
1433 18-06-2004 22:42:11 14.6 C 9.13 g/m*3 14.6 C 0 km/h
1434 18-06-2004 22:54:11 14.5 C 9.2 g/m*3 14.5 C 0 km/h
1435 18-06-2004 23:06:11 14.5 C 9.2 g/m*3 14.5 C 0 km/h
1436 18-06-2004 23:18:11 14.4 C 9.15 g/m*3 14.4 C 0 km/h
1437 18-06-2004 23:30:11 14.2 C 9.28 g/m*3 14.2 C 0 km/h
1438 18-06-2004 23:42:11 14.3 C 9.58 g/m*3 14.3 C 0 km/h
1439 18-06-2004 23:54:11 14.5 C 9.45 g/m*3 14.5 C 0 km/h
1440 19-06-2004 00:06:11 14.5 C 9.58 g/m*3 14.5 C 0 km/h
1441 19-06-2004 00:18:11 14.4 C 9.52 g/m*3 14.4 C 0 km/h
1442 19-06-2004 00:30:11 14.4 C 9.52 g/m*3 14.4 C 0 km/h
1443 19-06-2004 00:42:11 14.4 C 9.39 g/m*3 14.4 C 0 km/h
1444 19-06-2004 00:54:12 14.4 C 9.39 g/m*3 14.4 C 0 km/h
1445 19-06-2004 01:06:12 14.4 C 9.15 g/m*3 14.4 C 0 km/h
1446 19-06-2004 01:18:12 14.4 C 9.02 g/m*3 14.4 C 0 km/h
1447 19-06-2004 01:30:12 14.4 C 9.15 g/m*3 14.4 C 0 km/h
1448 19-06-2004 01:42:12 14.3 C 8.97 g/m*3 14.3 C 0 km/h
1449 19-06-2004 01:54:12 13.9 C 9.11 g/m*3 13.9 C 0 km/h
1450 19-06-2004 02:06:12 13.9 C 9.23 g/m*3 13.9 C 0 km/h
Sensor: Nr:Datum:Temp:Abs-Feuchte:Windchill:Wind:
Aussen-T/F 1451 19-06-2004 02:18:12 13.7 C 9.12 g/m*3 13.7 C 0 km/h
1452 19-06-2004 02:30:12 13.8 C 9.29 g/m*3 13.8 C 0 km/h
1453 19-06-2004 02:42:12 13.8 C 9.29 g/m*3 13.8 C 0 km/h
1454 19-06-2004 02:54:12 13.9 C 9.23 g/m*3 13.9 C 0 km/h
1455 19-06-2004 03:06:12 13.8 C 9.17 g/m*3 13.8 C 0 km/h
1456 19-06-2004 03:18:12 13.9 C 9.11 g/m*3 13.9 C 0 km/h
1457 19-06-2004 03:30:12 13.8 C 9.17 g/m*3 13.8 C 0 km/h
1458 19-06-2004 03:42:12 13.6 C 9.06 g/m*3 13.6 C 0 km/h
1459 19-06-2004 03:54:12 13.7 C 9.12 g/m*3 13.7 C 0 km/h
1460 19-06-2004 04:06:12 13.6 C 9.06 g/m*3 13.6 C 0 km/h
1461 19-06-2004 04:18:12 13.4 C 8.95 g/m*3 13.4 C 0 km/h
1462 19-06-2004 04:30:12 13.4 C 9.07 g/m*3 13.4 C 0 km/h
1463 19-06-2004 04:42:12 13.4 C 9.07 g/m*3 13.4 C 0 km/h
1464 19-06-2004 04:54:12 13.3 C 9.01 g/m*3 13.3 C 0 km/h
1465 19-06-2004 05:06:12 13.2 C 8.96 g/m*3 13.2 C 0 km/h
1466 19-06-2004 05:18:13 13.2 C 8.84 g/m*3 13.2 C 0 km/h
1467 19-06-2004 05:30:13 13.2 C 8.73 g/m*3 13.2 C 0 km/h
1468 19-06-2004 05:42:13 13.1 C 8.33 g/m*3 13.1 C 0 km/h
1469 19-06-2004 05:54:13 13 C 7.94 g/m*3 13 C 0 km/h
1470 19-06-2004 06:06:13 13.1 C 7.87 g/m*3 13.1 C 0 km/h
1471 19-06-2004 06:18:13 13 C 7.83 g/m*3 13 C 0 km/h
1472 19-06-2004 06:30:13 13.1 C 7.99 g/m*3 13.1 C 0 km/h
1473 19-06-2004 06:42:13 13.1 C 7.87 g/m*3 13.1 C 0 km/h
1474 19-06-2004 06:54:13 13 C 7.71 g/m*3 13 C 0 km/h
1475 19-06-2004 07:06:13 13.1 C 7.87 g/m*3 13.1 C 0 km/h
Sensor: Nr:Datum:Temp:Abs-Feuchte:Windchill:Wind:
Aussen-T/F 1476 19-06-2004 07:18:13 13.3 C 7.86 g/m*3 13.3 C 0 km/h
1477 19-06-2004 07:30:13 13.2 C 7.81 g/m*3 13.2 C 0 km/h
1478 19-06-2004 07:42:13 13.2 C 7.69 g/m*3 13.2 C 0 km/h
1479 19-06-2004 07:54:13 13.1 C 7.53 g/m*3 13.1 C 0 km/h
1480 19-06-2004 08:06:13 13.4 C 7.79 g/m*3 13.4 C 0 km/h
1481 19-06-2004 08:18:14 13.8 C 7.74 g/m*3 13.8 C 0 km/h
1482 19-06-2004 08:30:14 13.7 C 7.58 g/m*3 13.7 C 0 km/h
1483 19-06-2004 08:42:14 13.5 C 7.25 g/m*3 13.5 C 0 km/h
1484 19-06-2004 08:54:14 13.7 C 7.34 g/m*3 13.7 C 0 km/h
1485 19-06-2004 09:06:14 13.8 C 7.27 g/m*3 13.8 C 0 km/h
1486 19-06-2004 09:18:14 13.8 C 7.15 g/m*3 13.8 C 0 km/h
1487 19-06-2004 09:30:14 14.2 C 7.33 g/m*3 14.2 C 0 km/h
1488 19-06-2004 09:42:14 14.8 C 7.35 g/m*3 14.8 C 0 km/h
1489 19-06-2004 09:54:14 14 C 7 g/m*3 14 C 0 km/h
1490 19-06-2004 10:06:14 13.3 C 7.74 g/m*3 13.3 C 0 km/h
1491 19-06-2004 10:18:14 11.4 C 8.21 g/m*3 11.4 C 0 km/h
1492 19-06-2004 10:30:14 11.2 C 8.62 g/m*3 11.2 C 0 km/h
1493 19-06-2004 10:42:14 12.5 C 9.46 g/m*3 12.5 C 0 km/h
1494 19-06-2004 10:54:14 13.4 C 9.42 g/m*3 13.4 C 0 km/h
1495 19-06-2004 11:06:14 13.5 C 9.12 g/m*3 13.5 C 0 km/h
1496 19-06-2004 11:18:14 14.5 C 9.08 g/m*3 14.5 C 0 km/h
1497 19-06-2004 11:30:14 15.3 C 9.14 g/m*3 15.3 C 0 km/h
1498 19-06-2004 11:42:14 16.3 C 9.02 g/m*3 16.3 C 0 km/h
1499 19-06-2004 11:54:14 16.5 C 8.57 g/m*3 16.5 C 0 km/h
1500 19-06-2004 12:06:14 16.4 C 8.23 g/m*3 16.4 C 0 km/h
Sensor: Nr:Datum:Temp:Abs-Feuchte:Windchill:Wind:
Aussen-T/F 1501 19-06-2004 12:18:14 17.3 C 7.81 g/m*3 17.3 C 0 km/h
1502 19-06-2004 12:30:14 17.1 C 7.42 g/m*3 17.1 C 0 km/h
1503 19-06-2004 12:42:15 15.4 C 8.01 g/m*3 15.4 C 0 km/h
1504 19-06-2004 12:54:15 12.4 C 8.52 g/m*3 12.4 C 0 km/h
1505 19-06-2004 13:06:15 11.4 C 8.62 g/m*3 11.4 C 0 km/h
1506 19-06-2004 13:18:15 11.7 C 9.31 g/m*3 11.7 C 0 km/h
1507 19-06-2004 13:30:15 12.1 C 9.33 g/m*3 12.1 C 0 km/h
1508 19-06-2004 13:42:15 12.4 C 9.18 g/m*3 12.4 C 0 km/h
1509 19-06-2004 13:54:15 12.8 C 8.85 g/m*3 12.8 C 0 km/h
1510 19-06-2004 14:06:15 13.3 C 9.01 g/m*3 13.3 C 0 km/h
1511 19-06-2004 14:18:15 12.5 C 8.69 g/m*3 12.5 C 0 km/h
1512 19-06-2004 14:30:15 12.6 C 9.18 g/m*3 12.6 C 0 km/h
1513 19-06-2004 14:42:15 12.7 C 9.13 g/m*3 12.7 C 0 km/h
1514 19-06-2004 14:54:15 13.4 C 9.3 g/m*3 13.4 C 0 km/h
1515 19-06-2004 15:06:15 14.2 C 9.04 g/m*3 14.2 C 0 km/h
1516 19-06-2004 15:18:15 15 C 9.23 g/m*3 15 C 0 km/h
1517 19-06-2004 15:30:15 14.5 C 8.33 g/m*3 14.5 C 0 km/h
1518 19-06-2004 15:42:15 12.4 C 8.09 g/m*3 12.4 C 0 km/h
1519 19-06-2004 15:54:16 13.1 C 8.9 g/m*3 13.1 C 0 km/h
1520 19-06-2004 16:06:16 14.5 C 9.08 g/m*3 14.5 C 0 km/h
1521 19-06-2004 16:18:16 15.6 C 8.38 g/m*3 15.6 C 0 km/h
1522 19-06-2004 16:30:16 15.8 C 7.94 g/m*3 15.8 C 0 km/h
1523 19-06-2004 16:42:16 16.1 C 7.81 g/m*3 16.1 C 0 km/h
1524 19-06-2004 16:54:16 16 C 8.04 g/m*3 16 C 0 km/h
1525 19-06-2004 17:06:17 16.6 C 7.63 g/m*3 16.6 C 0 km/h
Sensor: Nr:Datum:Temp:Abs-Feuchte:Windchill:Wind:
Aussen-T/F 1526 19-06-2004 17:18:17 18.3 C 7.97 g/m*3 18.3 C 0 km/h
1527 19-06-2004 17:30:17 18 C 7.53 g/m*3 18 C 0 km/h
1528 19-06-2004 17:42:17 18 C 7.68 g/m*3 18 C 0 km/h
1529 19-06-2004 17:54:17 19.5 C 7.72 g/m*3 19.5 C 0 km/h
1530 19-06-2004 18:06:17 21.2 C 7.6 g/m*3 21.2 C 0 km/h
1531 19-06-2004 18:18:17 19.3 C 6.63 g/m*3 19.3 C 0 km/h
1532 19-06-2004 18:30:17 19.5 C 7.22 g/m*3 19.5 C 0 km/h
1533 19-06-2004 18:42:17 18.6 C 6.37 g/m*3 18.6 C 0 km/h
1534 19-06-2004 18:54:17 18.7 C 7.36 g/m*3 18.7 C 0 km/h
1535 19-06-2004 19:06:17 18.7 C 6.4 g/m*3 18.7 C 0 km/h
1536 19-06-2004 19:18:17 19.3 C 6.3 g/m*3 19.3 C 0 km/h
1537 19-06-2004 19:30:17 19.9 C 6.36 g/m*3 19.9 C 0 km/h
1538 19-06-2004 19:42:17 20.3 C 6.16 g/m*3 20.3 C 0 km/h
1539 19-06-2004 19:54:17 19.2 C 5.77 g/m*3 19.2 C 0 km/h
1540 19-06-2004 20:06:17 18.5 C 6.01 g/m*3 18.5 C 0 km/h
1541 19-06-2004 20:18:17 17.2 C 5.86 g/m*3 17.2 C 0 km/h
1542 19-06-2004 20:30:17 16.5 C 6.46 g/m*3 16.5 C 0 km/h
1543 19-06-2004 20:42:17 16.1 C 6.85 g/m*3 16.1 C 0 km/h
1544 19-06-2004 20:54:17 15.9 C 7.45 g/m*3 15.9 C 0 km/h
1545 19-06-2004 21:06:17 15.6 C 7.05 g/m*3 15.6 C 0 km/h
1546 19-06-2004 21:18:18 15.5 C 7.53 g/m*3 15.5 C 0 km/h
1547 19-06-2004 21:30:18 14.3 C 7.37 g/m*3 14.3 C 0 km/h
1548 19-06-2004 21:42:18 13.5 C 7.6 g/m*3 13.5 C 0 km/h
1549 19-06-2004 21:54:18 12.8 C 7.39 g/m*3 12.8 C 0 km/h
1550 19-06-2004 22:06:18 12.2 C 7.23 g/m*3 12.2 C 0 km/h
Sensor: Nr:Datum:Temp:Abs-Feuchte:Windchill:Wind:
Aussen-T/F 1551 19-06-2004 22:18:18 11.8 C 7.37 g/m*3 11.8 C 0 km/h
1552 19-06-2004 22:30:18 11.7 C 7.43 g/m*3 11.7 C 0 km/h
1553 19-06-2004 22:42:18 11.7 C 7.53 g/m*3 11.7 C 0 km/h
1554 19-06-2004 22:54:18 11.5 C 7.54 g/m*3 11.5 C 0 km/h
1555 19-06-2004 23:06:18 11.3 C 7.55 g/m*3 11.3 C 0 km/h
1556 19-06-2004 23:18:18 11 C 7.41 g/m*3 11 C 0 km/h
1557 19-06-2004 23:30:18 10.9 C 7.46 g/m*3 10.9 C 0 km/h
1558 19-06-2004 23:42:18 10.8 C 7.41 g/m*3 10.8 C 0 km/h
1559 19-06-2004 23:54:18 10.4 C 7.42 g/m*3 10.4 C 0 km/h
1560 20-06-2004 00:06:18 10.1 C 7.38 g/m*3 10.1 C 0 km/h
1561 20-06-2004 00:18:18 10.1 C 7.38 g/m*3 10.1 C 0 km/h
1562 20-06-2004 00:30:18 9.8 C 7.42 g/m*3 9.8 C 0 km/h
1563 20-06-2004 00:42:18 9.6 C 7.42 g/m*3 9.6 C 0 km/h
1564 20-06-2004 00:54:18 9.5 C 7.37 g/m*3 9.5 C 0 km/h
1565 20-06-2004 01:06:18 9.4 C 7.42 g/m*3 9.4 C 0 km/h
1566 20-06-2004 01:18:18 9.4 C 7.42 g/m*3 9.4 C 0 km/h
1567 20-06-2004 01:30:18 9.4 C 7.51 g/m*3 9.4 C 0 km/h
1568 20-06-2004 01:42:19 9.6 C 7.51 g/m*3 9.6 C 0 km/h
1569 20-06-2004 01:54:19 9.4 C 7.51 g/m*3 9.4 C 0 km/h
1570 20-06-2004 02:06:19 9.3 C 7.46 g/m*3 9.3 C 0 km/h
1571 20-06-2004 02:18:19 9 C 7.32 g/m*3 9 C 0 km/h
1572 20-06-2004 02:30:19 8.9 C 7.45 g/m*3 8.9 C 0 km/h
1573 20-06-2004 02:42:19 8.7 C 7.35 g/m*3 8.7 C 0 km/h
1574 20-06-2004 02:54:19 8.5 C 7.26 g/m*3 8.5 C 0 km/h
1575 20-06-2004 03:06:19 8.2 C 7.2 g/m*3 8.2 C 0 km/h
Sensor: Nr:Datum:Temp:Abs-Feuchte:Windchill:Wind:
Aussen-T/F 1576 20-06-2004 03:18:20 8.1 C 7.16 g/m*3 8.1 C 0 km/h
1577 20-06-2004 03:30:20 7.9 C 7.15 g/m*3 7.9 C 0 km/h
1578 20-06-2004 03:42:20 7.8 C 7.1 g/m*3 7.8 C 0 km/h
1579 20-06-2004 03:54:20 7.5 C 7.04 g/m*3 7.5 C 0 km/h
1580 20-06-2004 04:06:20 7.5 C 7.12 g/m*3 7.5 C 0 km/h
1581 20-06-2004 04:18:20 7.4 C 7.08 g/m*3 7.4 C 0 km/h
1582 20-06-2004 04:30:21 7.3 C 7.03 g/m*3 7.3 C 0 km/h
1583 20-06-2004 04:42:21 7.2 C 6.91 g/m*3 7.2 C 0 km/h
1584 20-06-2004 04:54:21 7.1 C 6.86 g/m*3 7.1 C 0 km/h
1585 20-06-2004 05:06:21 7 C 6.82 g/m*3 7 C 0 km/h
1586 20-06-2004 05:18:21 7 C 6.9 g/m*3 7 C 0 km/h
1587 20-06-2004 05:30:21 6.9 C 6.93 g/m*3 6.9 C 0 km/h
1588 20-06-2004 05:42:22 7 C 6.97 g/m*3 7 C 0 km/h
1589 20-06-2004 05:54:22 7.2 C 7.14 g/m*3 7.2 C 0 km/h
1590 20-06-2004 06:06:22 7.4 C 7.24 g/m*3 7.4 C 0 km/h
1591 20-06-2004 06:18:22 7.1 C 7.1 g/m*3 7.1 C 0 km/h
1592 20-06-2004 06:30:22 7.1 C 7.1 g/m*3 7.1 C 0 km/h
1593 20-06-2004 06:42:22 7.3 C 7.27 g/m*3 7.3 C 0 km/h
1594 20-06-2004 06:54:23 7.4 C 7.24 g/m*3 7.4 C 0 km/h
1595 20-06-2004 07:06:23 7.8 C 7.43 g/m*3 7.8 C 0 km/h
1596 20-06-2004 07:18:23 7.9 C 7.31 g/m*3 7.9 C 0 km/h
1597 20-06-2004 07:30:23 8.3 C 7.42 g/m*3 8.3 C 0 km/h
1598 20-06-2004 07:42:23 8.7 C 7.44 g/m*3 8.7 C 0 km/h
1599 20-06-2004 07:54:23 8.4 C 7.21 g/m*3 8.4 C 0 km/h
1600 20-06-2004 08:06:24 8.6 C 7.48 g/m*3 8.6 C 0 km/h
Sensor: Nr:Datum:Temp:Abs-Feuchte:Windchill:Wind:
Aussen-T/F 1601 20-06-2004 08:18:24 9.2 C 7.59 g/m*3 9.2 C 0 km/h
1602 20-06-2004 08:30:24 9.6 C 7.69 g/m*3 9.6 C 0 km/h
1603 20-06-2004 08:42:24 9.5 C 7.55 g/m*3 9.5 C 0 km/h
1604 20-06-2004 08:54:24 9.6 C 7.69 g/m*3 9.6 C 0 km/h
1605 20-06-2004 09:06:24 10.1 C 7.85 g/m*3 10.1 C 0 km/h
1606 20-06-2004 09:18:25 10.5 C 7.86 g/m*3 10.5 C 0 km/h
1607 20-06-2004 09:30:25 11.1 C 8.06 g/m*3 11.1 C 0 km/h
1608 20-06-2004 09:42:25 11.8 C 8.21 g/m*3 11.8 C 0 km/h
1609 20-06-2004 09:54:25 12.5 C 8.14 g/m*3 12.5 C 0 km/h
1610 20-06-2004 10:06:25 13.2 C 8.38 g/m*3 13.2 C 0 km/h
1611 20-06-2004 10:19:13 13.9 C 8.03 g/m*3 13.9 C 0 km/h
1612 20-06-2004 10:31:13 14.6 C 7.63 g/m*3 14.6 C 0 km/h
1613 20-06-2004 10:43:13 15.2 C 7.66 g/m*3 15.2 C 0 km/h
1614 20-06-2004 10:55:13 15.8 C 7.13 g/m*3 15.8 C 0 km/h
1615 20-06-2004 11:07:14 16 C 7.36 g/m*3 16 C 0 km/h
1616 20-06-2004 11:19:14 16.6 C 7.2 g/m*3 16.6 C 0 km/h
1617 20-06-2004 11:31:14 17.1 C 6.7 g/m*3 17.1 C 0 km/h
1618 20-06-2004 11:43:14 17.3 C 6.33 g/m*3 17.3 C 0 km/h
1619 20-06-2004 11:55:14 18.1 C 6.18 g/m*3 18.1 C 0 km/h
1620 20-06-2004 12:07:14 18.9 C 6.16 g/m*3 18.9 C 0 km/h
1621 20-06-2004 12:19:14 18.5 C 6.01 g/m*3 18.5 C 0 km/h
1622 20-06-2004 12:31:14 19.5 C 6.04 g/m*3 19.5 C 0 km/h
1623 20-06-2004 12:43:14 18.1 C 5.1 g/m*3 18.1 C 0 km/h
1624 20-06-2004 12:55:14 18.7 C 5.6 g/m*3 18.7 C 0 km/h
1625 20-06-2004 13:07:14 18.9 C 4.86 g/m*3 18.9 C 0 km/h
Sensor: Nr:Datum:Temp:Abs-Feuchte:Windchill:Wind:
Aussen-T/F 1626 20-06-2004 13:19:14 20.1 C 4.52 g/m*3 20.1 C 0 km/h
1627 20-06-2004 13:31:14 19.5 C 4.2 g/m*3 19.5 C 0 km/h
1628 20-06-2004 13:43:14 20.6 C 3.94 g/m*3 20.6 C 0 km/h
1629 20-06-2004 13:55:14 20.9 C 3.64 g/m*3 20.9 C 0 km/h
1630 20-06-2004 14:07:14 20 C 3.46 g/m*3 20 C 0 km/h
1631 20-06-2004 14:19:14 20.4 C 4.07 g/m*3 20.4 C 0 km/h
1632 20-06-2004 14:31:14 21.1 C 3.87 g/m*3 21.1 C 0 km/h
1633 20-06-2004 14:43:14 21.3 C 4.66 g/m*3 21.3 C 0 km/h
1634 20-06-2004 14:55:14 20.9 C 4.37 g/m*3 20.9 C 0 km/h
1635 20-06-2004 15:07:14 21.7 C 4.58 g/m*3 21.7 C 0 km/h
1636 20-06-2004 15:19:14 21 C 5.5 g/m*3 21 C 0 km/h
1637 20-06-2004 15:31:15 22 C 6.02 g/m*3 22 C 0 km/h
1638 20-06-2004 15:43:15 21.9 C 5.79 g/m*3 21.9 C 0 km/h
1639 20-06-2004 15:55:15 21.3 C 5.22 g/m*3 21.3 C 0 km/h
1640 20-06-2004 16:07:15 22.8 C 5.08 g/m*3 22.8 C 0 km/h
1641 20-06-2004 16:19:15 22.3 C 4.94 g/m*3 22.3 C 0 km/h
1642 20-06-2004 16:31:15 21.5 C 4.9 g/m*3 21.5 C 0 km/h
1643 20-06-2004 16:43:15 22.5 C 4.99 g/m*3 22.5 C 0 km/h
1644 20-06-2004 16:55:15 22.9 C 4.5 g/m*3 22.9 C 0 km/h
1645 20-06-2004 17:07:16 23.3 C 4.18 g/m*3 23.3 C 0 km/h
1646 20-06-2004 17:19:16 23 C 4.11 g/m*3 23 C 0 km/h
1647 20-06-2004 17:31:16 22.7 C 6.06 g/m*3 22.7 C 0 km/h
1648 20-06-2004 17:43:16 22.5 C 5.59 g/m*3 22.5 C 0 km/h
1649 20-06-2004 17:55:16 23.2 C 6.03 g/m*3 23.2 C 0 km/h
1650 20-06-2004 18:07:16 21.6 C 6.26 g/m*3 21.6 C 0 km/h
Sensor: Nr:Datum:Temp:Abs-Feuchte:Windchill:Wind:
Aussen-T/F 1651 20-06-2004 18:19:16 21.6 C 6.07 g/m*3 21.6 C 0 km/h
1652 20-06-2004 18:31:16 22 C 6.02 g/m*3 22 C 0 km/h
1653 20-06-2004 18:43:16 22 C 5.63 g/m*3 22 C 0 km/h
1654 20-06-2004 18:55:16 22.6 C 5.62 g/m*3 22.6 C 0 km/h
1655 20-06-2004 19:07:16 21.6 C 5.88 g/m*3 21.6 C 0 km/h
1656 20-06-2004 19:19:16 21.1 C 6.26 g/m*3 21.1 C 0 km/h
1657 20-06-2004 19:31:16 21.1 C 6.63 g/m*3 21.1 C 0 km/h
1658 20-06-2004 19:43:16 21.3 C 6.71 g/m*3 21.3 C 0 km/h
1659 20-06-2004 19:55:16 20.9 C 7.1 g/m*3 20.9 C 0 km/h
1660 20-06-2004 20:07:16 19.1 C 6.56 g/m*3 19.1 C 0 km/h
1661 20-06-2004 20:19:16 19.1 C 6.88 g/m*3 19.1 C 0 km/h
1662 20-06-2004 20:31:16 18.9 C 7.13 g/m*3 18.9 C 0 km/h
1663 20-06-2004 20:43:16 18.1 C 6.8 g/m*3 18.1 C 0 km/h
1664 20-06-2004 20:55:16 17.7 C 6.94 g/m*3 17.7 C 0 km/h
1665 20-06-2004 21:07:17 17.6 C 7.05 g/m*3 17.6 C 0 km/h
1666 20-06-2004 21:19:17 16.9 C 6.9 g/m*3 16.9 C 0 km/h
1667 20-06-2004 21:31:17 16.4 C 7.12 g/m*3 16.4 C 0 km/h
1668 20-06-2004 21:43:17 15.3 C 7.05 g/m*3 15.3 C 0 km/h
1669 20-06-2004 21:55:17 14.8 C 7.22 g/m*3 14.8 C 0 km/h
1670 20-06-2004 22:07:17 14.5 C 7.09 g/m*3 14.5 C 0 km/h
1671 20-06-2004 22:19:17 14.5 C 7.21 g/m*3 14.5 C 0 km/h
1672 20-06-2004 22:31:17 14.5 C 7.46 g/m*3 14.5 C 0 km/h
1673 20-06-2004 22:43:17 14.2 C 7.33 g/m*3 14.2 C 0 km/h
1674 20-06-2004 22:55:17 13.8 C 7.39 g/m*3 13.8 C 0 km/h
1675 20-06-2004 23:07:17 13.4 C 7.32 g/m*3 13.4 C 0 km/h
Sensor: Nr:Datum:Temp:Abs-Feuchte:Windchill:Wind:
Aussen-T/F 1676 20-06-2004 23:19:17 13.7 C 7.46 g/m*3 13.7 C 0 km/h
1677 20-06-2004 23:31:17 13.8 C 7.86 g/m*3 13.8 C 0 km/h
1678 20-06-2004 23:43:17 12.4 C 8.63 g/m*3 12.4 C 0 km/h
1679 20-06-2004 23:55:17 11.9 C 8.79 g/m*3 11.9 C 0 km/h
1680 21-06-2004 00:07:17 12.1 C 8.79 g/m*3 12.1 C 0 km/h
1681 21-06-2004 00:19:17 12 C 8.63 g/m*3 12 C 0 km/h
1682 21-06-2004 00:31:17 11.6 C 8.32 g/m*3 11.6 C 0 km/h
1683 21-06-2004 00:43:17 11.4 C 8.31 g/m*3 11.4 C 0 km/h
1684 21-06-2004 00:55:17 11.5 C 8.37 g/m*3 11.5 C 0 km/h
1685 21-06-2004 01:07:17 11.1 C 8.06 g/m*3 11.1 C 0 km/h
1686 21-06-2004 01:19:17 11.2 C 8.21 g/m*3 11.2 C 0 km/h
1687 21-06-2004 01:31:17 11.3 C 8.26 g/m*3 11.3 C 0 km/h
1688 21-06-2004 01:43:18 11.1 C 8.16 g/m*3 11.1 C 0 km/h
1689 21-06-2004 01:55:18 11 C 8.11 g/m*3 11 C 0 km/h
1690 21-06-2004 02:07:18 10.9 C 8.16 g/m*3 10.9 C 0 km/h
1691 21-06-2004 02:19:18 10.8 C 8.2 g/m*3 10.8 C 0 km/h
1692 21-06-2004 02:31:18 10.7 C 8.15 g/m*3 10.7 C 0 km/h
1693 21-06-2004 02:43:18 10.6 C 8.1 g/m*3 10.6 C 0 km/h
1694 21-06-2004 02:55:18 10.6 C 8.1 g/m*3 10.6 C 0 km/h
1695 21-06-2004 03:07:18 10.5 C 8.05 g/m*3 10.5 C 0 km/h
1696 21-06-2004 03:19:18 10.3 C 7.95 g/m*3 10.3 C 0 km/h
1697 21-06-2004 03:31:18 10.4 C 8.1 g/m*3 10.4 C 0 km/h
1698 21-06-2004 03:43:18 10.3 C 8.04 g/m*3 10.3 C 0 km/h
1699 21-06-2004 03:55:18 10.1 C 7.94 g/m*3 10.1 C 0 km/h
1700 21-06-2004 04:07:18 10.2 C 7.99 g/m*3 10.2 C 0 km/h
Sensor: Nr:Datum:Temp:Abs-Feuchte:Windchill:Wind:
Aussen-T/F 1701 21-06-2004 04:19:18 10.1 C 7.94 g/m*3 10.1 C 0 km/h
1702 21-06-2004 04:31:18 10.1 C 7.94 g/m*3 10.1 C 0 km/h
1703 21-06-2004 04:43:18 10 C 7.89 g/m*3 10 C 0 km/h
1704 21-06-2004 04:55:18 10 C 7.89 g/m*3 10 C 0 km/h
1705 21-06-2004 05:07:18 9.9 C 7.94 g/m*3 9.9 C 0 km/h
1706 21-06-2004 05:19:18 9.8 C 7.89 g/m*3 9.8 C 0 km/h
1707 21-06-2004 05:31:18 9.8 C 7.98 g/m*3 9.8 C 0 km/h
1708 21-06-2004 05:43:18 9.8 C 7.89 g/m*3 9.8 C 0 km/h
1709 21-06-2004 05:55:18 9.7 C 7.84 g/m*3 9.7 C 0 km/h
1710 21-06-2004 06:07:19 9.6 C 7.88 g/m*3 9.6 C 0 km/h
1711 21-06-2004 06:19:19 9.7 C 7.93 g/m*3 9.7 C 0 km/h
1712 21-06-2004 06:31:19 9.9 C 8.03 g/m*3 9.9 C 0 km/h
1713 21-06-2004 06:43:19 10 C 7.89 g/m*3 10 C 0 km/h
1714 21-06-2004 06:55:19 10.4 C 8.29 g/m*3 10.4 C 0 km/h
1715 21-06-2004 07:07:19 10.8 C 8.4 g/m*3 10.8 C 0 km/h
1716 21-06-2004 07:19:19 11.3 C 8.47 g/m*3 11.3 C 0 km/h
1717 21-06-2004 07:31:19 11.7 C 8.26 g/m*3 11.7 C 0 km/h
1718 21-06-2004 07:43:19 11.8 C 8 g/m*3 11.8 C 0 km/h
1719 21-06-2004 07:55:19 12 C 7.89 g/m*3 12 C 0 km/h
1720 21-06-2004 08:07:19 12.1 C 8.04 g/m*3 12.1 C 0 km/h
1721 21-06-2004 08:19:19 12.4 C 8.09 g/m*3 12.4 C 0 km/h
1722 21-06-2004 08:31:19 13.1 C 8.22 g/m*3 13.1 C 0 km/h
1723 21-06-2004 08:43:19 13.2 C 8.15 g/m*3 13.2 C 0 km/h
1724 21-06-2004 08:55:19 13.1 C 8.44 g/m*3 13.1 C 0 km/h
1725 21-06-2004 09:07:19 13.2 C 7.69 g/m*3 13.2 C 0 km/h
Sensor: Nr:Datum:Temp:Abs-Feuchte:Windchill:Wind:
Aussen-T/F 1726 21-06-2004 09:19:20 14 C 7.48 g/m*3 14 C 0 km/h
1727 21-06-2004 09:31:20 14.7 C 7.43 g/m*3 14.7 C 0 km/h
1728 21-06-2004 09:43:20 15.5 C 7.27 g/m*3 15.5 C 0 km/h
1729 21-06-2004 09:55:20 14.1 C 7.65 g/m*3 14.1 C 0 km/h
1730 21-06-2004 10:07:20 13.7 C 8.05 g/m*3 13.7 C 0 km/h
1731 21-06-2004 10:19:20 13.9 C 8.27 g/m*3 13.9 C 0 km/h
1732 21-06-2004 10:31:21 14.9 C 8.03 g/m*3 14.9 C 0 km/h
1733 21-06-2004 10:43:21 15.8 C 7.67 g/m*3 15.8 C 0 km/h
1734 21-06-2004 10:55:21 16.6 C 8.05 g/m*3 16.6 C 0 km/h
1735 21-06-2004 11:07:26 17.3 C 7.51 g/m*3 17.3 C 0 km/h
1736 21-06-2004 11:19:01 16.5 C 6.88 g/m*3 16.5 C 0 km/h
1737 21-06-2004 11:31:01 17.1 C 7.13 g/m*3 17.1 C 0 km/h
1738 21-06-2004 11:43:01 17.2 C 6.88 g/m*3 17.2 C 0 km/h
1739 21-06-2004 11:55:02 17.6 C 6.9 g/m*3 17.6 C 0 km/h
1740 21-06-2004 12:07:02 17.5 C 6.71 g/m*3 17.5 C 0 km/h
1741 21-06-2004 12:19:02 17.8 C 6.98 g/m*3 17.8 C 0 km/h
1742 21-06-2004 12:31:02 18.3 C 7.19 g/m*3 18.3 C 0 km/h
1743 21-06-2004 12:43:02 17.9 C 6.87 g/m*3 17.9 C 0 km/h
1744 21-06-2004 12:55:01 17.4 C 6.82 g/m*3 17.4 C 0 km/h
1745 21-06-2004 13:07:01 18.5 C 6.96 g/m*3 18.5 C 0 km/h
1746 21-06-2004 13:19:01 18.3 C 6.88 g/m*3 18.3 C 0 km/h
1747 21-06-2004 13:31:00 17.5 C 6.11 g/m*3 17.5 C 0 km/h
1748 21-06-2004 13:43:00 14.9 C 8.54 g/m*3 14.9 C 0 km/h
1749 21-06-2004 13:55:01 15.3 C 8.62 g/m*3 15.3 C 0 km/h
1750 21-06-2004 14:07:01 17.7 C 8.9 g/m*3 17.7 C 0 km/h
Sensor: Nr:Datum:Temp:Abs-Feuchte:Windchill:Wind:
Aussen-T/F 1751 21-06-2004 14:19:01 16.2 C 8.14 g/m*3 16.2 C 0 km/h
1752 21-06-2004 14:31:01 16.7 C 8.24 g/m*3 16.7 C 0 km/h
1753 21-06-2004 14:43:01 18.3 C 8.13 g/m*3 18.3 C 0 km/h
1754 21-06-2004 14:55:01 18.2 C 7.62 g/m*3 18.2 C 0 km/h
1755 21-06-2004 15:07:01 18.8 C 7.57 g/m*3 18.8 C 0 km/h
1756 21-06-2004 15:19:01 19.8 C 7.17 g/m*3 19.8 C 0 km/h
1757 21-06-2004 15:31:01 19.9 C 7.22 g/m*3 19.9 C 0 km/h
1758 21-06-2004 15:43:01 20.2 C 6.99 g/m*3 20.2 C 0 km/h
1759 21-06-2004 15:55:01 20.6 C 6.62 g/m*3 20.6 C 0 km/h
1760 21-06-2004 16:07:01 21 C 6.59 g/m*3 21 C 0 km/h
1761 21-06-2004 16:19:01 21.3 C 6.9 g/m*3 21.3 C 0 km/h
1762 21-06-2004 16:31:01 17.9 C 6.11 g/m*3 17.9 C 0 km/h
1763 21-06-2004 16:43:01 16.7 C 7.11 g/m*3 16.7 C 0 km/h
1764 21-06-2004 16:55:01 17.3 C 7.22 g/m*3 17.3 C 0 km/h
1765 21-06-2004 17:07:00 18.3 C 6.72 g/m*3 18.3 C 0 km/h
1766 21-06-2004 17:19:01 18.7 C 7.36 g/m*3 18.7 C 0 km/h
1767 21-06-2004 17:31:02 19.3 C 7.46 g/m*3 19.3 C 0 km/h
1768 21-06-2004 17:43:02 20.2 C 7.34 g/m*3 20.2 C 0 km/h
1769 21-06-2004 17:55:02 19.3 C 6.97 g/m*3 19.3 C 0 km/h
1770 21-06-2004 18:07:03 19.1 C 6.72 g/m*3 19.1 C 0 km/h
1771 21-06-2004 18:19:02 19.7 C 6.96 g/m*3 19.7 C 0 km/h
1772 21-06-2004 18:31:02 20 C 7.26 g/m*3 20 C 0 km/h
1773 21-06-2004 18:43:02 20.2 C 7.17 g/m*3 20.2 C 0 km/h
1774 21-06-2004 18:55:04 20.2 C 6.99 g/m*3 20.2 C 0 km/h
1775 21-06-2004 19:07:04 20.8 C 6.88 g/m*3 20.8 C 0 km/h
Sensor: Nr:Datum:Temp:Abs-Feuchte:Windchill:Wind:
Aussen-T/F 1776 21-06-2004 19:19:04 20.4 C 6.9 g/m*3 20.4 C 0 km/h
1777 21-06-2004 19:31:04 20.9 C 7.29 g/m*3 20.9 C 0 km/h
1778 21-06-2004 19:43:04 20.7 C 7.2 g/m*3 20.7 C 0 km/h
1779 21-06-2004 19:55:01 20.6 C 7.34 g/m*3 20.6 C 0 km/h
1780 21-06-2004 20:07:02 20.1 C 7.3 g/m*3 20.1 C 0 km/h
1781 21-06-2004 20:19:02 19.7 C 7.64 g/m*3 19.7 C 0 km/h
1782 21-06-2004 20:31:02 19.2 C 7.75 g/m*3 19.2 C 0 km/h
1783 21-06-2004 20:43:02 19 C 7.82 g/m*3 19 C 0 km/h
1784 21-06-2004 20:55:01 18.3 C 7.66 g/m*3 18.3 C 0 km/h
1785 21-06-2004 21:07:01 17.4 C 7.56 g/m*3 17.4 C 0 km/h
1786 21-06-2004 21:19:01 16.8 C 8.01 g/m*3 16.8 C 0 km/h
1787 21-06-2004 21:31:01 16.3 C 8.19 g/m*3 16.3 C 0 km/h
1788 21-06-2004 21:43:01 15.4 C 7.88 g/m*3 15.4 C 0 km/h
1789 21-06-2004 21:55:01 14.9 C 7.9 g/m*3 14.9 C 0 km/h
1790 21-06-2004 22:07:01 14.5 C 7.84 g/m*3 14.5 C 0 km/h
1791 21-06-2004 22:19:01 14.2 C 7.94 g/m*3 14.2 C 0 km/h
1792 21-06-2004 22:31:01 14 C 7.96 g/m*3 14 C 0 km/h
1793 21-06-2004 22:43:01 13.6 C 7.89 g/m*3 13.6 C 0 km/h
1794 21-06-2004 22:55:01 13.5 C 7.95 g/m*3 13.5 C 0 km/h
1795 21-06-2004 23:07:01 13.5 C 8.07 g/m*3 13.5 C 0 km/h
1796 21-06-2004 23:19:01 13.4 C 8.14 g/m*3 13.4 C 0 km/h
1797 21-06-2004 23:31:01 13.3 C 8.2 g/m*3 13.3 C 0 km/h
1798 21-06-2004 23:43:01 13.3 C 8.2 g/m*3 13.3 C 0 km/h
1799 21-06-2004 23:55:01 13.5 C 8.3 g/m*3 13.5 C 0 km/h
1800 22-06-2004 00:07:01 13.5 C 8.3 g/m*3 13.5 C 0 km/h
Sensor: Nr:Datum:Temp:Abs-Feuchte:Windchill:Wind:
Aussen-T/F 1801 22-06-2004 00:20:00 13.1 C 8.22 g/m*3 13.1 C 0 km/h
1802 22-06-2004 00:32:00 13.2 C 8.27 g/m*3 13.2 C 0 km/h
1803 22-06-2004 00:44:00 12.9 C 8.34 g/m*3 12.9 C 0 km/h
1804 22-06-2004 00:56:00 12.9 C 8.34 g/m*3 12.9 C 0 km/h
1805 22-06-2004 01:08:01 13 C 8.28 g/m*3 13 C 0 km/h
1806 22-06-2004 01:20:01 12.8 C 8.29 g/m*3 12.8 C 0 km/h
1807 22-06-2004 01:32:01 12.8 C 8.4 g/m*3 12.8 C 0 km/h
1808 22-06-2004 01:44:01 12.7 C 8.35 g/m*3 12.7 C 0 km/h
1809 22-06-2004 01:56:01 12.6 C 8.52 g/m*3 12.6 C 0 km/h
1810 22-06-2004 02:08:01 12.5 C 8.47 g/m*3 12.5 C 0 km/h
1811 22-06-2004 02:20:02 12.6 C 8.19 g/m*3 12.6 C 0 km/h
1812 22-06-2004 02:32:02 12.3 C 8.58 g/m*3 12.3 C 0 km/h
1813 22-06-2004 02:44:02 12.2 C 8.42 g/m*3 12.2 C 0 km/h
1814 22-06-2004 02:56:02 12.3 C 8.47 g/m*3 12.3 C 0 km/h
1815 22-06-2004 03:08:02 12.3 C 8.36 g/m*3 12.3 C 0 km/h
1816 22-06-2004 03:20:02 12.2 C 8.42 g/m*3 12.2 C 0 km/h
1817 22-06-2004 03:32:03 12.2 C 8.42 g/m*3 12.2 C 0 km/h
1818 22-06-2004 03:44:03 12.3 C 8.69 g/m*3 12.3 C 0 km/h
1819 22-06-2004 03:56:03 12.1 C 8.79 g/m*3 12.1 C 0 km/h
1820 22-06-2004 04:08:03 12 C 8.95 g/m*3 12 C 0 km/h
1821 22-06-2004 04:20:03 12 C 8.95 g/m*3 12 C 0 km/h
1822 22-06-2004 04:32:03 11.9 C 9 g/m*3 11.9 C 0 km/h
1823 22-06-2004 04:44:04 11.9 C 9.11 g/m*3 11.9 C 0 km/h
1824 22-06-2004 04:56:04 11.8 C 9.05 g/m*3 11.8 C 0 km/h
1825 22-06-2004 05:08:04 11.9 C 9.11 g/m*3 11.9 C 0 km/h
Sensor: Nr:Datum:Temp:Abs-Feuchte:Windchill:Wind:
Aussen-T/F 1826 22-06-2004 05:20:04 12 C 9.06 g/m*3 12 C 0 km/h
1827 22-06-2004 05:32:04 12.1 C 9.12 g/m*3 12.1 C 0 km/h
1828 22-06-2004 05:44:04 12.2 C 9.17 g/m*3 12.2 C 0 km/h
1829 22-06-2004 05:56:04 12.1 C 9.12 g/m*3 12.1 C 0 km/h
1830 22-06-2004 06:08:04 12.2 C 9.28 g/m*3 12.2 C 0 km/h
1831 22-06-2004 06:20:04 12.2 C 9.39 g/m*3 12.2 C 0 km/h
1832 22-06-2004 06:32:04 12.1 C 9.22 g/m*3 12.1 C 0 km/h
1833 22-06-2004 06:44:04 12 C 9.27 g/m*3 12 C 0 km/h
1834 22-06-2004 06:56:04 12.1 C 9.33 g/m*3 12.1 C 0 km/h
1835 22-06-2004 07:08:04 12.2 C 9.39 g/m*3 12.2 C 0 km/h
1836 22-06-2004 07:20:00 12.2 C 9.39 g/m*3 12.2 C 0 km/h
1837 22-06-2004 07:32:00 12.4 C 9.51 g/m*3 12.4 C 0 km/h
1838 22-06-2004 07:44:00 12.6 C 9.62 g/m*3 12.6 C 0 km/h
1839 22-06-2004 07:56:01 12.8 C 9.74 g/m*3 12.8 C 0 km/h
1840 22-06-2004 08:08:01 13.1 C 9.81 g/m*3 13.1 C 0 km/h
1841 22-06-2004 08:20:01 13.2 C 9.87 g/m*3 13.2 C 0 km/h
1842 22-06-2004 08:32:01 13.4 C 9.88 g/m*3 13.4 C 0 km/h
1843 22-06-2004 08:44:01 13.7 C 10.07 g/m*3 13.7 C 0 km/h
1844 22-06-2004 08:56:01 13.7 C 10.07 g/m*3 13.7 C 0 km/h
1845 22-06-2004 09:08:01 13.7 C 10.18 g/m*3 13.7 C 0 km/h
1846 22-06-2004 09:20:01 13.8 C 10.25 g/m*3 13.8 C 0 km/h
1847 22-06-2004 09:32:01 13.7 C 10.3 g/m*3 13.7 C 0 km/h
1848 22-06-2004 09:44:01 13.9 C 10.55 g/m*3 13.9 C 0 km/h
1849 22-06-2004 09:56:01 14.1 C 10.56 g/m*3 14.1 C 0 km/h
1850 22-06-2004 10:08:01 14 C 10.37 g/m*3 14 C 0 km/h
Sensor: Nr:Datum:Temp:Abs-Feuchte:Windchill:Wind:
Aussen-T/F 1851 22-06-2004 10:20:01 14 C 10.37 g/m*3 14 C 0 km/h
1852 22-06-2004 10:32:01 14.1 C 10.44 g/m*3 14.1 C 0 km/h
1853 22-06-2004 10:44:01 14.2 C 10.38 g/m*3 14.2 C 0 km/h
1854 22-06-2004 10:56:01 14.1 C 10.19 g/m*3 14.1 C 0 km/h
1855 22-06-2004 11:08:01 13.7 C 10.18 g/m*3 13.7 C 0 km/h
1856 22-06-2004 11:20:01 13.6 C 10.24 g/m*3 13.6 C 0 km/h
1857 22-06-2004 11:32:01 14 C 10.61 g/m*3 14 C 0 km/h
1858 22-06-2004 11:44:01 13.9 C 10.55 g/m*3 13.9 C 0 km/h
1859 22-06-2004 11:56:01 14.1 C 10.68 g/m*3 14.1 C 0 km/h
1860 22-06-2004 12:08:01 14.1 C 10.68 g/m*3 14.1 C 0 km/h
1861 22-06-2004 12:20:02 14.2 C 10.75 g/m*3 14.2 C 0 km/h
1862 22-06-2004 12:32:02 14.5 C 10.94 g/m*3 14.5 C 0 km/h
1863 22-06-2004 12:44:02 14.7 C 10.95 g/m*3 14.7 C 0 km/h
1864 22-06-2004 12:56:02 14.8 C 11.02 g/m*3 14.8 C 0 km/h
1865 22-06-2004 13:08:02 14.6 C 10.76 g/m*3 14.6 C 0 km/h
1866 22-06-2004 13:20:02 14.8 C 11.02 g/m*3 14.8 C 0 km/h
1867 22-06-2004 13:32:02 14.9 C 10.96 g/m*3 14.9 C 0 km/h
1868 22-06-2004 13:44:02 15.6 C 11.17 g/m*3 15.6 C 0 km/h
1869 22-06-2004 13:56:01 15.8 C 11.04 g/m*3 15.8 C 0 km/h
1870 22-06-2004 14:08:01 16 C 10.9 g/m*3 16 C 0 km/h
1871 22-06-2004 14:20:01 16.2 C 11.03 g/m*3 16.2 C 0 km/h
1872 22-06-2004 14:32:01 16.6 C 11.3 g/m*3 16.6 C 0 km/h
1873 22-06-2004 14:44:01 17 C 11.29 g/m*3 17 C 0 km/h
1874 22-06-2004 14:56:01 18.2 C 11.35 g/m*3 18.2 C 0 km/h
1875 22-06-2004 15:08:01 19.4 C 11.35 g/m*3 19.4 C 0 km/h
Sensor: Nr:Datum:Temp:Abs-Feuchte:Windchill:Wind:
Aussen-T/F 1876 22-06-2004 15:20:01 19.7 C 11.21 g/m*3 19.7 C 0 km/h
1877 22-06-2004 15:32:01 19.3 C 11.11 g/m*3 19.3 C 0 km/h
1878 22-06-2004 15:44:01 18.6 C 11.3 g/m*3 18.6 C 0 km/h
1879 22-06-2004 15:56:01 18.7 C 11.37 g/m*3 18.7 C 0 km/h
1880 22-06-2004 16:08:01 20.3 C 11.08 g/m*3 20.3 C 0 km/h
1881 22-06-2004 16:20:00 20.1 C 10.95 g/m*3 20.1 C 0 km/h
1882 22-06-2004 16:32:00 19.8 C 11.1 g/m*3 19.8 C 0 km/h
1883 22-06-2004 16:44:00 19.3 C 11.44 g/m*3 19.3 C 0 km/h
1884 22-06-2004 16:56:01 19.4 C 11.01 g/m*3 19.4 C 0 km/h
1885 22-06-2004 17:08:01 20.1 C 11.13 g/m*3 20.1 C 0 km/h
1886 22-06-2004 17:20:01 22.3 C 11.06 g/m*3 22.3 C 0 km/h
1887 22-06-2004 17:32:01 23.5 C 11 g/m*3 23.5 C 0 km/h
1888 22-06-2004 17:44:01 22.4 C 10.72 g/m*3 22.4 C 0 km/h
1889 22-06-2004 17:56:01 22 C 10.87 g/m*3 22 C 0 km/h
1890 22-06-2004 18:08:00 22.3 C 11.26 g/m*3 22.3 C 0 km/h
1891 22-06-2004 18:20:00 22.6 C 10.85 g/m*3 22.6 C 0 km/h
1892 22-06-2004 18:32:00 23.6 C 10.42 g/m*3 23.6 C 0 km/h
1893 22-06-2004 18:44:00 22.7 C 10.51 g/m*3 22.7 C 0 km/h
1894 22-06-2004 18:56:01 22.8 C 11.58 g/m*3 22.8 C 0 km/h
1895 22-06-2004 19:08:01 22 C 11.45 g/m*3 22 C 0 km/h
1896 22-06-2004 19:20:01 20.8 C 11.59 g/m*3 20.8 C 0 km/h
1897 22-06-2004 19:32:01 20.1 C 11.82 g/m*3 20.1 C 0 km/h
1898 22-06-2004 19:44:01 19.9 C 11.85 g/m*3 19.9 C 0 km/h
1899 22-06-2004 19:56:01 19.5 C 11.92 g/m*3 19.5 C 0 km/h
1900 22-06-2004 20:08:01 19.3 C 11.94 g/m*3 19.3 C 0 km/h
Sensor: Nr:Datum:Temp:Abs-Feuchte:Windchill:Wind:
Aussen-T/F 1901 22-06-2004 20:20:01 19.2 C 11.21 g/m*3 19.2 C 0 km/h
1902 22-06-2004 20:32:01 19 C 11.73 g/m*3 19 C 0 km/h
1903 22-06-2004 20:44:01 18.7 C 11.85 g/m*3 18.7 C 0 km/h
1904 22-06-2004 20:56:01 18.5 C 11.55 g/m*3 18.5 C 0 km/h
1905 22-06-2004 21:08:01 18.3 C 11.57 g/m*3 18.3 C 0 km/h
1906 22-06-2004 21:20:01 18.1 C 11.43 g/m*3 18.1 C 0 km/h
1907 22-06-2004 21:32:01 17.6 C 11.4 g/m*3 17.6 C 0 km/h
1908 22-06-2004 21:44:01 17.7 C 11.47 g/m*3 17.7 C 0 km/h
1909 22-06-2004 21:56:01 17.4 C 11.41 g/m*3 17.4 C 0 km/h
1910 22-06-2004 22:08:01 17 C 11.29 g/m*3 17 C 0 km/h
1911 22-06-2004 22:20:01 16.6 C 11.44 g/m*3 16.6 C 0 km/h
1912 22-06-2004 22:32:01 16.6 C 11.44 g/m*3 16.6 C 0 km/h
1913 22-06-2004 22:44:01 16.6 C 11.44 g/m*3 16.6 C 0 km/h
1914 22-06-2004 22:56:01 16.8 C 11.44 g/m*3 16.8 C 0 km/h
1915 22-06-2004 23:08:01 17.2 C 11.42 g/m*3 17.2 C 0 km/h
1916 22-06-2004 23:20:01 17.1 C 11.21 g/m*3 17.1 C 0 km/h
1917 22-06-2004 23:32:01 17 C 11.29 g/m*3 17 C 0 km/h
1918 22-06-2004 23:44:01 17.1 C 11.35 g/m*3 17.1 C 0 km/h
1919 22-06-2004 23:56:01 17.3 C 11.2 g/m*3 17.3 C 0 km/h
1920 23-06-2004 00:08:01 17.2 C 11.28 g/m*3 17.2 C 0 km/h
1921 23-06-2004 00:20:01 17.1 C 11.21 g/m*3 17.1 C 0 km/h
1922 23-06-2004 00:32:01 16.9 C 11.22 g/m*3 16.9 C 0 km/h
1923 23-06-2004 00:44:01 16.8 C 11.29 g/m*3 16.8 C 0 km/h
1924 23-06-2004 00:56:02 16.7 C 11.23 g/m*3 16.7 C 0 km/h
1925 23-06-2004 01:08:02 16.6 C 11.16 g/m*3 16.6 C 0 km/h
Sensor: Nr:Datum:Temp:Abs-Feuchte:Windchill:Wind:
Aussen-T/F 1926 23-06-2004 01:20:02 16.6 C 11.16 g/m*3 16.6 C 0 km/h
1927 23-06-2004 01:32:02 16.6 C 11.16 g/m*3 16.6 C 0 km/h
1928 23-06-2004 01:44:02 16.3 C 11.1 g/m*3 16.3 C 0 km/h
1929 23-06-2004 01:56:01 16.1 C 11.1 g/m*3 16.1 C 0 km/h
1930 23-06-2004 02:08:01 16.1 C 11.1 g/m*3 16.1 C 0 km/h
1931 23-06-2004 02:20:01 16 C 11.17 g/m*3 16 C 0 km/h
1932 23-06-2004 02:32:01 16.4 C 11.17 g/m*3 16.4 C 0 km/h
1933 23-06-2004 02:44:01 16.5 C 11.23 g/m*3 16.5 C 0 km/h
1934 23-06-2004 02:57:02 16.8 C 11.15 g/m*3 16.8 C 0 km/h
1935 23-06-2004 03:09:02 17 C 11 g/m*3 17 C 0 km/h
1936 23-06-2004 03:21:02 17.1 C 10.92 g/m*3 17.1 C 0 km/h
1937 23-06-2004 03:33:01 17.1 C 10.77 g/m*3 17.1 C 0 km/h
1938 23-06-2004 03:45:01 17.2 C 10.84 g/m*3 17.2 C 0 km/h
1939 23-06-2004 03:57:01 16.5 C 11.09 g/m*3 16.5 C 0 km/h
1940 23-06-2004 04:09:01 16.2 C 11.17 g/m*3 16.2 C 0 km/h
1941 23-06-2004 04:21:01 16.4 C 11.31 g/m*3 16.4 C 0 km/h
1942 23-06-2004 04:33:01 16.4 C 11.17 g/m*3 16.4 C 0 km/h
1943 23-06-2004 04:45:01 16.5 C 11.09 g/m*3 16.5 C 0 km/h
1944 23-06-2004 04:57:01 16.7 C 11.08 g/m*3 16.7 C 0 km/h
1945 23-06-2004 05:09:01 16.4 C 11.03 g/m*3 16.4 C 0 km/h
1946 23-06-2004 05:21:01 16 C 11.44 g/m*3 16 C 0 km/h
1947 23-06-2004 05:33:01 15.6 C 11.84 g/m*3 15.6 C 0 km/h
1948 23-06-2004 05:45:01 15.6 C 11.97 g/m*3 15.6 C 0 km/h
1949 23-06-2004 05:57:01 15.4 C 11.96 g/m*3 15.4 C 0 km/h
1950 23-06-2004 06:09:00 15.4 C 12.09 g/m*3 15.4 C 0 km/h
Sensor: Nr:Datum:Temp:Abs-Feuchte:Windchill:Wind:
Aussen-T/F 1951 23-06-2004 06:21:00 15.4 C 12.09 g/m*3 15.4 C 0 km/h
1952 23-06-2004 06:33:00 15.4 C 12.22 g/m*3 15.4 C 0 km/h
1953 23-06-2004 06:45:01 15.4 C 12.22 g/m*3 15.4 C 0 km/h
1954 23-06-2004 06:57:01 15.6 C 12.37 g/m*3 15.6 C 0 km/h
1955 23-06-2004 07:09:01 15.8 C 12.52 g/m*3 15.8 C 0 km/h
1956 23-06-2004 07:21:01 16 C 12.67 g/m*3 16 C 0 km/h
1957 23-06-2004 07:33:01 16.5 C 12.92 g/m*3 16.5 C 0 km/h
1958 23-06-2004 07:45:02 16.6 C 12.86 g/m*3 16.6 C 0 km/h
1959 23-06-2004 07:57:02 16.9 C 12.94 g/m*3 16.9 C 0 km/h
1960 23-06-2004 08:09:01 16.8 C 12.72 g/m*3 16.8 C 0 km/h
1961 23-06-2004 08:21:01 16.6 C 12.57 g/m*3 16.6 C 0 km/h
1962 23-06-2004 08:33:01 16.7 C 12.65 g/m*3 16.7 C 0 km/h
1963 23-06-2004 08:45:01 16.8 C 12.72 g/m*3 16.8 C 0 km/h
1964 23-06-2004 08:57:01 17.2 C 12.74 g/m*3 17.2 C 0 km/h
1965 23-06-2004 09:09:00 17.7 C 12.67 g/m*3 17.7 C 0 km/h
1966 23-06-2004 09:21:01 17.5 C 12.52 g/m*3 17.5 C 0 km/h
1967 23-06-2004 09:33:01 17.7 C 12.67 g/m*3 17.7 C 0 km/h
1968 23-06-2004 09:45:02 18.4 C 12.74 g/m*3 18.4 C 0 km/h
1969 23-06-2004 09:57:02 18.9 C 12.64 g/m*3 18.9 C 0 km/h
1970 23-06-2004 10:09:02 19.4 C 12.01 g/m*3 19.4 C 0 km/h
1971 23-06-2004 10:21:02 19.5 C 11.58 g/m*3 19.5 C 0 km/h
1972 23-06-2004 10:33:02 19.8 C 11.61 g/m*3 19.8 C 0 km/h
1973 23-06-2004 10:45:01 20.1 C 11.3 g/m*3 20.1 C 0 km/h
1974 23-06-2004 10:57:01 20.1 C 10.95 g/m*3 20.1 C 0 km/h
1975 23-06-2004 11:09:01 20.4 C 11.14 g/m*3 20.4 C 0 km/h
Sensor: Nr:Datum:Temp:Abs-Feuchte:Windchill:Wind:
Aussen-T/F 1976 23-06-2004 11:21:01 21.1 C 10.87 g/m*3 21.1 C 0 km/h
1977 23-06-2004 11:33:01 21.9 C 11 g/m*3 21.9 C 0 km/h
1978 23-06-2004 11:45:01 22.7 C 10.3 g/m*3 22.7 C 0 km/h
1979 23-06-2004 11:57:01 22 C 9.7 g/m*3 22 C 0 km/h
1980 23-06-2004 12:09:01 22.2 C 8.83 g/m*3 22.2 C 0 km/h
1981 23-06-2004 12:21:01 22.4 C 9.33 g/m*3 22.4 C 0 km/h
1982 23-06-2004 12:33:01 22 C 8.73 g/m*3 22 C 0 km/h
1983 23-06-2004 12:45:00 22 C 8.93 g/m*3 22 C 0 km/h
1984 23-06-2004 12:57:00 22.8 C 8.94 g/m*3 22.8 C 0 km/h
1985 23-06-2004 13:09:00 23.3 C 8.36 g/m*3 23.3 C 0 km/h
1986 23-06-2004 13:21:00 23.5 C 8.88 g/m*3 23.5 C 0 km/h
1987 23-06-2004 13:33:00 23 C 8.43 g/m*3 23 C 0 km/h
1988 23-06-2004 13:45:01 24.1 C 8.53 g/m*3 24.1 C 0 km/h
1989 23-06-2004 13:57:01 23.4 C 8.62 g/m*3 23.4 C 0 km/h
1990 23-06-2004 14:09:01 23.3 C 8.57 g/m*3 23.3 C 0 km/h
1991 23-06-2004 14:21:01 22.9 C 8.38 g/m*3 22.9 C 0 km/h
1992 23-06-2004 14:33:01 23.1 C 8.27 g/m*3 23.1 C 0 km/h
1993 23-06-2004 14:45:01 23.4 C 8.2 g/m*3 23.4 C 0 km/h
1994 23-06-2004 14:57:01 23.7 C 8.56 g/m*3 23.7 C 0 km/h
1995 23-06-2004 15:09:00 23.5 C 7.82 g/m*3 23.5 C 0 km/h
1996 23-06-2004 15:21:00 24.1 C 7.88 g/m*3 24.1 C 0 km/h
1997 23-06-2004 15:33:00 23.6 C 8.08 g/m*3 23.6 C 0 km/h
1998 23-06-2004 15:45:01 23.9 C 7.79 g/m*3 23.9 C 0 km/h
1999 23-06-2004 15:57:01 23.3 C 7.53 g/m*3 23.3 C 0 km/h
2000 23-06-2004 16:09:01 23.8 C 7.53 g/m*3 23.8 C 0 km/h
Sensor: Nr:Datum:Temp:Abs-Feuchte:Windchill:Wind:
Aussen-T/F 2001 23-06-2004 16:21:01 23.9 C 7.57 g/m*3 23.9 C 0 km/h
2002 23-06-2004 16:33:01 22.6 C 7.83 g/m*3 22.6 C 0 km/h
2003 23-06-2004 16:45:01 23.6 C 8.08 g/m*3 23.6 C 0 km/h
2004 23-06-2004 16:57:01 23 C 8.22 g/m*3 23 C 0 km/h
2005 23-06-2004 17:09:01 22.2 C 9.23 g/m*3 22.2 C 0 km/h
2006 23-06-2004 17:21:01 22 C 10.09 g/m*3 22 C 0 km/h
2007 23-06-2004 17:33:01 21.5 C 9.43 g/m*3 21.5 C 0 km/h
2008 23-06-2004 17:45:01 19 C 10.43 g/m*3 19 C 0 km/h
2009 23-06-2004 17:57:01 16.3 C 11.38 g/m*3 16.3 C 0 km/h
2010 23-06-2004 18:09:01 17.8 C 12.75 g/m*3 17.8 C 0 km/h
2011 23-06-2004 18:21:01 20 C 12.1 g/m*3 20 C 0 km/h
2012 23-06-2004 18:33:01 19.2 C 11.05 g/m*3 19.2 C 0 km/h
2013 23-06-2004 18:45:01 18 C 10.91 g/m*3 18 C 0 km/h
2014 23-06-2004 18:57:01 18.7 C 10.73 g/m*3 18.7 C 0 km/h
2015 23-06-2004 19:09:01 19.9 C 10.48 g/m*3 19.9 C 0 km/h
2016 23-06-2004 19:21:01 19.5 C 10.74 g/m*3 19.5 C 0 km/h
2017 23-06-2004 19:33:01 20.6 C 10.92 g/m*3 20.6 C 0 km/h
2018 23-06-2004 19:45:01 20.8 C 10.5 g/m*3 20.8 C 0 km/h
2019 23-06-2004 19:57:01 20.4 C 10.08 g/m*3 20.4 C 0 km/h
2020 23-06-2004 20:09:01 20.9 C 10.56 g/m*3 20.9 C 0 km/h
2021 23-06-2004 20:21:01 21 C 9.89 g/m*3 21 C 0 km/h
2022 23-06-2004 20:33:01 21.1 C 9.58 g/m*3 21.1 C 0 km/h
2023 23-06-2004 20:45:01 20.8 C 9.23 g/m*3 20.8 C 0 km/h
2024 23-06-2004 20:57:02 20.3 C 9.5 g/m*3 20.3 C 0 km/h
2025 23-06-2004 21:09:01 19.9 C 9.45 g/m*3 19.9 C 0 km/h
Sensor: Nr:Datum:Temp:Abs-Feuchte:Windchill:Wind:
Aussen-T/F 2026 23-06-2004 21:21:01 19.7 C 9.34 g/m*3 19.7 C 0 km/h
2027 23-06-2004 21:33:01 19.3 C 9.12 g/m*3 19.3 C 0 km/h
2028 23-06-2004 21:45:01 19.1 C 8.85 g/m*3 19.1 C 0 km/h
2029 23-06-2004 21:57:02 19.1 C 8.36 g/m*3 19.1 C 0 km/h
2030 23-06-2004 22:09:01 19.1 C 8.03 g/m*3 19.1 C 0 km/h
2031 23-06-2004 22:21:01 19.1 C 7.87 g/m*3 19.1 C 0 km/h
2032 23-06-2004 22:33:01 19.1 C 7.7 g/m*3 19.1 C 0 km/h
2033 23-06-2004 22:45:01 18.8 C 7.57 g/m*3 18.8 C 0 km/h
2034 23-06-2004 22:57:01 18.7 C 7.2 g/m*3 18.7 C 0 km/h
2035 23-06-2004 23:09:01 18.6 C 7.16 g/m*3 18.6 C 0 km/h
2036 23-06-2004 23:21:01 18.7 C 6.88 g/m*3 18.7 C 0 km/h
2037 23-06-2004 23:33:01 18.7 C 6.72 g/m*3 18.7 C 0 km/h
2038 23-06-2004 23:45:01 18.7 C 6.72 g/m*3 18.7 C 0 km/h
2039 23-06-2004 23:57:01 18.4 C 6.76 g/m*3 18.4 C 0 km/h
2040 24-06-2004 00:09:01 18.4 C 6.76 g/m*3 18.4 C 0 km/h
2041 24-06-2004 00:21:02 17.9 C 7.02 g/m*3 17.9 C 0 km/h
2042 24-06-2004 00:33:02 17.2 C 7.32 g/m*3 17.2 C 0 km/h
2043 24-06-2004 00:45:01 16.9 C 7.48 g/m*3 16.9 C 0 km/h
2044 24-06-2004 00:57:01 16.8 C 7.43 g/m*3 16.8 C 0 km/h
2045 24-06-2004 01:09:01 16.8 C 7.43 g/m*3 16.8 C 0 km/h
2046 24-06-2004 01:21:01 17 C 7.23 g/m*3 17 C 0 km/h
2047 24-06-2004 01:33:01 16.5 C 7.3 g/m*3 16.5 C 0 km/h
2048 24-06-2004 01:45:01 16.4 C 7.54 g/m*3 16.4 C 0 km/h
2049 24-06-2004 01:57:01 16.3 C 7.49 g/m*3 16.3 C 0 km/h
2050 24-06-2004 02:09:01 16.2 C 7.31 g/m*3 16.2 C 0 km/h
Sensor: Nr:Datum:Temp:Abs-Feuchte:Windchill:Wind:
Aussen-T/F 2051 24-06-2004 02:21:01 16.2 C 6.76 g/m*3 16.2 C 0 km/h
2052 24-06-2004 02:33:01 16 C 6.68 g/m*3 16 C 0 km/h
2053 24-06-2004 02:46:02 15.7 C 6.82 g/m*3 15.7 C 0 km/h
2054 24-06-2004 02:58:02 15.7 C 6.69 g/m*3 15.7 C 0 km/h
2055 24-06-2004 03:10:02 15.4 C 6.44 g/m*3 15.4 C 0 km/h
2056 24-06-2004 03:22:02 15.2 C 6.36 g/m*3 15.2 C 0 km/h
2057 24-06-2004 03:34:01 15 C 6.28 g/m*3 15 C 0 km/h
2058 24-06-2004 03:46:01 15 C 6.28 g/m*3 15 C 0 km/h
2059 24-06-2004 03:58:01 15 C 6.28 g/m*3 15 C 0 km/h
2060 24-06-2004 04:10:01 14.9 C 6.37 g/m*3 14.9 C 0 km/h
2061 24-06-2004 04:22:01 14.7 C 6.42 g/m*3 14.7 C 0 km/h
2062 24-06-2004 04:34:01 14.8 C 6.46 g/m*3 14.8 C 0 km/h
2063 24-06-2004 04:46:01 14.5 C 6.47 g/m*3 14.5 C 0 km/h
2064 24-06-2004 04:58:01 14.6 C 6.38 g/m*3 14.6 C 0 km/h
2065 24-06-2004 05:10:01 14.4 C 6.43 g/m*3 14.4 C 0 km/h
2066 24-06-2004 05:22:01 14.2 C 6.47 g/m*3 14.2 C 0 km/h
2067 24-06-2004 05:34:01 14.3 C 6.51 g/m*3 14.3 C 0 km/h
2068 24-06-2004 05:46:02 14.3 C 6.63 g/m*3 14.3 C 0 km/h
2069 24-06-2004 05:58:02 14.2 C 6.72 g/m*3 14.2 C 0 km/h
2070 24-06-2004 06:10:01 14.3 C 6.63 g/m*3 14.3 C 0 km/h
2071 24-06-2004 06:22:00 14.3 C 6.76 g/m*3 14.3 C 0 km/h
2072 24-06-2004 06:34:00 14.3 C 6.76 g/m*3 14.3 C 0 km/h
2073 24-06-2004 06:46:02 14.4 C 6.8 g/m*3 14.4 C 0 km/h
2074 24-06-2004 06:58:02 14.4 C 6.8 g/m*3 14.4 C 0 km/h
2075 24-06-2004 07:10:02 14.4 C 6.8 g/m*3 14.4 C 0 km/h
Sensor: Nr:Datum:Temp:Abs-Feuchte:Windchill:Wind:
Aussen-T/F 2076 24-06-2004 07:22:02 14.4 C 6.8 g/m*3 14.4 C 0 km/h
2077 24-06-2004 07:34:02 14.4 C 6.92 g/m*3 14.4 C 0 km/h
2078 24-06-2004 07:46:01 14.5 C 6.96 g/m*3 14.5 C 0 km/h
2079 24-06-2004 07:58:01 14.7 C 6.92 g/m*3 14.7 C 0 km/h
2080 24-06-2004 08:10:01 15.2 C 6.88 g/m*3 15.2 C 0 km/h
2081 24-06-2004 08:22:01 15.3 C 6.92 g/m*3 15.3 C 0 km/h
2082 24-06-2004 08:34:01 15 C 6.92 g/m*3 15 C 0 km/h
2083 24-06-2004 08:46:01 15.1 C 6.97 g/m*3 15.1 C 0 km/h
2084 24-06-2004 08:58:01 15.2 C 7.14 g/m*3 15.2 C 0 km/h
2085 24-06-2004 09:10:01 15 C 7.05 g/m*3 15 C 0 km/h
2086 24-06-2004 09:22:01 15.4 C 7.09 g/m*3 15.4 C 0 km/h
2087 24-06-2004 09:34:01 15.7 C 7.36 g/m*3 15.7 C 0 km/h
2088 24-06-2004 09:46:01 15.9 C 7.18 g/m*3 15.9 C 0 km/h
2089 24-06-2004 09:58:01 15.6 C 6.92 g/m*3 15.6 C 0 km/h
2090 24-06-2004 10:10:01 16 C 7.22 g/m*3 16 C 0 km/h
2091 24-06-2004 10:22:01 16 C 6.81 g/m*3 16 C 0 km/h
2092 24-06-2004 10:34:01 16 C 6.81 g/m*3 16 C 0 km/h
2093 24-06-2004 10:46:01 16.3 C 6.8 g/m*3 16.3 C 0 km/h
2094 24-06-2004 10:58:01 16.4 C 6.98 g/m*3 16.4 C 0 km/h
2095 24-06-2004 11:10:01 16.2 C 6.9 g/m*3 16.2 C 0 km/h
2096 24-06-2004 11:22:01 16.6 C 7.06 g/m*3 16.6 C 0 km/h
2097 24-06-2004 11:34:01 16.5 C 7.02 g/m*3 16.5 C 0 km/h
2098 24-06-2004 11:46:01 16.7 C 6.96 g/m*3 16.7 C 0 km/h
2099 24-06-2004 11:58:01 17.4 C 6.97 g/m*3 17.4 C 0 km/h
2100 24-06-2004 12:10:00 16.8 C 6.72 g/m*3 16.8 C 0 km/h
Sensor: Nr:Datum:Temp:Abs-Feuchte:Windchill:Wind:
Aussen-T/F 2101 24-06-2004 12:22:00 17 C 6.95 g/m*3 17 C 0 km/h
2102 24-06-2004 12:34:00 17.2 C 6.74 g/m*3 17.2 C 0 km/h
2103 24-06-2004 12:46:01 18.1 C 6.64 g/m*3 18.1 C 0 km/h
2104 24-06-2004 12:58:01 17.9 C 6.57 g/m*3 17.9 C 0 km/h
2105 24-06-2004 13:10:01 17.6 C 6.9 g/m*3 17.6 C 0 km/h
2106 24-06-2004 13:22:01 17.9 C 6.87 g/m*3 17.9 C 0 km/h
2107 24-06-2004 13:34:01 17.6 C 6.75 g/m*3 17.6 C 0 km/h
2108 24-06-2004 13:46:01 18 C 6.76 g/m*3 18 C 0 km/h
2109 24-06-2004 13:58:01 17.6 C 6.75 g/m*3 17.6 C 0 km/h
2110 24-06-2004 14:10:00 17.4 C 7.11 g/m*3 17.4 C 0 km/h
2111 24-06-2004 14:22:00 18 C 6.3 g/m*3 18 C 0 km/h
2112 24-06-2004 14:34:00 18.2 C 6.22 g/m*3 18.2 C 0 km/h
2113 24-06-2004 14:46:01 18.5 C 6.17 g/m*3 18.5 C 0 km/h
2114 24-06-2004 14:58:01 19.2 C 6.6 g/m*3 19.2 C 0 km/h
2115 24-06-2004 15:10:01 19.1 C 6.07 g/m*3 19.1 C 0 km/h
2116 24-06-2004 15:22:01 19.1 C 6.23 g/m*3 19.1 C 0 km/h
2117 24-06-2004 15:34:01 19.1 C 6.39 g/m*3 19.1 C 0 km/h
2118 24-06-2004 15:46:01 18.6 C 6.05 g/m*3 18.6 C 0 km/h
2119 24-06-2004 15:58:01 18.9 C 6.64 g/m*3 18.9 C 0 km/h
2120 24-06-2004 16:10:00 19.8 C 6.66 g/m*3 19.8 C 0 km/h
2121 24-06-2004 16:22:01 19.2 C 6.6 g/m*3 19.2 C 0 km/h
2122 24-06-2004 16:34:01 18.7 C 6.56 g/m*3 18.7 C 0 km/h
2123 24-06-2004 16:46:01 17.7 C 6.94 g/m*3 17.7 C 0 km/h
2124 24-06-2004 16:58:01 18.8 C 7.25 g/m*3 18.8 C 0 km/h
2125 24-06-2004 17:10:01 20 C 7.43 g/m*3 20 C 0 km/h
Sensor: Nr:Datum:Temp:Abs-Feuchte:Windchill:Wind:
Aussen-T/F 2126 24-06-2004 17:22:01 19.6 C 7.09 g/m*3 19.6 C 0 km/h
2127 24-06-2004 17:34:01 20.2 C 7.17 g/m*3 20.2 C 0 km/h
2128 24-06-2004 17:46:01 18.5 C 7.12 g/m*3 18.5 C 0 km/h
2129 24-06-2004 17:58:01 17.9 C 7.94 g/m*3 17.9 C 0 km/h
2130 24-06-2004 18:10:01 19 C 7.5 g/m*3 19 C 0 km/h
2131 24-06-2004 18:22:01 19.1 C 7.05 g/m*3 19.1 C 0 km/h
2132 24-06-2004 18:34:01 18.5 C 6.96 g/m*3 18.5 C 0 km/h
2133 24-06-2004 18:46:01 19.5 C 7.55 g/m*3 19.5 C 0 km/h
2134 24-06-2004 18:58:01 17.7 C 7.09 g/m*3 17.7 C 0 km/h
2135 24-06-2004 19:10:01 17.3 C 7.07 g/m*3 17.3 C 0 km/h
2136 24-06-2004 19:22:01 17.2 C 7.18 g/m*3 17.2 C 0 km/h
2137 24-06-2004 19:34:01 18.2 C 7.46 g/m*3 18.2 C 0 km/h
2138 24-06-2004 19:46:01 18.1 C 7.57 g/m*3 18.1 C 0 km/h
2139 24-06-2004 19:58:01 18 C 7.68 g/m*3 18 C 0 km/h
2140 24-06-2004 20:10:01 17.7 C 7.85 g/m*3 17.7 C 0 km/h
2141 24-06-2004 20:22:01 17.7 C 8 g/m*3 17.7 C 0 km/h
2142 24-06-2004 20:34:01 17.4 C 8 g/m*3 17.4 C 0 km/h
2143 24-06-2004 20:46:01 16.7 C 7.53 g/m*3 16.7 C 0 km/h
2144 24-06-2004 20:58:01 16.2 C 7.31 g/m*3 16.2 C 0 km/h
2145 24-06-2004 21:10:01 16.2 C 7.45 g/m*3 16.2 C 0 km/h
2146 24-06-2004 21:22:01 15.8 C 7.54 g/m*3 15.8 C 0 km/h
2147 24-06-2004 21:34:02 15.4 C 7.49 g/m*3 15.4 C 0 km/h
2148 24-06-2004 21:46:01 14.9 C 7.52 g/m*3 14.9 C 0 km/h
2149 24-06-2004 21:58:01 14.7 C 7.68 g/m*3 14.7 C 0 km/h
2150 24-06-2004 22:10:01 14.7 C 7.93 g/m*3 14.7 C 0 km/h
Sensor: Nr:Datum:Temp:Abs-Feuchte:Windchill:Wind:
Aussen-T/F 2151 24-06-2004 22:22:01 14.7 C 7.93 g/m*3 14.7 C 0 km/h
2152 24-06-2004 22:34:02 14.5 C 8.21 g/m*3 14.5 C 0 km/h
2153 24-06-2004 22:46:02 13.7 C 8.76 g/m*3 13.7 C 0 km/h
2154 24-06-2004 22:58:02 13.7 C 9.24 g/m*3 13.7 C 0 km/h
2155 24-06-2004 23:10:02 13.7 C 8.88 g/m*3 13.7 C 0 km/h
2156 24-06-2004 23:22:02 13.4 C 9.07 g/m*3 13.4 C 0 km/h
2157 24-06-2004 23:34:02 12.9 C 9.24 g/m*3 12.9 C 0 km/h
2158 24-06-2004 23:46:02 12.1 C 8.79 g/m*3 12.1 C 0 km/h
2159 24-06-2004 23:58:02 12.3 C 9.23 g/m*3 12.3 C 0 km/h
2160 25-06-2004 00:10:02 12.6 C 9.29 g/m*3 12.6 C 0 km/h
2161 25-06-2004 00:22:02 12.8 C 9.41 g/m*3 12.8 C 0 km/h
2162 25-06-2004 00:34:02 12.7 C 9.35 g/m*3 12.7 C 0 km/h
2163 25-06-2004 00:46:01 12.5 C 9.24 g/m*3 12.5 C 0 km/h
2164 25-06-2004 00:58:01 12 C 8.95 g/m*3 12 C 0 km/h
2165 25-06-2004 01:10:01 11.8 C 8.95 g/m*3 11.8 C 0 km/h
2166 25-06-2004 01:22:01 11.6 C 8.94 g/m*3 11.6 C 0 km/h
2167 25-06-2004 01:34:01 11.2 C 8.72 g/m*3 11.2 C 0 km/h
2168 25-06-2004 01:46:01 11.1 C 8.76 g/m*3 11.1 C 0 km/h
2169 25-06-2004 01:58:01 11 C 8.71 g/m*3 11 C 0 km/h
2170 25-06-2004 02:10:01 10.9 C 8.75 g/m*3 10.9 C 0 km/h
2171 25-06-2004 02:22:01 10.7 C 8.55 g/m*3 10.7 C 0 km/h
2172 25-06-2004 02:34:01 10.5 C 8.53 g/m*3 10.5 C 0 km/h
2173 25-06-2004 02:47:02 10.8 C 8.6 g/m*3 10.8 C 0 km/h
2174 25-06-2004 02:59:02 10.8 C 8.5 g/m*3 10.8 C 0 km/h
2175 25-06-2004 03:11:03 10.6 C 8.3 g/m*3 10.6 C 0 km/h
Sensor: Nr:Datum:Temp:Abs-Feuchte:Windchill:Wind:
Aussen-T/F 2176 25-06-2004 03:23:03 10.5 C 8.24 g/m*3 10.5 C 0 km/h
2177 25-06-2004 03:35:01 10.5 C 8.15 g/m*3 10.5 C 0 km/h
2178 25-06-2004 03:47:01 10.3 C 8.14 g/m*3 10.3 C 0 km/h
2179 25-06-2004 03:59:01 10.3 C 8.24 g/m*3 10.3 C 0 km/h
2180 25-06-2004 04:11:01 10.9 C 8.06 g/m*3 10.9 C 0 km/h
2181 25-06-2004 04:23:01 10.8 C 7.91 g/m*3 10.8 C 0 km/h
2182 25-06-2004 04:35:01 11 C 7.81 g/m*3 11 C 0 km/h
2183 25-06-2004 04:47:01 11 C 7.61 g/m*3 11 C 0 km/h
2184 25-06-2004 04:59:01 10.9 C 7.46 g/m*3 10.9 C 0 km/h
2185 25-06-2004 05:11:00 10.7 C 7.66 g/m*3 10.7 C 0 km/h
2186 25-06-2004 05:23:00 10.5 C 7.57 g/m*3 10.5 C 0 km/h
2187 25-06-2004 05:35:00 10.4 C 7.52 g/m*3 10.4 C 0 km/h
2188 25-06-2004 05:47:01 10.4 C 7.42 g/m*3 10.4 C 0 km/h
2189 25-06-2004 05:59:01 10.1 C 7.47 g/m*3 10.1 C 0 km/h
2190 25-06-2004 06:11:01 10 C 7.52 g/m*3 10 C 0 km/h
2191 25-06-2004 06:23:01 10 C 7.61 g/m*3 10 C 0 km/h
2192 25-06-2004 06:35:01 10.7 C 7.46 g/m*3 10.7 C 0 km/h
2193 25-06-2004 06:47:01 11.2 C 7.3 g/m*3 11.2 C 0 km/h
2194 25-06-2004 06:59:01 11.4 C 7.39 g/m*3 11.4 C 0 km/h
2195 25-06-2004 07:11:00 11.4 C 7.39 g/m*3 11.4 C 0 km/h
2196 25-06-2004 07:23:00 11.4 C 7.49 g/m*3 11.4 C 0 km/h
2197 25-06-2004 07:35:00 11.5 C 7.44 g/m*3 11.5 C 0 km/h
2198 25-06-2004 07:47:01 11.7 C 7.53 g/m*3 11.7 C 0 km/h
2199 25-06-2004 07:59:01 12 C 7.46 g/m*3 12 C 0 km/h
2200 25-06-2004 08:11:01 12.2 C 7.34 g/m*3 12.2 C 0 km/h
Sensor: Nr:Datum:Temp:Abs-Feuchte:Windchill:Wind:
Aussen-T/F 2201 25-06-2004 08:23:01 12.4 C 7.32 g/m*3 12.4 C 0 km/h
2202 25-06-2004 08:35:00 12.9 C 7.33 g/m*3 12.9 C 0 km/h
2203 25-06-2004 08:47:01 13.3 C 7.51 g/m*3 13.3 C 0 km/h
2204 25-06-2004 08:59:01 13.2 C 7.46 g/m*3 13.2 C 0 km/h
2205 25-06-2004 09:11:01 13.4 C 7.67 g/m*3 13.4 C 0 km/h
2206 25-06-2004 09:23:01 13.9 C 7.55 g/m*3 13.9 C 0 km/h
2207 25-06-2004 09:35:00 14.3 C 7.62 g/m*3 14.3 C 0 km/h
2208 25-06-2004 09:47:01 14.6 C 7.63 g/m*3 14.6 C 0 km/h
2209 25-06-2004 09:59:01 14.4 C 7.42 g/m*3 14.4 C 0 km/h
2210 25-06-2004 10:11:01 15.1 C 7.74 g/m*3 15.1 C 0 km/h
2211 25-06-2004 10:23:01 15.5 C 7.53 g/m*3 15.5 C 0 km/h
2212 25-06-2004 10:35:00 16 C 7.63 g/m*3 16 C 0 km/h
2213 25-06-2004 10:47:01 16.1 C 7.4 g/m*3 16.1 C 0 km/h
2214 25-06-2004 10:59:01 16.7 C 7.25 g/m*3 16.7 C 0 km/h
2215 25-06-2004 11:11:01 16.7 C 7.11 g/m*3 16.7 C 0 km/h
2216 25-06-2004 11:23:01 17.5 C 7.16 g/m*3 17.5 C 0 km/h
2217 25-06-2004 11:35:00 17.2 C 7.03 g/m*3 17.2 C 0 km/h
2218 25-06-2004 11:47:01 17.1 C 7.13 g/m*3 17.1 C 0 km/h
2219 25-06-2004 11:59:01 16.9 C 6.76 g/m*3 16.9 C 0 km/h
2220 25-06-2004 12:11:01 17.7 C 6.94 g/m*3 17.7 C 0 km/h
2221 25-06-2004 12:23:01 17.2 C 6.74 g/m*3 17.2 C 0 km/h
2222 25-06-2004 12:35:01 17.7 C 6.19 g/m*3 17.7 C 0 km/h
2223 25-06-2004 12:47:01 17 C 6.22 g/m*3 17 C 0 km/h
2224 25-06-2004 12:59:01 17.5 C 6.11 g/m*3 17.5 C 0 km/h
2225 25-06-2004 13:11:01 18.6 C 6.37 g/m*3 18.6 C 0 km/h
Sensor: Nr:Datum:Temp:Abs-Feuchte:Windchill:Wind:
Aussen-T/F 2226 25-06-2004 13:23:01 18.4 C 6.29 g/m*3 18.4 C 0 km/h
2227 25-06-2004 13:35:01 18.5 C 6.49 g/m*3 18.5 C 0 km/h
2228 25-06-2004 13:47:01 18 C 6.91 g/m*3 18 C 0 km/h
2229 25-06-2004 13:59:01 18.4 C 7.08 g/m*3 18.4 C 0 km/h
2230 25-06-2004 14:11:01 19.3 C 6.8 g/m*3 19.3 C 0 km/h
2231 25-06-2004 14:23:01 19.3 C 6.8 g/m*3 19.3 C 0 km/h
2232 25-06-2004 14:35:01 18.5 C 6.65 g/m*3 18.5 C 0 km/h
2233 25-06-2004 14:47:01 18.3 C 7.19 g/m*3 18.3 C 0 km/h
2234 25-06-2004 14:59:01 18 C 7.22 g/m*3 18 C 0 km/h
2235 25-06-2004 15:11:01 18.4 C 7.08 g/m*3 18.4 C 0 km/h
2236 25-06-2004 15:23:01 18.2 C 7.15 g/m*3 18.2 C 0 km/h
2237 25-06-2004 15:35:01 20.3 C 7.39 g/m*3 20.3 C 0 km/h
2238 25-06-2004 15:47:01 19.6 C 7.6 g/m*3 19.6 C 0 km/h
2239 25-06-2004 15:59:01 18.5 C 7.44 g/m*3 18.5 C 0 km/h
2240 25-06-2004 16:11:01 17.9 C 6.26 g/m*3 17.9 C 0 km/h
2241 25-06-2004 16:23:01 17.7 C 6.64 g/m*3 17.7 C 0 km/h
2242 25-06-2004 16:35:01 17.6 C 6.75 g/m*3 17.6 C 0 km/h
2243 25-06-2004 16:47:01 17.8 C 6.83 g/m*3 17.8 C 0 km/h
2244 25-06-2004 16:59:01 18 C 6.91 g/m*3 18 C 0 km/h
2245 25-06-2004 17:11:01 18.5 C 6.8 g/m*3 18.5 C 0 km/h
2246 25-06-2004 17:23:01 18.6 C 7 g/m*3 18.6 C 0 km/h
2247 25-06-2004 17:35:01 18.5 C 7.12 g/m*3 18.5 C 0 km/h
2248 25-06-2004 17:47:01 17.6 C 6.9 g/m*3 17.6 C 0 km/h
2249 25-06-2004 17:59:01 17.2 C 7.18 g/m*3 17.2 C 0 km/h
2250 25-06-2004 18:11:01 17.2 C 7.47 g/m*3 17.2 C 0 km/h
Sensor: Nr:Datum:Temp:Abs-Feuchte:Windchill:Wind:
Aussen-T/F 2251 25-06-2004 18:23:01 17.1 C 7.57 g/m*3 17.1 C 0 km/h
2252 25-06-2004 18:35:01 16.9 C 6.76 g/m*3 16.9 C 0 km/h
2253 25-06-2004 18:47:01 17.3 C 7.07 g/m*3 17.3 C 0 km/h
2254 25-06-2004 18:59:01 17.5 C 7.45 g/m*3 17.5 C 0 km/h
2255 25-06-2004 19:11:01 17.5 C 7.31 g/m*3 17.5 C 0 km/h
2256 25-06-2004 19:23:01 17.1 C 7.42 g/m*3 17.1 C 0 km/h
2257 25-06-2004 19:35:01 17.4 C 7.11 g/m*3 17.4 C 0 km/h
2258 25-06-2004 19:47:01 17.3 C 7.07 g/m*3 17.3 C 0 km/h
2259 25-06-2004 19:59:01 17.4 C 7.41 g/m*3 17.4 C 0 km/h
2260 25-06-2004 20:11:01 17.6 C 7.8 g/m*3 17.6 C 0 km/h
2261 25-06-2004 20:23:01 18.2 C 7.46 g/m*3 18.2 C 0 km/h
2262 25-06-2004 20:35:01 17.9 C 7.33 g/m*3 17.9 C 0 km/h
2263 25-06-2004 20:47:02 17.3 C 7.81 g/m*3 17.3 C 0 km/h
2264 25-06-2004 20:59:02 16.7 C 7.96 g/m*3 16.7 C 0 km/h
2265 25-06-2004 21:11:01 16.2 C 8 g/m*3 16.2 C 0 km/h
2266 25-06-2004 21:23:02 15.4 C 7.75 g/m*3 15.4 C 0 km/h
2267 25-06-2004 21:35:02 14.8 C 7.73 g/m*3 14.8 C 0 km/h
2268 25-06-2004 21:47:02 14.3 C 7.62 g/m*3 14.3 C 0 km/h
2269 25-06-2004 21:59:02 14 C 7.6 g/m*3 14 C 0 km/h
2270 25-06-2004 22:11:02 13.6 C 7.77 g/m*3 13.6 C 0 km/h
2271 25-06-2004 22:23:02 13.4 C 7.79 g/m*3 13.4 C 0 km/h
2272 25-06-2004 22:35:02 13.1 C 7.76 g/m*3 13.1 C 0 km/h
2273 25-06-2004 22:47:02 13.1 C 7.99 g/m*3 13.1 C 0 km/h
2274 25-06-2004 22:59:02 12.8 C 7.95 g/m*3 12.8 C 0 km/h
2275 25-06-2004 23:11:02 12.7 C 8.13 g/m*3 12.7 C 0 km/h
Sensor: Nr:Datum:Temp:Abs-Feuchte:Windchill:Wind:
Aussen-T/F 2276 25-06-2004 23:23:02 12.3 C 8.04 g/m*3 12.3 C 0 km/h
2277 25-06-2004 23:35:02 12 C 8.1 g/m*3 12 C 0 km/h
2278 25-06-2004 23:47:01 11.8 C 8.21 g/m*3 11.8 C 0 km/h
2279 25-06-2004 23:59:01 11.7 C 8.16 g/m*3 11.7 C 0 km/h
2280 26-06-2004 00:11:01 11.7 C 8.16 g/m*3 11.7 C 0 km/h
2281 26-06-2004 00:23:00 11.5 C 8.16 g/m*3 11.5 C 0 km/h
2282 26-06-2004 00:35:00 11.3 C 8.06 g/m*3 11.3 C 0 km/h
2283 26-06-2004 00:47:01 11 C 8.01 g/m*3 11 C 0 km/h
2284 26-06-2004 00:59:01 11 C 8.11 g/m*3 11 C 0 km/h
2285 26-06-2004 01:11:01 10.8 C 8.11 g/m*3 10.8 C 0 km/h
2286 26-06-2004 01:23:01 10.7 C 8.05 g/m*3 10.7 C 0 km/h
2287 26-06-2004 01:35:01 10.5 C 8.05 g/m*3 10.5 C 0 km/h
2288 26-06-2004 01:47:01 10.2 C 7.9 g/m*3 10.2 C 0 km/h
2289 26-06-2004 01:59:01 10.2 C 7.99 g/m*3 10.2 C 0 km/h
2290 26-06-2004 02:11:01 10 C 8.08 g/m*3 10 C 0 km/h
2291 26-06-2004 02:23:01 9.8 C 8.16 g/m*3 9.8 C 0 km/h
2292 26-06-2004 02:35:01 9.6 C 7.97 g/m*3 9.6 C 0 km/h
2293 26-06-2004 02:48:03 9.5 C 8.01 g/m*3 9.5 C 0 km/h
2294 26-06-2004 03:00:03 9.4 C 7.87 g/m*3 9.4 C 0 km/h
2295 26-06-2004 03:12:03 9.3 C 7.91 g/m*3 9.3 C 0 km/h
2296 26-06-2004 03:24:03 9.3 C 7.91 g/m*3 9.3 C 0 km/h
2297 26-06-2004 03:36:02 9.2 C 7.86 g/m*3 9.2 C 0 km/h
2298 26-06-2004 03:48:02 9 C 7.76 g/m*3 9 C 0 km/h
2299 26-06-2004 04:00:02 8.9 C 7.8 g/m*3 8.9 C 0 km/h
2300 26-06-2004 04:12:02 8.8 C 7.75 g/m*3 8.8 C 0 km/h
Sensor: Nr:Datum:Temp:Abs-Feuchte:Windchill:Wind:
Aussen-T/F 2301 26-06-2004 04:24:02 8.6 C 7.73 g/m*3 8.6 C 0 km/h
2302 26-06-2004 04:36:02 8.6 C 7.73 g/m*3 8.6 C 0 km/h
2303 26-06-2004 04:48:01 8.5 C 7.68 g/m*3 8.5 C 0 km/h
2304 26-06-2004 05:00:01 8.4 C 7.55 g/m*3 8.4 C 0 km/h
2305 26-06-2004 05:12:01 8.4 C 7.55 g/m*3 8.4 C 0 km/h
2306 26-06-2004 05:24:01 8.1 C 7.41 g/m*3 8.1 C 0 km/h
2307 26-06-2004 05:36:01 8 C 7.44 g/m*3 8 C 0 km/h
2308 26-06-2004 05:48:01 7.9 C 7.47 g/m*3 7.9 C 0 km/h
2309 26-06-2004 06:00:01 7.9 C 7.47 g/m*3 7.9 C 0 km/h
2310 26-06-2004 06:12:00 8 C 7.36 g/m*3 8 C 0 km/h
2311 26-06-2004 06:24:00 7.9 C 7.47 g/m*3 7.9 C 0 km/h
2312 26-06-2004 06:36:00 8 C 7.52 g/m*3 8 C 0 km/h
2313 26-06-2004 06:48:01 8.5 C 7.85 g/m*3 8.5 C 0 km/h
2314 26-06-2004 07:00:01 8.3 C 7.67 g/m*3 8.3 C 0 km/h
2315 26-06-2004 07:12:01 8.2 C 7.62 g/m*3 8.2 C 0 km/h
2316 26-06-2004 07:24:01 8.2 C 7.54 g/m*3 8.2 C 0 km/h
2317 26-06-2004 07:36:00 8.6 C 7.82 g/m*3 8.6 C 0 km/h
2318 26-06-2004 07:48:01 8.8 C 7.83 g/m*3 8.8 C 0 km/h
2319 26-06-2004 08:00:01 9 C 7.76 g/m*3 9 C 0 km/h
2320 26-06-2004 08:12:01 9.3 C 7.91 g/m*3 9.3 C 0 km/h
2321 26-06-2004 08:24:01 9.4 C 7.96 g/m*3 9.4 C 0 km/h
2322 26-06-2004 08:36:00 9.6 C 8.06 g/m*3 9.6 C 0 km/h
2323 26-06-2004 08:48:01 10 C 8.17 g/m*3 10 C 0 km/h
2324 26-06-2004 09:00:01 10.9 C 8.45 g/m*3 10.9 C 0 km/h
2325 26-06-2004 09:12:01 11.5 C 8.47 g/m*3 11.5 C 0 km/h
Sensor: Nr:Datum:Temp:Abs-Feuchte:Windchill:Wind:
Aussen-T/F 2326 26-06-2004 09:24:01 12.4 C 8.74 g/m*3 12.4 C 0 km/h
2327 26-06-2004 09:36:01 13.1 C 8.79 g/m*3 13.1 C 0 km/h
2328 26-06-2004 09:48:01 14 C 9.05 g/m*3 14 C 0 km/h
2329 26-06-2004 10:00:01 14.7 C 9.07 g/m*3 14.7 C 0 km/h
2330 26-06-2004 10:12:01 15.5 C 9.25 g/m*3 15.5 C 0 km/h
2331 26-06-2004 10:24:01 16.4 C 9.21 g/m*3 16.4 C 0 km/h
2332 26-06-2004 10:36:01 17.3 C 9.28 g/m*3 17.3 C 0 km/h
2333 26-06-2004 10:48:01 17.5 C 9.24 g/m*3 17.5 C 0 km/h
2334 26-06-2004 11:00:01 17.1 C 9.32 g/m*3 17.1 C 0 km/h
2335 26-06-2004 11:12:01 17.2 C 9.08 g/m*3 17.2 C 0 km/h
2336 26-06-2004 11:24:01 18.9 C 8.75 g/m*3 18.9 C 0 km/h
2337 26-06-2004 11:36:01 19.2 C 8.41 g/m*3 19.2 C 0 km/h
2338 26-06-2004 11:48:01 18.7 C 9.29 g/m*3 18.7 C 0 km/h
2339 26-06-2004 12:00:01 21.4 C 8.44 g/m*3 21.4 C 0 km/h
2340 26-06-2004 12:12:01 22.1 C 7.42 g/m*3 22.1 C 0 km/h
2341 26-06-2004 12:24:01 20.8 C 8.69 g/m*3 20.8 C 0 km/h
2342 26-06-2004 12:36:01 21.3 C 8.57 g/m*3 21.3 C 0 km/h
2343 26-06-2004 12:48:01 22.5 C 7.59 g/m*3 22.5 C 0 km/h
2344 26-06-2004 13:00:01 21.8 C 7.1 g/m*3 21.8 C 0 km/h
2345 26-06-2004 13:12:01 21.9 C 9.07 g/m*3 21.9 C 0 km/h
2346 26-06-2004 13:24:01 22.6 C 9.24 g/m*3 22.6 C 0 km/h
2347 26-06-2004 13:36:01 23.9 C 6.92 g/m*3 23.9 C 0 km/h
2348 26-06-2004 13:48:01 24 C 6.09 g/m*3 24 C 0 km/h
2349 26-06-2004 14:00:01 23.9 C 6.27 g/m*3 23.9 C 0 km/h
2350 26-06-2004 14:12:01 23.8 C 6.24 g/m*3 23.8 C 0 km/h
Sensor: Nr:Datum:Temp:Abs-Feuchte:Windchill:Wind:
Aussen-T/F 2351 26-06-2004 14:24:01 23.7 C 7.7 g/m*3 23.7 C 0 km/h
2352 26-06-2004 14:36:01 24.9 C 7.1 g/m*3 24.9 C 0 km/h
2353 26-06-2004 14:48:01 24.3 C 6.64 g/m*3 24.3 C 0 km/h
2354 26-06-2004 15:00:01 23.6 C 6.59 g/m*3 23.6 C 0 km/h
2355 26-06-2004 15:12:01 25.4 C 7.77 g/m*3 25.4 C 0 km/h
2356 26-06-2004 15:24:01 25.5 C 6.87 g/m*3 25.5 C 0 km/h
2357 26-06-2004 15:36:01 25.6 C 6.43 g/m*3 25.6 C 0 km/h
2358 26-06-2004 15:48:01 25.3 C 6.55 g/m*3 25.3 C 0 km/h
2359 26-06-2004 16:00:01 24.7 C 7.02 g/m*3 24.7 C 0 km/h
2360 26-06-2004 16:12:01 24.4 C 6.45 g/m*3 24.4 C 0 km/h
2361 26-06-2004 16:24:01 24.3 C 6.42 g/m*3 24.3 C 0 km/h
2362 26-06-2004 16:36:01 24 C 6.31 g/m*3 24 C 0 km/h
2363 26-06-2004 16:48:01 23.9 C 6.71 g/m*3 23.9 C 0 km/h
2364 26-06-2004 17:00:02 24.2 C 7.48 g/m*3 24.2 C 0 km/h
2365 26-06-2004 17:12:01 24.6 C 7.43 g/m*3 24.6 C 0 km/h
2366 26-06-2004 17:24:01 24 C 6.53 g/m*3 24 C 0 km/h
2367 26-06-2004 17:36:01 24.3 C 7.52 g/m*3 24.3 C 0 km/h
2368 26-06-2004 17:48:01 24.5 C 8.06 g/m*3 24.5 C 0 km/h
2369 26-06-2004 18:00:02 23.9 C 8.65 g/m*3 23.9 C 0 km/h
2370 26-06-2004 18:12:01 23.7 C 8.77 g/m*3 23.7 C 0 km/h
2371 26-06-2004 18:24:01 23.3 C 8.78 g/m*3 23.3 C 0 km/h
2372 26-06-2004 18:36:02 22.9 C 8.99 g/m*3 22.9 C 0 km/h
2373 26-06-2004 18:48:02 22.6 C 9.24 g/m*3 22.6 C 0 km/h
2374 26-06-2004 19:00:03 22.2 C 8.83 g/m*3 22.2 C 0 km/h
2375 26-06-2004 19:12:02 21.9 C 9.26 g/m*3 21.9 C 0 km/h
Sensor: Nr:Datum:Temp:Abs-Feuchte:Windchill:Wind:
Aussen-T/F 2376 26-06-2004 19:24:02 21.5 C 8.86 g/m*3 21.5 C 0 km/h
2377 26-06-2004 19:36:02 21.2 C 8.9 g/m*3 21.2 C 0 km/h
2378 26-06-2004 19:48:01 20.8 C 8.87 g/m*3 20.8 C 0 km/h
2379 26-06-2004 20:00:01 20.5 C 8.72 g/m*3 20.5 C 0 km/h
2380 26-06-2004 20:12:01 20.3 C 8.79 g/m*3 20.3 C 0 km/h
2381 26-06-2004 20:24:01 20.1 C 8.52 g/m*3 20.1 C 0 km/h
2382 26-06-2004 20:36:01 20 C 8.81 g/m*3 20 C 0 km/h
2383 26-06-2004 20:48:01 19.8 C 8.88 g/m*3 19.8 C 0 km/h
2384 26-06-2004 21:00:01 19.5 C 8.73 g/m*3 19.5 C 0 km/h
2385 26-06-2004 21:12:01 19.3 C 8.63 g/m*3 19.3 C 0 km/h
2386 26-06-2004 21:24:01 19.2 C 8.74 g/m*3 19.2 C 0 km/h
2387 26-06-2004 21:36:01 19 C 8.8 g/m*3 19 C 0 km/h
2388 26-06-2004 21:48:01 18.7 C 8.81 g/m*3 18.7 C 0 km/h
2389 26-06-2004 22:00:01 18.5 C 8.7 g/m*3 18.5 C 0 km/h
2390 26-06-2004 22:12:01 18.4 C 8.65 g/m*3 18.4 C 0 km/h
2391 26-06-2004 22:24:01 18.3 C 8.76 g/m*3 18.3 C 0 km/h
2392 26-06-2004 22:36:01 18.2 C 9.17 g/m*3 18.2 C 0 km/h
2393 26-06-2004 22:48:01 17.4 C 9.78 g/m*3 17.4 C 0 km/h
2394 26-06-2004 23:00:01 16.9 C 9.35 g/m*3 16.9 C 0 km/h
2395 26-06-2004 23:12:01 17.1 C 8.88 g/m*3 17.1 C 0 km/h
2396 26-06-2004 23:24:00 17.4 C 9.04 g/m*3 17.4 C 0 km/h
2397 26-06-2004 23:36:00 17.4 C 9.34 g/m*3 17.4 C 0 km/h
2398 26-06-2004 23:48:01 17.3 C 8.84 g/m*3 17.3 C 0 km/h
2399 27-06-2004 00:00:01 17.2 C 8.49 g/m*3 17.2 C 0 km/h
2400 27-06-2004 00:12:01 17.2 C 9.08 g/m*3 17.2 C 0 km/h
Sensor: Nr:Datum:Temp:Abs-Feuchte:Windchill:Wind:
Aussen-T/F 2401 27-06-2004 00:24:01 17 C 8.97 g/m*3 17 C 0 km/h
2402 27-06-2004 00:36:01 17 C 8.97 g/m*3 17 C 0 km/h
2403 27-06-2004 00:48:01 17 C 8.97 g/m*3 17 C 0 km/h
2404 27-06-2004 01:00:01 16.5 C 9.41 g/m*3 16.5 C 0 km/h
2405 27-06-2004 01:12:01 16.4 C 9.35 g/m*3 16.4 C 0 km/h
2406 27-06-2004 01:24:01 16.4 C 9.63 g/m*3 16.4 C 0 km/h
2407 27-06-2004 01:36:01 16.5 C 9.55 g/m*3 16.5 C 0 km/h
2408 27-06-2004 01:48:01 16.5 C 9.55 g/m*3 16.5 C 0 km/h
2409 27-06-2004 02:00:01 16.4 C 9.49 g/m*3 16.4 C 0 km/h
2410 27-06-2004 02:12:01 16.4 C 9.63 g/m*3 16.4 C 0 km/h
2411 27-06-2004 02:24:01 16.2 C 10.07 g/m*3 16.2 C 0 km/h
2412 27-06-2004 02:36:01 15.6 C 10.24 g/m*3 15.6 C 0 km/h
2413 27-06-2004 02:49:02 15.6 C 10.24 g/m*3 15.6 C 0 km/h
2414 27-06-2004 03:01:02 15.4 C 10.51 g/m*3 15.4 C 0 km/h
2415 27-06-2004 03:13:02 14.7 C 10.7 g/m*3 14.7 C 0 km/h
2416 27-06-2004 03:25:02 14.7 C 10.95 g/m*3 14.7 C 0 km/h
2417 27-06-2004 03:37:02 14.9 C 11.22 g/m*3 14.9 C 0 km/h
2418 27-06-2004 03:49:02 15.1 C 11.35 g/m*3 15.1 C 0 km/h
2419 27-06-2004 04:01:02 15.1 C 11.22 g/m*3 15.1 C 0 km/h
2420 27-06-2004 04:13:02 15.2 C 11.29 g/m*3 15.2 C 0 km/h
2421 27-06-2004 04:25:02 15.1 C 11.09 g/m*3 15.1 C 0 km/h
2422 27-06-2004 04:37:02 15 C 10.9 g/m*3 15 C 0 km/h
2423 27-06-2004 04:49:02 15 C 10.9 g/m*3 15 C 0 km/h
2424 27-06-2004 05:01:01 15 C 10.9 g/m*3 15 C 0 km/h
2425 27-06-2004 05:13:01 15 C 11.03 g/m*3 15 C 0 km/h
Sensor: Nr:Datum:Temp:Abs-Feuchte:Windchill:Wind:
Aussen-T/F 2426 27-06-2004 05:25:01 15 C 11.03 g/m*3 15 C 0 km/h
2427 27-06-2004 05:37:01 14.9 C 11.09 g/m*3 14.9 C 0 km/h
2428 27-06-2004 05:49:01 15 C 11.16 g/m*3 15 C 0 km/h
2429 27-06-2004 06:01:01 15.1 C 11.09 g/m*3 15.1 C 0 km/h
2430 27-06-2004 06:13:01 15.2 C 11.16 g/m*3 15.2 C 0 km/h
2431 27-06-2004 06:25:01 15.4 C 11.3 g/m*3 15.4 C 0 km/h
2432 27-06-2004 06:37:01 15.7 C 11.37 g/m*3 15.7 C 0 km/h
2433 27-06-2004 06:49:01 15.7 C 11.24 g/m*3 15.7 C 0 km/h
2434 27-06-2004 07:01:01 15.8 C 11.31 g/m*3 15.8 C 0 km/h
2435 27-06-2004 07:13:01 16 C 11.31 g/m*3 16 C 0 km/h
2436 27-06-2004 07:25:01 16.3 C 11.52 g/m*3 16.3 C 0 km/h
2437 27-06-2004 07:37:01 16.7 C 11.51 g/m*3 16.7 C 0 km/h
2438 27-06-2004 07:49:01 16.8 C 11.29 g/m*3 16.8 C 0 km/h
2439 27-06-2004 08:01:01 17 C 11.29 g/m*3 17 C 0 km/h
2440 27-06-2004 08:13:01 17.2 C 11.42 g/m*3 17.2 C 0 km/h
2441 27-06-2004 08:25:01 17.1 C 11.21 g/m*3 17.1 C 0 km/h
2442 27-06-2004 08:37:01 17.1 C 11.5 g/m*3 17.1 C 0 km/h
2443 27-06-2004 08:49:01 17.3 C 11.79 g/m*3 17.3 C 0 km/h
2444 27-06-2004 09:01:02 17.3 C 11.64 g/m*3 17.3 C 0 km/h
2445 27-06-2004 09:13:03 17.1 C 11.35 g/m*3 17.1 C 0 km/h
2446 27-06-2004 09:25:00 16.6 C 11.44 g/m*3 16.6 C 0 km/h
2447 27-06-2004 09:37:51 16.1 C 11.51 g/m*3 16.1 C 0 km/h
2448 27-06-2004 10:20:44 15.4 C 11.69 g/m*3 15.4 C 0 km/h
2449 27-06-2004 10:32:01 16 C 11.99 g/m*3 16 C 0 km/h
2450 27-06-2004 10:44:01 16.9 C 12.66 g/m*3 16.9 C 0 km/h
Sensor: Nr:Datum:Temp:Abs-Feuchte:Windchill:Wind:
Aussen-T/F 2451 27-06-2004 10:56:00 17.4 C 12.45 g/m*3 17.4 C 0 km/h
2452 27-06-2004 11:08:02 17.7 C 12.98 g/m*3 17.7 C 0 km/h
2453 27-06-2004 11:20:02 19.2 C 13.52 g/m*3 19.2 C 0 km/h
2454 27-06-2004 11:32:02 20.5 C 13.35 g/m*3 20.5 C 0 km/h
2455 27-06-2004 11:44:02 21.2 C 13.16 g/m*3 21.2 C 0 km/h
2456 27-06-2004 11:56:01 21.6 C 12.9 g/m*3 21.6 C 0 km/h
2457 27-06-2004 12:08:01 21.4 C 12.37 g/m*3 21.4 C 0 km/h
2458 27-06-2004 12:20:01 20.8 C 13.04 g/m*3 20.8 C 0 km/h
2459 27-06-2004 12:32:01 21.5 C 13.01 g/m*3 21.5 C 0 km/h
2460 27-06-2004 12:44:01 22.4 C 12.11 g/m*3 22.4 C 0 km/h
2461 27-06-2004 12:56:01 22.7 C 11.72 g/m*3 22.7 C 0 km/h
2462 27-06-2004 13:08:01 23.2 C 11.02 g/m*3 23.2 C 0 km/h
2463 27-06-2004 13:20:01 25.1 C 11.81 g/m*3 25.1 C 0 km/h
2464 27-06-2004 13:32:01 25.3 C 10.77 g/m*3 25.3 C 0 km/h
2465 27-06-2004 13:44:01 24.9 C 10.3 g/m*3 24.9 C 0 km/h
2466 27-06-2004 13:56:01 24.7 C 10.41 g/m*3 24.7 C 0 km/h
2467 27-06-2004 14:08:01 25.3 C 11.24 g/m*3 25.3 C 0 km/h
2468 27-06-2004 14:20:01 25.4 C 11.06 g/m*3 25.4 C 0 km/h
2469 27-06-2004 14:32:01 26 C 11.2 g/m*3 26 C 0 km/h
2470 27-06-2004 14:44:01 26.1 C 10.53 g/m*3 26.1 C 0 km/h
2471 27-06-2004 14:56:01 26.7 C 10.38 g/m*3 26.7 C 0 km/h
2472 27-06-2004 15:08:01 27.2 C 10.67 g/m*3 27.2 C 0 km/h
2473 27-06-2004 15:20:01 27.4 C 10.26 g/m*3 27.4 C 0 km/h
2474 27-06-2004 15:32:01 27.7 C 11.23 g/m*3 27.7 C 0 km/h
2475 27-06-2004 15:44:01 28.3 C 10.78 g/m*3 28.3 C 0 km/h
Sensor: Nr:Datum:Temp:Abs-Feuchte:Windchill:Wind:
Aussen-T/F 2476 27-06-2004 15:56:01 30.4 C 10.85 g/m*3 30.4 C 0 km/h
2477 27-06-2004 16:08:01 31 C 11.2 g/m*3 31 C 0 km/h
2478 27-06-2004 16:20:01 31.3 C 10.41 g/m*3 31.3 C 0 km/h
2479 27-06-2004 16:32:01 31 C 11.2 g/m*3 31 C 0 km/h
2480 27-06-2004 16:44:01 30.6 C 10.65 g/m*3 30.6 C 0 km/h
2481 27-06-2004 16:56:01 30.7 C 10.08 g/m*3 30.7 C 0 km/h
2482 27-06-2004 17:08:01 30.1 C 10.37 g/m*3 30.1 C 0 km/h
2483 27-06-2004 17:20:01 29.8 C 10.5 g/m*3 29.8 C 0 km/h
2484 27-06-2004 17:32:01 29.6 C 10.68 g/m*3 29.6 C 0 km/h
2485 27-06-2004 17:44:01 29.7 C 10.44 g/m*3 29.7 C 0 km/h
2486 27-06-2004 17:56:02 29.3 C 11.68 g/m*3 29.3 C 0 km/h
2487 27-06-2004 18:08:02 28.7 C 10.46 g/m*3 28.7 C 0 km/h
2488 27-06-2004 18:20:02 28.4 C 9.45 g/m*3 28.4 C 0 km/h
2489 27-06-2004 18:32:01 28.1 C 11.48 g/m*3 28.1 C 0 km/h
2490 27-06-2004 18:44:01 27.9 C 11.9 g/m*3 27.9 C 0 km/h
2491 27-06-2004 18:56:01 26.9 C 9.73 g/m*3 26.9 C 0 km/h
2492 27-06-2004 19:08:01 26.2 C 9.85 g/m*3 26.2 C 0 km/h
2493 27-06-2004 19:20:02 25.8 C 10.83 g/m*3 25.8 C 0 km/h
2494 27-06-2004 19:32:01 25.4 C 11.06 g/m*3 25.4 C 0 km/h
2495 27-06-2004 19:44:01 25 C 11.05 g/m*3 25 C 0 km/h
2496 27-06-2004 19:56:01 25 C 11.05 g/m*3 25 C 0 km/h
2497 27-06-2004 20:08:01 24.5 C 11.19 g/m*3 24.5 C 0 km/h
2498 27-06-2004 20:20:01 24.1 C 11.6 g/m*3 24.1 C 0 km/h
2499 27-06-2004 20:32:01 24 C 11.75 g/m*3 24 C 0 km/h
2500 27-06-2004 20:44:01 24.1 C 10.94 g/m*3 24.1 C 0 km/h
Sensor: Nr:Datum:Temp:Abs-Feuchte:Windchill:Wind:
Aussen-T/F 2501 27-06-2004 20:56:01 23.9 C 11.25 g/m*3 23.9 C 0 km/h
2502 27-06-2004 21:08:01 23.9 C 11.47 g/m*3 23.9 C 0 km/h
2503 27-06-2004 21:20:01 23.7 C 11.55 g/m*3 23.7 C 0 km/h
2504 27-06-2004 21:32:01 23.6 C 11.91 g/m*3 23.6 C 0 km/h
2505 27-06-2004 21:44:01 23.1 C 11.37 g/m*3 23.1 C 0 km/h
2506 27-06-2004 21:56:02 22.9 C 11.65 g/m*3 22.9 C 0 km/h
2507 27-06-2004 22:08:01 22.8 C 11.58 g/m*3 22.8 C 0 km/h
2508 27-06-2004 22:20:01 22.3 C 11.65 g/m*3 22.3 C 0 km/h
2509 27-06-2004 22:32:01 21.8 C 11.7 g/m*3 21.8 C 0 km/h
2510 27-06-2004 22:44:01 21.6 C 11.19 g/m*3 21.6 C 0 km/h
2511 27-06-2004 22:56:01 21.3 C 10.62 g/m*3 21.3 C 0 km/h
2512 27-06-2004 23:08:01 20.8 C 10.68 g/m*3 20.8 C 0 km/h
2513 27-06-2004 23:20:02 20.3 C 10.38 g/m*3 20.3 C 0 km/h
2514 27-06-2004 23:32:02 19.9 C 10.48 g/m*3 19.9 C 0 km/h
2515 27-06-2004 23:44:02 19.4 C 10.18 g/m*3 19.4 C 0 km/h
2516 27-06-2004 23:56:01 18.9 C 10.04 g/m*3 18.9 C 0 km/h
2517 28-06-2004 00:08:01 18.8 C 10.47 g/m*3 18.8 C 0 km/h
2518 28-06-2004 00:20:00 18.6 C 10.19 g/m*3 18.6 C 0 km/h
2519 28-06-2004 00:32:00 18.6 C 9.39 g/m*3 18.6 C 0 km/h
2520 28-06-2004 00:44:00 18.5 C 9.33 g/m*3 18.5 C 0 km/h
2521 28-06-2004 00:56:01 18.4 C 8.97 g/m*3 18.4 C 0 km/h
2522 28-06-2004 01:08:01 18.7 C 8.65 g/m*3 18.7 C 0 km/h
2523 28-06-2004 01:20:01 18.6 C 8.91 g/m*3 18.6 C 0 km/h
2524 28-06-2004 01:32:01 18.5 C 9.02 g/m*3 18.5 C 0 km/h
2525 28-06-2004 01:44:01 18.1 C 9.27 g/m*3 18.1 C 0 km/h
Sensor: Nr:Datum:Temp:Abs-Feuchte:Windchill:Wind:
Aussen-T/F 2526 28-06-2004 01:56:01 18.2 C 9.01 g/m*3 18.2 C 0 km/h
2527 28-06-2004 02:08:01 18.2 C 8.86 g/m*3 18.2 C 0 km/h
2528 28-06-2004 02:20:01 18.2 C 9.01 g/m*3 18.2 C 0 km/h
2529 28-06-2004 02:32:01 18.2 C 8.55 g/m*3 18.2 C 0 km/h
2530 28-06-2004 02:44:01 18.2 C 8.39 g/m*3 18.2 C 0 km/h
2531 28-06-2004 02:57:02 18.3 C 8.29 g/m*3 18.3 C 0 km/h
2532 28-06-2004 03:09:02 17.9 C 8.4 g/m*3 17.9 C 0 km/h
2533 28-06-2004 03:21:02 17.6 C 8.25 g/m*3 17.6 C 0 km/h
2534 28-06-2004 03:33:01 17.4 C 8 g/m*3 17.4 C 0 km/h
2535 28-06-2004 03:45:01 17 C 7.96 g/m*3 17 C 0 km/h
2536 28-06-2004 03:57:01 16.6 C 8.19 g/m*3 16.6 C 0 km/h
2537 28-06-2004 04:09:01 16.3 C 8.19 g/m*3 16.3 C 0 km/h
2538 28-06-2004 04:21:01 15.9 C 8.13 g/m*3 15.9 C 0 km/h
2539 28-06-2004 04:33:01 15.7 C 8.03 g/m*3 15.7 C 0 km/h
2540 28-06-2004 04:45:01 15.5 C 7.93 g/m*3 15.5 C 0 km/h
2541 28-06-2004 04:57:01 15.3 C 7.97 g/m*3 15.3 C 0 km/h
2542 28-06-2004 05:09:00 15.1 C 7.87 g/m*3 15.1 C 0 km/h
2543 28-06-2004 05:21:00 14.9 C 8.03 g/m*3 14.9 C 0 km/h
2544 28-06-2004 05:33:00 14.8 C 7.98 g/m*3 14.8 C 0 km/h
2545 28-06-2004 05:45:01 14.7 C 8.06 g/m*3 14.7 C 0 km/h
2546 28-06-2004 05:57:01 14.6 C 8.01 g/m*3 14.6 C 0 km/h
2547 28-06-2004 06:09:01 14.6 C 8.01 g/m*3 14.6 C 0 km/h
2548 28-06-2004 06:21:01 14.7 C 7.93 g/m*3 14.7 C 0 km/h
2549 28-06-2004 06:33:01 14.7 C 7.93 g/m*3 14.7 C 0 km/h
2550 28-06-2004 06:45:01 14.7 C 7.93 g/m*3 14.7 C 0 km/h
Sensor: Nr:Datum:Temp:Abs-Feuchte:Windchill:Wind:
Aussen-T/F 2551 28-06-2004 06:57:01 14.8 C 7.85 g/m*3 14.8 C 0 km/h
2552 28-06-2004 07:09:01 14.8 C 7.85 g/m*3 14.8 C 0 km/h
2553 28-06-2004 07:21:00 14.9 C 8.03 g/m*3 14.9 C 0 km/h
2554 28-06-2004 07:33:00 15 C 7.82 g/m*3 15 C 0 km/h
2555 28-06-2004 07:45:01 15.2 C 7.92 g/m*3 15.2 C 0 km/h
2556 28-06-2004 07:57:01 15.2 C 8.05 g/m*3 15.2 C 0 km/h
2557 28-06-2004 08:09:01 15.4 C 8.15 g/m*3 15.4 C 0 km/h
2558 28-06-2004 08:21:01 15.6 C 8.38 g/m*3 15.6 C 0 km/h
2559 28-06-2004 08:33:01 15.8 C 8.48 g/m*3 15.8 C 0 km/h
2560 28-06-2004 08:45:01 16.1 C 8.36 g/m*3 16.1 C 0 km/h
2561 28-06-2004 08:57:01 16.5 C 8.43 g/m*3 16.5 C 0 km/h
2562 28-06-2004 09:09:00 17 C 8.1 g/m*3 17 C 0 km/h
2563 28-06-2004 09:21:00 17.3 C 8.25 g/m*3 17.3 C 0 km/h
2564 28-06-2004 09:33:00 17.6 C 7.95 g/m*3 17.6 C 0 km/h
2565 28-06-2004 09:45:01 17.9 C 8.09 g/m*3 17.9 C 0 km/h
2566 28-06-2004 09:57:01 18.1 C 8.03 g/m*3 18.1 C 0 km/h
2567 28-06-2004 10:09:01 18.5 C 8.54 g/m*3 18.5 C 0 km/h
2568 28-06-2004 10:21:01 18.8 C 8.37 g/m*3 18.8 C 0 km/h
2569 28-06-2004 10:33:01 18.8 C 8.54 g/m*3 18.8 C 0 km/h
2570 28-06-2004 10:45:01 18.7 C 8.17 g/m*3 18.7 C 0 km/h
2571 28-06-2004 10:57:01 20 C 8.3 g/m*3 20 C 0 km/h
2572 28-06-2004 11:09:01 19.6 C 7.93 g/m*3 19.6 C 0 km/h
2573 28-06-2004 11:21:01 19.9 C 7.56 g/m*3 19.9 C 0 km/h
2574 28-06-2004 11:33:01 20 C 7.6 g/m*3 20 C 0 km/h
2575 28-06-2004 11:45:01 20 C 7.78 g/m*3 20 C 0 km/h
Sensor: Nr:Datum:Temp:Abs-Feuchte:Windchill:Wind:
Aussen-T/F 2576 28-06-2004 11:57:01 19.6 C 7.6 g/m*3 19.6 C 0 km/h
2577 28-06-2004 12:09:01 21.4 C 7.69 g/m*3 21.4 C 0 km/h
2578 28-06-2004 12:21:01 20.8 C 7.24 g/m*3 20.8 C 0 km/h
2579 28-06-2004 12:33:02 22.7 C 7.48 g/m*3 22.7 C 0 km/h
2580 28-06-2004 12:45:02 22.9 C 8.17 g/m*3 22.9 C 0 km/h
2581 28-06-2004 12:57:02 22.9 C 7.36 g/m*3 22.9 C 0 km/h
2582 28-06-2004 13:09:02 22.2 C 7.66 g/m*3 22.2 C 0 km/h
2583 28-06-2004 13:21:02 22.3 C 7.5 g/m*3 22.3 C 0 km/h
2584 28-06-2004 13:33:02 22.9 C 7.97 g/m*3 22.9 C 0 km/h
2585 28-06-2004 13:45:01 21.9 C 7.14 g/m*3 21.9 C 0 km/h
2586 28-06-2004 13:57:01 23.4 C 7.36 g/m*3 23.4 C 0 km/h
2587 28-06-2004 14:09:01 22.4 C 7.35 g/m*3 22.4 C 0 km/h
2588 28-06-2004 14:21:01 23 C 7.4 g/m*3 23 C 0 km/h
2589 28-06-2004 14:33:01 22.1 C 7.03 g/m*3 22.1 C 0 km/h
2590 28-06-2004 14:45:01 22.6 C 7.63 g/m*3 22.6 C 0 km/h
2591 28-06-2004 14:57:01 23.3 C 7.95 g/m*3 23.3 C 0 km/h
2592 28-06-2004 15:09:01 23.5 C 7.61 g/m*3 23.5 C 0 km/h
2593 28-06-2004 15:21:01 22.9 C 7.77 g/m*3 22.9 C 0 km/h
2594 28-06-2004 15:33:01 24 C 6.74 g/m*3 24 C 0 km/h
2595 28-06-2004 15:45:01 23.9 C 7.14 g/m*3 23.9 C 0 km/h
2596 28-06-2004 15:57:01 24.8 C 7.28 g/m*3 24.8 C 0 km/h
2597 28-06-2004 16:09:01 26.2 C 6.89 g/m*3 26.2 C 0 km/h
2598 28-06-2004 16:21:01 27 C 7.21 g/m*3 27 C 0 km/h
2599 28-06-2004 16:33:01 25.3 C 6.79 g/m*3 25.3 C 0 km/h
2600 28-06-2004 16:45:01 24.9 C 7.55 g/m*3 24.9 C 0 km/h
Sensor: Nr:Datum:Temp:Abs-Feuchte:Windchill:Wind:
Aussen-T/F 2601 28-06-2004 16:57:01 24.4 C 7.12 g/m*3 24.4 C 0 km/h
2602 28-06-2004 17:09:01 25.5 C 6.39 g/m*3 25.5 C 0 km/h
2603 28-06-2004 17:21:00 25.4 C 7.06 g/m*3 25.4 C 0 km/h
2604 28-06-2004 17:33:00 26.3 C 6.93 g/m*3 26.3 C 0 km/h
2605 28-06-2004 17:45:01 25.4 C 6.59 g/m*3 25.4 C 0 km/h
2606 28-06-2004 17:57:02 24.6 C 6.3 g/m*3 24.6 C 0 km/h
2607 28-06-2004 18:09:01 24.5 C 6.27 g/m*3 24.5 C 0 km/h
2608 28-06-2004 18:21:02 23.5 C 6.56 g/m*3 23.5 C 0 km/h
2609 28-06-2004 18:33:01 24.1 C 6.56 g/m*3 24.1 C 0 km/h
2610 28-06-2004 18:45:01 24.5 C 6.71 g/m*3 24.5 C 0 km/h
2611 28-06-2004 18:57:01 25.2 C 6.29 g/m*3 25.2 C 0 km/h
2612 28-06-2004 19:09:01 23.7 C 6.63 g/m*3 23.7 C 0 km/h
2613 28-06-2004 19:21:01 24.2 C 6.6 g/m*3 24.2 C 0 km/h
2614 28-06-2004 19:33:01 25.6 C 6.67 g/m*3 25.6 C 0 km/h
2615 28-06-2004 19:45:01 24.1 C 6.35 g/m*3 24.1 C 0 km/h
2616 28-06-2004 19:57:01 24.4 C 6.68 g/m*3 24.4 C 0 km/h
2617 28-06-2004 20:09:01 23.2 C 7.07 g/m*3 23.2 C 0 km/h
2618 28-06-2004 20:21:01 22.7 C 6.87 g/m*3 22.7 C 0 km/h
2619 28-06-2004 20:33:01 22.7 C 6.87 g/m*3 22.7 C 0 km/h
2620 28-06-2004 20:45:01 21.7 C 6.87 g/m*3 21.7 C 0 km/h
2621 28-06-2004 20:57:01 21.1 C 7 g/m*3 21.1 C 0 km/h
2622 28-06-2004 21:09:01 20.4 C 6.55 g/m*3 20.4 C 0 km/h
2623 28-06-2004 21:21:01 20.3 C 7.03 g/m*3 20.3 C 0 km/h
2624 28-06-2004 21:33:00 20 C 7.09 g/m*3 20 C 0 km/h
2625 28-06-2004 21:45:01 19.5 C 7.22 g/m*3 19.5 C 0 km/h
Sensor: Nr:Datum:Temp:Abs-Feuchte:Windchill:Wind:
Aussen-T/F 2626 28-06-2004 21:57:01 19.4 C 7.01 g/m*3 19.4 C 0 km/h
2627 28-06-2004 22:09:01 19.4 C 6.84 g/m*3 19.4 C 0 km/h
2628 28-06-2004 22:21:01 19.1 C 6.88 g/m*3 19.1 C 0 km/h
2629 28-06-2004 22:33:01 18.8 C 6.93 g/m*3 18.8 C 0 km/h
2630 28-06-2004 22:45:01 18.5 C 6.96 g/m*3 18.5 C 0 km/h
2631 28-06-2004 22:57:01 18.1 C 7.11 g/m*3 18.1 C 0 km/h
2632 28-06-2004 23:09:01 17.7 C 7.09 g/m*3 17.7 C 0 km/h
2633 28-06-2004 23:21:01 17.2 C 7.03 g/m*3 17.2 C 0 km/h
2634 28-06-2004 23:33:01 16.9 C 7.19 g/m*3 16.9 C 0 km/h
2635 28-06-2004 23:45:01 16.6 C 7.49 g/m*3 16.6 C 0 km/h
2636 28-06-2004 23:57:01 16.4 C 7.54 g/m*3 16.4 C 0 km/h
2637 29-06-2004 00:09:01 16.4 C 7.82 g/m*3 16.4 C 0 km/h
2638 29-06-2004 00:21:01 16 C 7.9 g/m*3 16 C 0 km/h
2639 29-06-2004 00:33:01 15.7 C 8.03 g/m*3 15.7 C 0 km/h
2640 29-06-2004 00:45:01 15.7 C 8.03 g/m*3 15.7 C 0 km/h
2641 29-06-2004 00:57:01 15.3 C 8.1 g/m*3 15.3 C 0 km/h
2642 29-06-2004 01:09:01 15 C 8.08 g/m*3 15 C 0 km/h
2643 29-06-2004 01:21:01 14.9 C 8.28 g/m*3 14.9 C 0 km/h
2644 29-06-2004 01:33:01 14.6 C 8.38 g/m*3 14.6 C 0 km/h
2645 29-06-2004 01:45:01 14.5 C 8.33 g/m*3 14.5 C 0 km/h
2646 29-06-2004 01:57:01 14.2 C 8.43 g/m*3 14.2 C 0 km/h
2647 29-06-2004 02:09:01 13.8 C 8.46 g/m*3 13.8 C 0 km/h
2648 29-06-2004 02:21:01 13.4 C 8.37 g/m*3 13.4 C 0 km/h
2649 29-06-2004 02:33:01 13.4 C 8.25 g/m*3 13.4 C 0 km/h
2650 29-06-2004 02:46:03 13.3 C 8.32 g/m*3 13.3 C 0 km/h
Sensor: Nr:Datum:Temp:Abs-Feuchte:Windchill:Wind:
Aussen-T/F 2651 29-06-2004 02:58:03 13.2 C 8.38 g/m*3 13.2 C 0 km/h
2652 29-06-2004 03:10:03 13.1 C 8.33 g/m*3 13.1 C 0 km/h
2653 29-06-2004 03:22:03 12.7 C 8.35 g/m*3 12.7 C 0 km/h
2654 29-06-2004 03:34:01 12.5 C 8.36 g/m*3 12.5 C 0 km/h
2655 29-06-2004 03:46:01 12.4 C 8.3 g/m*3 12.4 C 0 km/h
2656 29-06-2004 03:58:01 12.2 C 8.31 g/m*3 12.2 C 0 km/h
2657 29-06-2004 04:10:01 12.1 C 8.36 g/m*3 12.1 C 0 km/h
2658 29-06-2004 04:22:01 11.9 C 8.37 g/m*3 11.9 C 0 km/h
2659 29-06-2004 04:34:01 11.6 C 8.32 g/m*3 11.6 C 0 km/h
2660 29-06-2004 04:46:01 11.4 C 8.21 g/m*3 11.4 C 0 km/h
2661 29-06-2004 04:58:01 11.3 C 8.26 g/m*3 11.3 C 0 km/h
2662 29-06-2004 05:10:01 11.1 C 8.16 g/m*3 11.1 C 0 km/h
2663 29-06-2004 05:22:01 11.1 C 8.16 g/m*3 11.1 C 0 km/h
2664 29-06-2004 05:34:01 11 C 8.21 g/m*3 11 C 0 km/h
2665 29-06-2004 05:46:01 10.9 C 8.16 g/m*3 10.9 C 0 km/h
2666 29-06-2004 05:58:01 10.8 C 8.2 g/m*3 10.8 C 0 km/h
2667 29-06-2004 06:10:01 10.8 C 8.2 g/m*3 10.8 C 0 km/h
2668 29-06-2004 06:22:01 10.8 C 8.2 g/m*3 10.8 C 0 km/h
2669 29-06-2004 06:34:01 11 C 8.31 g/m*3 11 C 0 km/h
2670 29-06-2004 06:46:01 11.1 C 8.26 g/m*3 11.1 C 0 km/h
2671 29-06-2004 06:58:01 11.2 C 8.31 g/m*3 11.2 C 0 km/h
2672 29-06-2004 07:10:01 11.2 C 8.21 g/m*3 11.2 C 0 km/h
2673 29-06-2004 07:22:00 11.5 C 8.37 g/m*3 11.5 C 0 km/h
2674 29-06-2004 07:34:00 11.7 C 8.37 g/m*3 11.7 C 0 km/h
2675 29-06-2004 07:46:01 12.1 C 8.36 g/m*3 12.1 C 0 km/h
Sensor: Nr:Datum:Temp:Abs-Feuchte:Windchill:Wind:
Aussen-T/F 2676 29-06-2004 07:58:01 12.4 C 8.52 g/m*3 12.4 C 0 km/h
2677 29-06-2004 08:10:01 12.4 C 8.52 g/m*3 12.4 C 0 km/h
2678 29-06-2004 08:22:01 12.8 C 8.62 g/m*3 12.8 C 0 km/h
2679 29-06-2004 08:34:01 13.3 C 8.55 g/m*3 13.3 C 0 km/h
2680 29-06-2004 08:46:01 13.8 C 8.58 g/m*3 13.8 C 0 km/h
2681 29-06-2004 08:58:01 14.1 C 8.5 g/m*3 14.1 C 0 km/h
2682 29-06-2004 09:10:01 14.4 C 8.65 g/m*3 14.4 C 0 km/h
2683 29-06-2004 09:22:01 15.1 C 8.64 g/m*3 15.1 C 0 km/h
2684 29-06-2004 09:34:00 15.6 C 8.25 g/m*3 15.6 C 0 km/h
2685 29-06-2004 09:46:01 15.6 C 7.98 g/m*3 15.6 C 0 km/h
2686 29-06-2004 09:58:01 17 C 8.1 g/m*3 17 C 0 km/h
2687 29-06-2004 10:10:01 17.7 C 8.3 g/m*3 17.7 C 0 km/h
2688 29-06-2004 10:22:01 18.6 C 8.12 g/m*3 18.6 C 0 km/h
2689 29-06-2004 10:34:00 19.7 C 7.98 g/m*3 19.7 C 0 km/h
2690 29-06-2004 10:46:01 19.8 C 7.86 g/m*3 19.8 C 0 km/h
2691 29-06-2004 10:58:01 20 C 7.78 g/m*3 20 C 0 km/h
2692 29-06-2004 11:10:01 20.7 C 8.1 g/m*3 20.7 C 0 km/h
2693 29-06-2004 11:22:01 20.8 C 7.24 g/m*3 20.8 C 0 km/h
2694 29-06-2004 11:34:01 20.6 C 7.16 g/m*3 20.6 C 0 km/h
2695 29-06-2004 11:46:01 21.9 C 7.53 g/m*3 21.9 C 0 km/h
2696 29-06-2004 11:58:01 21.7 C 7.06 g/m*3 21.7 C 0 km/h
2697 29-06-2004 12:10:01 22.1 C 6.44 g/m*3 22.1 C 0 km/h
2698 29-06-2004 12:22:01 23.9 C 6.71 g/m*3 23.9 C 0 km/h
2699 29-06-2004 12:34:01 22.5 C 6.39 g/m*3 22.5 C 0 km/h
2700 29-06-2004 12:46:01 21.7 C 6.87 g/m*3 21.7 C 0 km/h
Sensor: Nr:Datum:Temp:Abs-Feuchte:Windchill:Wind:
Aussen-T/F 2701 29-06-2004 12:58:01 24.1 C 7 g/m*3 24.1 C 0 km/h
2702 29-06-2004 13:10:01 26 C 6.33 g/m*3 26 C 0 km/h
2703 29-06-2004 13:22:01 24.7 C 5.88 g/m*3 24.7 C 0 km/h
2704 29-06-2004 13:34:01 25.7 C 6.22 g/m*3 25.7 C 0 km/h
2705 29-06-2004 13:46:01 24.9 C 5.04 g/m*3 24.9 C 0 km/h
2706 29-06-2004 13:58:01 23.5 C 5.71 g/m*3 23.5 C 0 km/h
2707 29-06-2004 14:10:01 23.8 C 5.81 g/m*3 23.8 C 0 km/h
2708 29-06-2004 14:22:01 24.6 C 5.85 g/m*3 24.6 C 0 km/h
2709 29-06-2004 14:34:01 23.4 C 6.1 g/m*3 23.4 C 0 km/h
2710 29-06-2004 14:46:01 23.6 C 6.38 g/m*3 23.6 C 0 km/h
2711 29-06-2004 14:58:01 23.9 C 5.84 g/m*3 23.9 C 0 km/h
2712 29-06-2004 15:10:01 24.5 C 6.04 g/m*3 24.5 C 0 km/h
2713 29-06-2004 15:22:01 24.5 C 5.82 g/m*3 24.5 C 0 km/h
2714 29-06-2004 15:34:01 24.1 C 5.91 g/m*3 24.1 C 0 km/h
2715 29-06-2004 15:46:02 25.1 C 6.25 g/m*3 25.1 C 0 km/h
2716 29-06-2004 15:58:02 23.4 C 6.52 g/m*3 23.4 C 0 km/h
2717 29-06-2004 16:10:02 24.3 C 6.42 g/m*3 24.3 C 0 km/h
2718 29-06-2004 16:22:02 24.5 C 6.94 g/m*3 24.5 C 0 km/h
2719 29-06-2004 16:34:02 25 C 6.22 g/m*3 25 C 0 km/h
2720 29-06-2004 16:46:02 24.6 C 6.08 g/m*3 24.6 C 0 km/h
2721 29-06-2004 16:58:02 24.5 C 6.04 g/m*3 24.5 C 0 km/h
2722 29-06-2004 17:10:02 23.6 C 6.59 g/m*3 23.6 C 0 km/h
2723 29-06-2004 17:22:02 24.5 C 6.71 g/m*3 24.5 C 0 km/h
2724 29-06-2004 17:34:02 24.5 C 6.49 g/m*3 24.5 C 0 km/h
2725 29-06-2004 17:46:01 25.5 C 6.63 g/m*3 25.5 C 0 km/h
Sensor: Nr:Datum:Temp:Abs-Feuchte:Windchill:Wind:
Aussen-T/F 2726 29-06-2004 17:58:01 25.6 C 6.43 g/m*3 25.6 C 0 km/h
2727 29-06-2004 18:10:01 24.6 C 6.75 g/m*3 24.6 C 0 km/h
2728 29-06-2004 18:22:01 25.3 C 7.02 g/m*3 25.3 C 0 km/h
2729 29-06-2004 18:34:01 24.7 C 7.02 g/m*3 24.7 C 0 km/h
2730 29-06-2004 18:46:01 25.2 C 6.98 g/m*3 25.2 C 0 km/h
2731 29-06-2004 18:58:01 25.8 C 7.22 g/m*3 25.8 C 0 km/h
2732 29-06-2004 19:10:01 25.1 C 6.94 g/m*3 25.1 C 0 km/h
2733 29-06-2004 19:22:01 24.4 C 7.12 g/m*3 24.4 C 0 km/h
2734 29-06-2004 19:34:01 24.4 C 6.9 g/m*3 24.4 C 0 km/h
2735 29-06-2004 19:46:01 25 C 7.14 g/m*3 25 C 0 km/h
2736 29-06-2004 19:58:01 25.3 C 7.49 g/m*3 25.3 C 0 km/h
2737 29-06-2004 20:10:01 24.3 C 8.19 g/m*3 24.3 C 0 km/h
2738 29-06-2004 20:22:01 22.9 C 8.58 g/m*3 22.9 C 0 km/h
2739 29-06-2004 20:34:03 22.6 C 8.64 g/m*3 22.6 C 0 km/h
2740 29-06-2004 20:46:01 22.7 C 7.68 g/m*3 22.7 C 0 km/h
2741 29-06-2004 20:58:01 22.6 C 8.04 g/m*3 22.6 C 0 km/h
2742 29-06-2004 21:10:01 22 C 8.54 g/m*3 22 C 0 km/h
2743 29-06-2004 21:22:01 20.8 C 8.69 g/m*3 20.8 C 0 km/h
2744 29-06-2004 21:34:01 19.7 C 8.49 g/m*3 19.7 C 0 km/h
2745 29-06-2004 21:46:01 19 C 8.31 g/m*3 19 C 0 km/h
2746 29-06-2004 21:58:01 18.8 C 8.54 g/m*3 18.8 C 0 km/h
2747 29-06-2004 22:10:01 18.4 C 8.34 g/m*3 18.4 C 0 km/h
2748 29-06-2004 22:22:01 18.2 C 8.24 g/m*3 18.2 C 0 km/h
2749 29-06-2004 22:34:01 18.1 C 8.34 g/m*3 18.1 C 0 km/h
2750 29-06-2004 22:46:01 18.2 C 8.7 g/m*3 18.2 C 0 km/h
Sensor: Nr:Datum:Temp:Abs-Feuchte:Windchill:Wind:
Aussen-T/F 2751 29-06-2004 22:58:01 18.1 C 8.65 g/m*3 18.1 C 0 km/h
2752 29-06-2004 23:10:01 18 C 8.45 g/m*3 18 C 0 km/h
2753 29-06-2004 23:22:01 17.8 C 8.65 g/m*3 17.8 C 0 km/h
2754 29-06-2004 23:34:01 17.7 C 8.75 g/m*3 17.7 C 0 km/h
2755 29-06-2004 23:46:01 17.6 C 8.7 g/m*3 17.6 C 0 km/h
2756 29-06-2004 23:58:01 17 C 8.54 g/m*3 17 C 0 km/h
2757 30-06-2004 00:10:01 16.8 C 8.72 g/m*3 16.8 C 0 km/h
2758 30-06-2004 00:22:01 16.6 C 8.76 g/m*3 16.6 C 0 km/h
2759 30-06-2004 00:34:01 16.1 C 8.64 g/m*3 16.1 C 0 km/h
2760 30-06-2004 00:46:01 15.7 C 8.96 g/m*3 15.7 C 0 km/h
2761 30-06-2004 00:58:01 15.4 C 8.8 g/m*3 15.4 C 0 km/h
2762 30-06-2004 01:10:01 15.2 C 8.83 g/m*3 15.2 C 0 km/h
2763 30-06-2004 01:22:01 14.9 C 8.79 g/m*3 14.9 C 0 km/h
2764 30-06-2004 01:34:01 14.7 C 8.81 g/m*3 14.7 C 0 km/h
2765 30-06-2004 01:46:01 14.4 C 8.78 g/m*3 14.4 C 0 km/h
2766 30-06-2004 01:58:01 14.8 C 8.87 g/m*3 14.8 C 0 km/h
2767 30-06-2004 02:10:01 14.5 C 8.83 g/m*3 14.5 C 0 km/h
2768 30-06-2004 02:22:00 14.5 C 8.83 g/m*3 14.5 C 0 km/h
2769 30-06-2004 02:34:00 14.5 C 8.95 g/m*3 14.5 C 0 km/h
2770 30-06-2004 02:47:02 14.7 C 8.94 g/m*3 14.7 C 0 km/h
2771 30-06-2004 02:59:02 14.5 C 8.83 g/m*3 14.5 C 0 km/h
2772 30-06-2004 03:11:02 14.4 C 8.9 g/m*3 14.4 C 0 km/h
2773 30-06-2004 03:23:02 14.4 C 8.9 g/m*3 14.4 C 0 km/h
2774 30-06-2004 03:35:01 14.4 C 8.9 g/m*3 14.4 C 0 km/h
2775 30-06-2004 03:47:01 14.2 C 8.91 g/m*3 14.2 C 0 km/h
Sensor: Nr:Datum:Temp:Abs-Feuchte:Windchill:Wind:
Aussen-T/F 2776 30-06-2004 03:59:01 14 C 8.81 g/m*3 14 C 0 km/h
2777 30-06-2004 04:11:01 14 C 8.81 g/m*3 14 C 0 km/h
2778 30-06-2004 04:23:01 14 C 8.93 g/m*3 14 C 0 km/h
2779 30-06-2004 04:35:00 14.1 C 8.98 g/m*3 14.1 C 0 km/h
2780 30-06-2004 04:47:01 14.2 C 8.91 g/m*3 14.2 C 0 km/h
2781 30-06-2004 04:59:01 14.2 C 8.91 g/m*3 14.2 C 0 km/h
2782 30-06-2004 05:11:01 14.2 C 9.04 g/m*3 14.2 C 0 km/h
2783 30-06-2004 05:23:01 14.1 C 8.98 g/m*3 14.1 C 0 km/h
2784 30-06-2004 05:35:01 13.8 C 8.94 g/m*3 13.8 C 0 km/h
2785 30-06-2004 05:47:01 13.5 C 8.89 g/m*3 13.5 C 0 km/h
2786 30-06-2004 05:59:01 13.5 C 9.01 g/m*3 13.5 C 0 km/h
2787 30-06-2004 06:11:01 13.6 C 9.06 g/m*3 13.6 C 0 km/h
2788 30-06-2004 06:23:01 13.6 C 9.06 g/m*3 13.6 C 0 km/h
2789 30-06-2004 06:35:01 13.8 C 9.17 g/m*3 13.8 C 0 km/h
2790 30-06-2004 06:47:01 13.9 C 8.99 g/m*3 13.9 C 0 km/h
2791 30-06-2004 06:59:01 14 C 8.93 g/m*3 14 C 0 km/h
2792 30-06-2004 07:11:01 14.3 C 9.09 g/m*3 14.3 C 0 km/h
2793 30-06-2004 07:23:01 14.3 C 8.97 g/m*3 14.3 C 0 km/h
2794 30-06-2004 07:35:02 14.4 C 9.02 g/m*3 14.4 C 0 km/h
2795 30-06-2004 07:47:01 14.5 C 9.08 g/m*3 14.5 C 0 km/h
2796 30-06-2004 07:59:01 15.3 C 9.01 g/m*3 15.3 C 0 km/h
2797 30-06-2004 08:11:01 16 C 8.86 g/m*3 16 C 0 km/h
2798 30-06-2004 08:23:01 16.6 C 8.9 g/m*3 16.6 C 0 km/h
2799 30-06-2004 08:35:01 17.2 C 8.93 g/m*3 17.2 C 0 km/h
2800 30-06-2004 08:47:01 17.3 C 9.13 g/m*3 17.3 C 0 km/h
Sensor: Nr:Datum:Temp:Abs-Feuchte:Windchill:Wind:
Aussen-T/F 2801 30-06-2004 08:59:01 17.3 C 8.99 g/m*3 17.3 C 0 km/h
2802 30-06-2004 09:11:01 17.6 C 9.15 g/m*3 17.6 C 0 km/h
2803 30-06-2004 09:23:00 17.8 C 9.26 g/m*3 17.8 C 0 km/h
2804 30-06-2004 09:35:00 18.3 C 9.54 g/m*3 18.3 C 0 km/h
2805 30-06-2004 09:47:01 18.3 C 9.22 g/m*3 18.3 C 0 km/h
2806 30-06-2004 09:59:01 19.1 C 9.34 g/m*3 19.1 C 0 km/h
2807 30-06-2004 10:11:01 19.3 C 9.12 g/m*3 19.3 C 0 km/h
2808 30-06-2004 10:23:01 19.5 C 9.23 g/m*3 19.5 C 0 km/h
2809 30-06-2004 10:35:01 20 C 9.33 g/m*3 20 C 0 km/h
2810 30-06-2004 10:47:01 21.1 C 9.58 g/m*3 21.1 C 0 km/h
2811 30-06-2004 10:59:01 21.3 C 8.95 g/m*3 21.3 C 0 km/h
2812 30-06-2004 11:11:01 21.1 C 8.84 g/m*3 21.1 C 0 km/h
2813 30-06-2004 11:23:00 22 C 9.12 g/m*3 22 C 0 km/h
2814 30-06-2004 11:35:01 23.7 C 8.98 g/m*3 23.7 C 0 km/h
2815 30-06-2004 11:47:01 22.9 C 7.77 g/m*3 22.9 C 0 km/h
2816 30-06-2004 11:59:01 22.8 C 8.94 g/m*3 22.8 C 0 km/h
2817 30-06-2004 12:11:02 23.9 C 8.22 g/m*3 23.9 C 0 km/h
2818 30-06-2004 12:23:02 23.7 C 7.7 g/m*3 23.7 C 0 km/h
2819 30-06-2004 12:35:02 24.4 C 7.57 g/m*3 24.4 C 0 km/h
2820 30-06-2004 12:47:02 24.4 C 7.79 g/m*3 24.4 C 0 km/h
2821 30-06-2004 12:59:02 22.9 C 8.17 g/m*3 22.9 C 0 km/h
2822 30-06-2004 13:11:02 23 C 8.63 g/m*3 23 C 0 km/h
2823 30-06-2004 13:23:02 23.6 C 8.93 g/m*3 23.6 C 0 km/h
2824 30-06-2004 13:35:02 25.1 C 7.64 g/m*3 25.1 C 0 km/h
2825 30-06-2004 13:47:01 25.5 C 7.81 g/m*3 25.5 C 0 km/h
Sensor: Nr:Datum:Temp:Abs-Feuchte:Windchill:Wind:
Aussen-T/F 2826 30-06-2004 13:59:01 24.9 C 7.55 g/m*3 24.9 C 0 km/h
2827 30-06-2004 14:11:01 26.4 C 7.47 g/m*3 26.4 C 0 km/h
2828 30-06-2004 14:23:01 25.9 C 7.02 g/m*3 25.9 C 0 km/h
2829 30-06-2004 14:35:01 26.5 C 7.01 g/m*3 26.5 C 0 km/h
2830 30-06-2004 14:47:01 26.9 C 7.68 g/m*3 26.9 C 0 km/h
2831 30-06-2004 14:59:01 27.7 C 7.76 g/m*3 27.7 C 0 km/h
2832 30-06-2004 15:11:01 27.5 C 7.14 g/m*3 27.5 C 0 km/h
2833 30-06-2004 15:23:01 27.6 C 7.71 g/m*3 27.6 C 0 km/h
2834 30-06-2004 15:35:01 26.8 C 7.38 g/m*3 26.8 C 0 km/h
2835 30-06-2004 15:47:01 27.2 C 7.03 g/m*3 27.2 C 0 km/h
2836 30-06-2004 15:59:01 27.8 C 7.26 g/m*3 27.8 C 0 km/h
2837 30-06-2004 16:11:01 29.3 C 7.59 g/m*3 29.3 C 0 km/h
2838 30-06-2004 16:23:01 29.4 C 7.34 g/m*3 29.4 C 0 km/h
2839 30-06-2004 16:35:01 28.9 C 7.43 g/m*3 28.9 C 0 km/h
2840 30-06-2004 16:47:01 28.9 C 8 g/m*3 28.9 C 0 km/h
2841 30-06-2004 16:59:01 30.1 C 7.62 g/m*3 30.1 C 0 km/h
2842 30-06-2004 17:11:00 30.3 C 7.7 g/m*3 30.3 C 0 km/h
2843 30-06-2004 17:23:00 29 C 7.18 g/m*3 29 C 0 km/h
2844 30-06-2004 17:35:00 29.4 C 7.63 g/m*3 29.4 C 0 km/h
2845 30-06-2004 17:47:01 29.3 C 7.88 g/m*3 29.3 C 0 km/h
2846 30-06-2004 17:59:01 30.2 C 7.97 g/m*3 30.2 C 0 km/h
2847 30-06-2004 18:11:01 29 C 7.76 g/m*3 29 C 0 km/h
2848 30-06-2004 18:23:01 29.5 C 8.26 g/m*3 29.5 C 0 km/h
2849 30-06-2004 18:35:01 29.6 C 8.61 g/m*3 29.6 C 0 km/h
2850 30-06-2004 18:47:01 28.7 C 8.19 g/m*3 28.7 C 0 km/h
Sensor: Nr:Datum:Temp:Abs-Feuchte:Windchill:Wind:
Aussen-T/F 2851 30-06-2004 18:59:01 27.6 C 7.98 g/m*3 27.6 C 0 km/h
2852 30-06-2004 19:11:01 28.3 C 8.02 g/m*3 28.3 C 0 km/h
2853 30-06-2004 19:23:01 29.2 C 8.13 g/m*3 29.2 C 0 km/h
2854 30-06-2004 19:35:01 28.4 C 6.95 g/m*3 28.4 C 0 km/h
2855 30-06-2004 19:47:01 29 C 7.47 g/m*3 29 C 0 km/h
2856 30-06-2004 19:59:01 28.3 C 7.19 g/m*3 28.3 C 0 km/h
2857 30-06-2004 20:11:01 27 C 8.24 g/m*3 27 C 0 km/h
2858 30-06-2004 20:23:01 25.7 C 7.66 g/m*3 25.7 C 0 km/h
2859 30-06-2004 20:35:01 25.3 C 8.19 g/m*3 25.3 C 0 km/h
2860 30-06-2004 20:47:01 24.6 C 8.1 g/m*3 24.6 C 0 km/h
2861 30-06-2004 20:59:01 24.1 C 8.1 g/m*3 24.1 C 0 km/h
2862 30-06-2004 21:11:01 23.9 C 8.44 g/m*3 23.9 C 0 km/h
2863 30-06-2004 21:23:01 23.8 C 8.17 g/m*3 23.8 C 0 km/h
2864 30-06-2004 21:35:01 23.5 C 8.25 g/m*3 23.5 C 0 km/h
2865 30-06-2004 21:47:01 23.2 C 8.32 g/m*3 23.2 C 0 km/h
2866 30-06-2004 21:59:01 22.8 C 8.74 g/m*3 22.8 C 0 km/h
2867 30-06-2004 22:11:01 22.4 C 8.54 g/m*3 22.4 C 0 km/h
2868 30-06-2004 22:23:01 22 C 8.15 g/m*3 22 C 0 km/h
2869 30-06-2004 22:35:01 21.7 C 8.58 g/m*3 21.7 C 0 km/h
2870 30-06-2004 22:47:01 21.4 C 8.44 g/m*3 21.4 C 0 km/h
2871 30-06-2004 22:59:01 21.2 C 8.34 g/m*3 21.2 C 0 km/h
2872 30-06-2004 23:11:01 20.9 C 8.2 g/m*3 20.9 C 0 km/h
2873 30-06-2004 23:23:01 20.7 C 8.82 g/m*3 20.7 C 0 km/h
2874 30-06-2004 23:35:01 20.3 C 8.44 g/m*3 20.3 C 0 km/h
2875 30-06-2004 23:47:01 20.4 C 8.31 g/m*3 20.4 C 0 km/h
Sensor: Nr:Datum:Temp:Abs-Feuchte:Windchill:Wind:
Aussen-T/F 2876 30-06-2004 23:59:01 20.3 C 8.44 g/m*3 20.3 C 0 km/h
2877 01-07-2004 00:11:01 20.1 C 8.52 g/m*3 20.1 C 0 km/h
2878 01-07-2004 00:23:01 19.7 C 8.66 g/m*3 19.7 C 0 km/h
2879 01-07-2004 00:35:00 19.7 C 8.66 g/m*3 19.7 C 0 km/h
2880 01-07-2004 00:47:01 19.4 C 8.51 g/m*3 19.4 C 0 km/h
2881 01-07-2004 00:59:01 19.1 C 8.69 g/m*3 19.1 C 0 km/h
2882 01-07-2004 01:11:01 19.1 C 8.52 g/m*3 19.1 C 0 km/h
2883 01-07-2004 01:23:01 19.1 C 8.85 g/m*3 19.1 C 0 km/h
2884 01-07-2004 01:35:01 18.7 C 8.81 g/m*3 18.7 C 0 km/h
2885 01-07-2004 01:47:01 18.5 C 8.86 g/m*3 18.5 C 0 km/h
2886 01-07-2004 01:59:01 18.3 C 8.76 g/m*3 18.3 C 0 km/h
2887 01-07-2004 02:11:01 18.3 C 8.76 g/m*3 18.3 C 0 km/h
2888 01-07-2004 02:23:01 17.8 C 8.65 g/m*3 17.8 C 0 km/h
2889 01-07-2004 02:35:01 17.7 C 8.75 g/m*3 17.7 C 0 km/h
2890 01-07-2004 02:48:03 17.2 C 8.93 g/m*3 17.2 C 0 km/h
2891 01-07-2004 03:00:03 17 C 8.97 g/m*3 17 C 0 km/h
2892 01-07-2004 03:12:03 17 C 8.97 g/m*3 17 C 0 km/h
2893 01-07-2004 03:24:03 16.7 C 9.24 g/m*3 16.7 C 0 km/h
2894 01-07-2004 03:36:01 16.5 C 9.27 g/m*3 16.5 C 0 km/h
2895 01-07-2004 03:48:01 16.5 C 9.27 g/m*3 16.5 C 0 km/h
2896 01-07-2004 04:00:01 16.4 C 9.21 g/m*3 16.4 C 0 km/h
2897 01-07-2004 04:12:01 16.3 C 9.16 g/m*3 16.3 C 0 km/h
2898 01-07-2004 04:24:01 16.1 C 9.18 g/m*3 16.1 C 0 km/h
2899 01-07-2004 04:36:01 16.4 C 9.21 g/m*3 16.4 C 0 km/h
2900 01-07-2004 04:48:01 16.4 C 9.21 g/m*3 16.4 C 0 km/h
Sensor: Nr:Datum:Temp:Abs-Feuchte:Windchill:Wind:
Aussen-T/F 2901 01-07-2004 05:00:01 16.6 C 9.18 g/m*3 16.6 C 0 km/h
2902 01-07-2004 05:12:01 16.5 C 9.13 g/m*3 16.5 C 0 km/h
2903 01-07-2004 05:24:01 16.8 C 9.01 g/m*3 16.8 C 0 km/h
2904 01-07-2004 05:36:01 16.8 C 9.15 g/m*3 16.8 C 0 km/h
2905 01-07-2004 05:48:01 16.6 C 9.18 g/m*3 16.6 C 0 km/h
2906 01-07-2004 06:00:01 16.5 C 9.13 g/m*3 16.5 C 0 km/h
2907 01-07-2004 06:12:01 16.4 C 9.35 g/m*3 16.4 C 0 km/h
2908 01-07-2004 06:24:01 16.6 C 9.32 g/m*3 16.6 C 0 km/h
2909 01-07-2004 06:36:01 16.7 C 9.24 g/m*3 16.7 C 0 km/h
2910 01-07-2004 06:48:01 16.6 C 9.32 g/m*3 16.6 C 0 km/h
2911 01-07-2004 07:00:01 16.7 C 9.38 g/m*3 16.7 C 0 km/h
2912 01-07-2004 07:12:00 16.9 C 9.49 g/m*3 16.9 C 0 km/h
2913 01-07-2004 07:24:00 17 C 9.26 g/m*3 17 C 0 km/h
2914 01-07-2004 07:36:00 17.3 C 9.43 g/m*3 17.3 C 0 km/h
2915 01-07-2004 07:48:01 17.3 C 9.13 g/m*3 17.3 C 0 km/h
2916 01-07-2004 08:00:01 17.4 C 9.48 g/m*3 17.4 C 0 km/h
2917 01-07-2004 08:12:01 17.3 C 9.58 g/m*3 17.3 C 0 km/h
2918 01-07-2004 08:24:00 17.3 C 9.43 g/m*3 17.3 C 0 km/h
2919 01-07-2004 08:36:00 17.2 C 9.23 g/m*3 17.2 C 0 km/h
2920 01-07-2004 08:48:01 17.2 C 8.79 g/m*3 17.2 C 0 km/h
2921 01-07-2004 09:00:01 17.2 C 8.49 g/m*3 17.2 C 0 km/h
2922 01-07-2004 09:12:01 17.3 C 8.54 g/m*3 17.3 C 0 km/h
2923 01-07-2004 09:24:01 17.2 C 8.49 g/m*3 17.2 C 0 km/h
2924 01-07-2004 09:36:00 17.4 C 8.74 g/m*3 17.4 C 0 km/h
2925 01-07-2004 09:48:01 17.3 C 8.69 g/m*3 17.3 C 0 km/h
Sensor: Nr:Datum:Temp:Abs-Feuchte:Windchill:Wind:
Aussen-T/F 2926 01-07-2004 10:00:01 17.5 C 8.8 g/m*3 17.5 C 0 km/h
2927 01-07-2004 10:12:01 18.1 C 8.81 g/m*3 18.1 C 0 km/h
2928 01-07-2004 10:24:01 18.6 C 8.91 g/m*3 18.6 C 0 km/h
2929 01-07-2004 10:36:01 18.5 C 8.86 g/m*3 18.5 C 0 km/h
2930 01-07-2004 10:48:01 18.1 C 8.81 g/m*3 18.1 C 0 km/h
2931 01-07-2004 11:00:01 18.1 C 9.12 g/m*3 18.1 C 0 km/h
2932 01-07-2004 11:12:01 18.3 C 9.07 g/m*3 18.3 C 0 km/h
2933 01-07-2004 11:24:01 19.1 C 9.02 g/m*3 19.1 C 0 km/h
2934 01-07-2004 11:36:01 19.2 C 8.9 g/m*3 19.2 C 0 km/h
2935 01-07-2004 11:48:01 19.4 C 8.51 g/m*3 19.4 C 0 km/h
2936 01-07-2004 12:00:01 19.9 C 7.9 g/m*3 19.9 C 0 km/h
2937 01-07-2004 12:12:01 19.8 C 7.52 g/m*3 19.8 C 0 km/h
2938 01-07-2004 12:24:01 19.6 C 7.6 g/m*3 19.6 C 0 km/h
2939 01-07-2004 12:36:01 19.8 C 7.34 g/m*3 19.8 C 0 km/h
2940 01-07-2004 12:48:01 18.9 C 6.97 g/m*3 18.9 C 0 km/h
2941 01-07-2004 13:00:01 19.9 C 7.22 g/m*3 19.9 C 0 km/h
2942 01-07-2004 13:12:01 19.6 C 6.75 g/m*3 19.6 C 0 km/h
2943 01-07-2004 13:24:01 19.6 C 6.92 g/m*3 19.6 C 0 km/h
2944 01-07-2004 13:36:01 19.1 C 7.05 g/m*3 19.1 C 0 km/h
2945 01-07-2004 13:48:01 19.4 C 6.84 g/m*3 19.4 C 0 km/h
2946 01-07-2004 14:00:01 20 C 6.91 g/m*3 20 C 0 km/h
2947 01-07-2004 14:12:01 19.4 C 7.01 g/m*3 19.4 C 0 km/h
2948 01-07-2004 14:24:01 20.3 C 6.86 g/m*3 20.3 C 0 km/h
2949 01-07-2004 14:36:01 20.4 C 6.72 g/m*3 20.4 C 0 km/h
2950 01-07-2004 14:48:01 19.8 C 6.49 g/m*3 19.8 C 0 km/h
Sensor: Nr:Datum:Temp:Abs-Feuchte:Windchill:Wind:
Aussen-T/F 2951 01-07-2004 15:00:01 20 C 6.57 g/m*3 20 C 0 km/h
2952 01-07-2004 15:12:01 20.8 C 6.7 g/m*3 20.8 C 0 km/h
2953 01-07-2004 15:24:01 19.7 C 6.45 g/m*3 19.7 C 0 km/h
2954 01-07-2004 15:36:01 20.8 C 6.7 g/m*3 20.8 C 0 km/h
2955 01-07-2004 15:48:01 20.4 C 6.55 g/m*3 20.4 C 0 km/h
2956 01-07-2004 16:00:01 20.1 C 6.61 g/m*3 20.1 C 0 km/h
2957 01-07-2004 16:12:01 20 C 6.22 g/m*3 20 C 0 km/h
2958 01-07-2004 16:24:01 20.1 C 6.43 g/m*3 20.1 C 0 km/h
2959 01-07-2004 16:36:01 20.1 C 6.43 g/m*3 20.1 C 0 km/h
2960 01-07-2004 16:48:01 20.9 C 6.37 g/m*3 20.9 C 0 km/h
2961 01-07-2004 17:00:01 20.4 C 6.9 g/m*3 20.4 C 0 km/h
2962 01-07-2004 17:12:01 20.2 C 6.82 g/m*3 20.2 C 0 km/h
2963 01-07-2004 17:24:01 20.4 C 6.55 g/m*3 20.4 C 0 km/h
2964 01-07-2004 17:36:01 19.7 C 6.79 g/m*3 19.7 C 0 km/h
2965 01-07-2004 17:48:02 18.9 C 6.32 g/m*3 18.9 C 0 km/h
2966 01-07-2004 18:00:02 18.8 C 6.6 g/m*3 18.8 C 0 km/h
2967 01-07-2004 18:12:01 18.9 C 6.48 g/m*3 18.9 C 0 km/h
2968 01-07-2004 18:24:01 19.1 C 6.56 g/m*3 19.1 C 0 km/h
2969 01-07-2004 18:36:01 19.6 C 6.58 g/m*3 19.6 C 0 km/h
2970 01-07-2004 18:48:01 20.7 C 6.66 g/m*3 20.7 C 0 km/h
2971 01-07-2004 19:00:01 20 C 6.57 g/m*3 20 C 0 km/h
2972 01-07-2004 19:12:02 19.8 C 7.17 g/m*3 19.8 C 0 km/h
2973 01-07-2004 19:24:01 19.4 C 7.01 g/m*3 19.4 C 0 km/h
2974 01-07-2004 19:36:01 19.5 C 7.05 g/m*3 19.5 C 0 km/h
2975 01-07-2004 19:48:01 19.2 C 7.26 g/m*3 19.2 C 0 km/h
Sensor: Nr:Datum:Temp:Abs-Feuchte:Windchill:Wind:
Aussen-T/F 2976 01-07-2004 20:00:01 19.1 C 7.21 g/m*3 19.1 C 0 km/h
2977 01-07-2004 20:12:01 19 C 7.33 g/m*3 19 C 0 km/h
2978 01-07-2004 20:24:01 18.8 C 7.25 g/m*3 18.8 C 0 km/h
2979 01-07-2004 20:36:01 18.6 C 7.32 g/m*3 18.6 C 0 km/h
2980 01-07-2004 20:48:02 18.4 C 7.24 g/m*3 18.4 C 0 km/h
2981 01-07-2004 21:00:02 18.2 C 7.31 g/m*3 18.2 C 0 km/h
2982 01-07-2004 21:12:02 17.9 C 7.48 g/m*3 17.9 C 0 km/h
2983 01-07-2004 21:24:02 17.3 C 7.51 g/m*3 17.3 C 0 km/h
2984 01-07-2004 21:36:02 16.8 C 7.58 g/m*3 16.8 C 0 km/h
2985 01-07-2004 21:48:01 16.5 C 7.58 g/m*3 16.5 C 0 km/h
2986 01-07-2004 22:00:01 16.2 C 7.58 g/m*3 16.2 C 0 km/h
2987 01-07-2004 22:12:01 16.2 C 7.58 g/m*3 16.2 C 0 km/h
2988 01-07-2004 22:24:01 16.3 C 7.63 g/m*3 16.3 C 0 km/h
2989 01-07-2004 22:36:01 16.3 C 7.63 g/m*3 16.3 C 0 km/h
2990 01-07-2004 22:48:01 16.4 C 7.82 g/m*3 16.4 C 0 km/h
2991 01-07-2004 23:00:01 16.2 C 8 g/m*3 16.2 C 0 km/h
2992 01-07-2004 23:12:01 16 C 7.9 g/m*3 16 C 0 km/h
2993 01-07-2004 23:24:01 15 C 8.33 g/m*3 15 C 0 km/h
2994 01-07-2004 23:36:01 13.6 C 9.3 g/m*3 13.6 C 0 km/h
2995 01-07-2004 23:48:01 13.1 C 9.47 g/m*3 13.1 C 0 km/h
2996 02-07-2004 00:00:01 13.1 C 9.59 g/m*3 13.1 C 0 km/h
2997 02-07-2004 00:12:01 13.1 C 9.59 g/m*3 13.1 C 0 km/h
2998 02-07-2004 00:24:00 13.2 C 9.64 g/m*3 13.2 C 0 km/h
2999 02-07-2004 00:36:00 13.4 C 9.42 g/m*3 13.4 C 0 km/h
3000 02-07-2004 00:48:01 13.1 C 9.36 g/m*3 13.1 C 0 km/h
Sensor: Nr:Datum:Temp:Abs-Feuchte:Windchill:Wind:
Aussen-T/F 3001 02-07-2004 01:00:01 13.2 C 9.3 g/m*3 13.2 C 0 km/h
3002 02-07-2004 01:12:01 13.3 C 9.24 g/m*3 13.3 C 0 km/h
3003 02-07-2004 01:24:01 13.3 C 9.24 g/m*3 13.3 C 0 km/h
3004 02-07-2004 01:36:01 13.1 C 9.24 g/m*3 13.1 C 0 km/h
3005 02-07-2004 01:48:01 12.9 C 9.24 g/m*3 12.9 C 0 km/h
3006 02-07-2004 02:00:02 12.7 C 9.24 g/m*3 12.7 C 0 km/h
3007 02-07-2004 02:12:01 12.5 C 9.13 g/m*3 12.5 C 0 km/h
3008 02-07-2004 02:24:01 12.3 C 9.01 g/m*3 12.3 C 0 km/h
3009 02-07-2004 02:36:01 12.2 C 8.96 g/m*3 12.2 C 0 km/h
3010 02-07-2004 02:49:03 12.2 C 8.85 g/m*3 12.2 C 0 km/h
3011 02-07-2004 03:01:03 12 C 8.85 g/m*3 12 C 0 km/h
3012 02-07-2004 03:13:03 12.1 C 8.9 g/m*3 12.1 C 0 km/h
3013 02-07-2004 03:25:03 12.2 C 8.96 g/m*3 12.2 C 0 km/h
3014 02-07-2004 03:37:01 12.3 C 8.9 g/m*3 12.3 C 0 km/h
3015 02-07-2004 03:49:01 12.3 C 8.9 g/m*3 12.3 C 0 km/h
3016 02-07-2004 04:01:01 12.4 C 8.96 g/m*3 12.4 C 0 km/h
3017 02-07-2004 04:13:01 12.4 C 8.96 g/m*3 12.4 C 0 km/h
3018 02-07-2004 04:25:01 12.2 C 8.85 g/m*3 12.2 C 0 km/h
3019 02-07-2004 04:37:00 12.1 C 8.9 g/m*3 12.1 C 0 km/h
3020 02-07-2004 04:49:01 12 C 8.85 g/m*3 12 C 0 km/h
3021 02-07-2004 05:01:01 12.1 C 8.9 g/m*3 12.1 C 0 km/h
3022 02-07-2004 05:13:01 12.2 C 8.96 g/m*3 12.2 C 0 km/h
3023 02-07-2004 05:25:01 12.1 C 8.9 g/m*3 12.1 C 0 km/h
3024 02-07-2004 05:37:01 12.3 C 9.01 g/m*3 12.3 C 0 km/h
3025 02-07-2004 05:49:01 12.2 C 8.96 g/m*3 12.2 C 0 km/h
Sensor: Nr:Datum:Temp:Abs-Feuchte:Windchill:Wind:
Aussen-T/F 3026 02-07-2004 06:01:01 12.1 C 8.9 g/m*3 12.1 C 0 km/h
3027 02-07-2004 06:13:01 12.2 C 8.96 g/m*3 12.2 C 0 km/h
3028 02-07-2004 06:25:01 12.4 C 9.07 g/m*3 12.4 C 0 km/h
3029 02-07-2004 06:37:00 12.5 C 9.02 g/m*3 12.5 C 0 km/h
3030 02-07-2004 06:49:01 12.6 C 9.07 g/m*3 12.6 C 0 km/h
3031 02-07-2004 07:01:01 12.8 C 9.07 g/m*3 12.8 C 0 km/h
3032 02-07-2004 07:13:01 12.8 C 9.07 g/m*3 12.8 C 0 km/h
3033 02-07-2004 07:25:01 13.1 C 9.13 g/m*3 13.1 C 0 km/h
3034 02-07-2004 07:37:01 13.4 C 9.18 g/m*3 13.4 C 0 km/h
3035 02-07-2004 07:49:01 13.6 C 9.18 g/m*3 13.6 C 0 km/h
3036 02-07-2004 08:01:01 13.6 C 9.18 g/m*3 13.6 C 0 km/h
3037 02-07-2004 08:13:01 14.2 C 9.28 g/m*3 14.2 C 0 km/h
3038 02-07-2004 08:25:01 14.5 C 9.2 g/m*3 14.5 C 0 km/h
3039 02-07-2004 08:37:01 14.8 C 9.25 g/m*3 14.8 C 0 km/h
3040 02-07-2004 08:49:01 15 C 9.23 g/m*3 15 C 0 km/h
3041 02-07-2004 09:01:01 15.8 C 9.29 g/m*3 15.8 C 0 km/h
3042 02-07-2004 09:13:01 15.9 C 9.21 g/m*3 15.9 C 0 km/h
3043 02-07-2004 09:25:00 15.8 C 9.29 g/m*3 15.8 C 0 km/h
3044 02-07-2004 09:37:00 14.7 C 9.19 g/m*3 14.7 C 0 km/h
3045 02-07-2004 09:49:01 13.8 C 9.29 g/m*3 13.8 C 0 km/h
3046 02-07-2004 10:01:01 13.7 C 9.59 g/m*3 13.7 C 0 km/h
3047 02-07-2004 10:13:01 14.4 C 10.01 g/m*3 14.4 C 0 km/h
3048 02-07-2004 10:25:01 14.5 C 9.95 g/m*3 14.5 C 0 km/h
3049 02-07-2004 10:37:01 14.2 C 9.65 g/m*3 14.2 C 0 km/h
3050 02-07-2004 10:49:01 14.2 C 9.77 g/m*3 14.2 C 0 km/h
Sensor: Nr:Datum:Temp:Abs-Feuchte:Windchill:Wind:
Aussen-T/F 3051 02-07-2004 11:01:01 15 C 9.75 g/m*3 15 C 0 km/h
3052 02-07-2004 11:13:01 15.3 C 9.53 g/m*3 15.3 C 0 km/h
3053 02-07-2004 11:25:01 16.4 C 9.63 g/m*3 16.4 C 0 km/h
3054 02-07-2004 11:37:01 17 C 9.12 g/m*3 17 C 0 km/h
3055 02-07-2004 11:49:01 17.6 C 9 g/m*3 17.6 C 0 km/h
3056 02-07-2004 12:01:01 17.5 C 8.95 g/m*3 17.5 C 0 km/h
3057 02-07-2004 12:13:01 16.6 C 8.76 g/m*3 16.6 C 0 km/h
3058 02-07-2004 12:25:01 17.3 C 8.84 g/m*3 17.3 C 0 km/h
3059 02-07-2004 12:37:00 18.3 C 9.07 g/m*3 18.3 C 0 km/h
3060 02-07-2004 12:49:01 18.8 C 8.86 g/m*3 18.8 C 0 km/h
3061 02-07-2004 13:01:01 18.3 C 8.13 g/m*3 18.3 C 0 km/h
3062 02-07-2004 13:13:01 18.2 C 8.39 g/m*3 18.2 C 0 km/h
3063 02-07-2004 13:25:01 18.1 C 8.65 g/m*3 18.1 C 0 km/h
3064 02-07-2004 13:37:01 17.8 C 8.5 g/m*3 17.8 C 0 km/h
3065 02-07-2004 13:49:01 17.3 C 8.69 g/m*3 17.3 C 0 km/h
3066 02-07-2004 14:01:01 16.5 C 8.71 g/m*3 16.5 C 0 km/h
3067 02-07-2004 14:13:01 17.4 C 8.74 g/m*3 17.4 C 0 km/h
3068 02-07-2004 14:25:01 17.8 C 8.8 g/m*3 17.8 C 0 km/h
3069 02-07-2004 14:37:01 18.7 C 8.33 g/m*3 18.7 C 0 km/h
3070 02-07-2004 14:49:01 19.5 C 8.39 g/m*3 19.5 C 0 km/h
3071 02-07-2004 15:01:01 19.6 C 8.27 g/m*3 19.6 C 0 km/h
3072 02-07-2004 15:13:01 20.6 C 8.59 g/m*3 20.6 C 0 km/h
3073 02-07-2004 15:25:01 20 C 8.12 g/m*3 20 C 0 km/h
3074 02-07-2004 15:37:01 19.4 C 8.34 g/m*3 19.4 C 0 km/h
3075 02-07-2004 15:49:01 19.3 C 8.63 g/m*3 19.3 C 0 km/h
Sensor: Nr:Datum:Temp:Abs-Feuchte:Windchill:Wind:
Aussen-T/F 3076 02-07-2004 16:01:01 18.6 C 8.59 g/m*3 18.6 C 0 km/h
3077 02-07-2004 16:13:01 17.3 C 10.16 g/m*3 17.3 C 0 km/h
3078 02-07-2004 16:25:01 17.9 C 9.77 g/m*3 17.9 C 0 km/h
3079 02-07-2004 16:37:01 18.5 C 9.18 g/m*3 18.5 C 0 km/h
3080 02-07-2004 16:49:01 18.9 C 8.59 g/m*3 18.9 C 0 km/h
3081 02-07-2004 17:01:01 19.6 C 8.78 g/m*3 19.6 C 0 km/h
3082 02-07-2004 17:13:01 19.3 C 8.63 g/m*3 19.3 C 0 km/h
3083 02-07-2004 17:25:01 19.3 C 8.46 g/m*3 19.3 C 0 km/h
3084 02-07-2004 17:37:01 19 C 8.64 g/m*3 19 C 0 km/h
3085 02-07-2004 17:49:25 18.4 C 8.34 g/m*3 18.4 C 0 km/h
3086 02-07-2004 18:01:01 19.3 C 8.46 g/m*3 19.3 C 0 km/h
3087 02-07-2004 18:13:02 20.6 C 8.77 g/m*3 20.6 C 0 km/h
3088 02-07-2004 18:25:01 19.1 C 8.52 g/m*3 19.1 C 0 km/h
3089 02-07-2004 18:37:01 18.6 C 8.44 g/m*3 18.6 C 0 km/h
3090 02-07-2004 18:49:01 19.8 C 8.54 g/m*3 19.8 C 0 km/h
3091 02-07-2004 19:01:01 19.9 C 8.42 g/m*3 19.9 C 0 km/h
3092 02-07-2004 19:13:01 19.7 C 8.49 g/m*3 19.7 C 0 km/h
3093 02-07-2004 19:25:01 19.1 C 8.52 g/m*3 19.1 C 0 km/h
3094 02-07-2004 19:37:01 18.8 C 8.7 g/m*3 18.8 C 0 km/h
3095 02-07-2004 19:49:01 20.1 C 8.52 g/m*3 20.1 C 0 km/h
3096 02-07-2004 20:01:01 20.3 C 8.27 g/m*3 20.3 C 0 km/h
3097 02-07-2004 20:13:01 20.3 C 8.09 g/m*3 20.3 C 0 km/h
3098 02-07-2004 20:25:01 20 C 8.3 g/m*3 20 C 0 km/h
3099 02-07-2004 20:37:01 19.3 C 8.29 g/m*3 19.3 C 0 km/h
3100 02-07-2004 20:49:01 18.9 C 8.42 g/m*3 18.9 C 0 km/h
Sensor: Nr:Datum:Temp:Abs-Feuchte:Windchill:Wind:
Aussen-T/F 3101 02-07-2004 21:01:01 18.5 C 8.39 g/m*3 18.5 C 0 km/h
3102 02-07-2004 21:13:01 18 C 8.14 g/m*3 18 C 0 km/h
3103 02-07-2004 21:25:01 17.7 C 8.3 g/m*3 17.7 C 0 km/h
3104 02-07-2004 21:37:01 17.5 C 8.35 g/m*3 17.5 C 0 km/h
3105 02-07-2004 21:49:01 17.4 C 8.15 g/m*3 17.4 C 0 km/h
3106 02-07-2004 22:01:01 15.6 C 8.91 g/m*3 15.6 C 0 km/h
3107 02-07-2004 22:13:01 15.2 C 9.22 g/m*3 15.2 C 0 km/h
3108 02-07-2004 22:25:01 15.4 C 9.33 g/m*3 15.4 C 0 km/h
3109 02-07-2004 22:37:01 15.5 C 9.25 g/m*3 15.5 C 0 km/h
3110 02-07-2004 22:49:01 15.7 C 9.23 g/m*3 15.7 C 0 km/h
3111 02-07-2004 23:01:01 15.8 C 8.88 g/m*3 15.8 C 0 km/h
3112 02-07-2004 23:13:01 15.9 C 8.4 g/m*3 15.9 C 0 km/h
3113 02-07-2004 23:25:01 15.9 C 8.4 g/m*3 15.9 C 0 km/h
3114 02-07-2004 23:37:01 15.9 C 8.4 g/m*3 15.9 C 0 km/h
3115 02-07-2004 23:49:01 15.7 C 8.43 g/m*3 15.7 C 0 km/h
3116 03-07-2004 00:01:01 15.5 C 8.46 g/m*3 15.5 C 0 km/h
3117 03-07-2004 00:13:01 15.1 C 8.39 g/m*3 15.1 C 0 km/h
3118 03-07-2004 00:25:02 14.8 C 8.49 g/m*3 14.8 C 0 km/h
3119 03-07-2004 00:37:01 14.8 C 8.74 g/m*3 14.8 C 0 km/h
3120 03-07-2004 00:49:01 15 C 8.72 g/m*3 15 C 0 km/h
3121 03-07-2004 01:01:01 14.8 C 8.99 g/m*3 14.8 C 0 km/h
3122 03-07-2004 01:13:01 14.6 C 8.88 g/m*3 14.6 C 0 km/h
3123 03-07-2004 01:25:01 14.4 C 8.78 g/m*3 14.4 C 0 km/h
3124 03-07-2004 01:37:01 14.5 C 8.58 g/m*3 14.5 C 0 km/h
3125 03-07-2004 01:49:01 14.5 C 8.71 g/m*3 14.5 C 0 km/h
Sensor: Nr:Datum:Temp:Abs-Feuchte:Windchill:Wind:
Aussen-T/F 3126 03-07-2004 02:01:01 14.4 C 8.65 g/m*3 14.4 C 0 km/h
3127 03-07-2004 02:13:01 14.1 C 8.74 g/m*3 14.1 C 0 km/h
3128 03-07-2004 02:25:01 13.8 C 8.7 g/m*3 13.8 C 0 km/h
3129 03-07-2004 02:37:01 13.4 C 8.6 g/m*3 13.4 C 0 km/h
3130 03-07-2004 02:50:03 13.2 C 8.84 g/m*3 13.2 C 0 km/h
3131 03-07-2004 03:02:03 13.1 C 8.9 g/m*3 13.1 C 0 km/h
3132 03-07-2004 03:14:03 12.9 C 8.9 g/m*3 12.9 C 0 km/h
3133 03-07-2004 03:26:03 12.7 C 9.02 g/m*3 12.7 C 0 km/h
3134 03-07-2004 03:38:01 12.4 C 8.96 g/m*3 12.4 C 0 km/h
3135 03-07-2004 03:50:01 12.3 C 8.9 g/m*3 12.3 C 0 km/h
3136 03-07-2004 04:02:01 12.3 C 8.9 g/m*3 12.3 C 0 km/h
3137 03-07-2004 04:14:01 12.4 C 8.85 g/m*3 12.4 C 0 km/h
3138 03-07-2004 04:26:01 12.7 C 8.91 g/m*3 12.7 C 0 km/h
3139 03-07-2004 04:38:01 12.7 C 8.79 g/m*3 12.7 C 0 km/h
3140 03-07-2004 04:50:01 12.7 C 8.79 g/m*3 12.7 C 0 km/h
3141 03-07-2004 05:02:01 12.7 C 8.79 g/m*3 12.7 C 0 km/h
3142 03-07-2004 05:14:01 12.7 C 8.79 g/m*3 12.7 C 0 km/h
3143 03-07-2004 05:26:01 12.9 C 9.02 g/m*3 12.9 C 0 km/h
3144 03-07-2004 05:38:01 13 C 8.85 g/m*3 13 C 0 km/h
3145 03-07-2004 05:50:01 13.1 C 8.9 g/m*3 13.1 C 0 km/h
3146 03-07-2004 06:02:01 13.2 C 8.96 g/m*3 13.2 C 0 km/h
3147 03-07-2004 06:14:01 13.4 C 9.07 g/m*3 13.4 C 0 km/h
3148 03-07-2004 06:26:01 13.3 C 9.24 g/m*3 13.3 C 0 km/h
3149 03-07-2004 06:38:01 13 C 9.53 g/m*3 13 C 0 km/h
3150 03-07-2004 06:50:01 12.8 C 9.52 g/m*3 12.8 C 0 km/h
Sensor: Nr:Datum:Temp:Abs-Feuchte:Windchill:Wind:
Aussen-T/F 3151 03-07-2004 07:02:01 12.7 C 9.24 g/m*3 12.7 C 0 km/h
3152 03-07-2004 07:14:01 12.7 C 9.24 g/m*3 12.7 C 0 km/h
3153 03-07-2004 07:26:01 12.9 C 9.47 g/m*3 12.9 C 0 km/h
3154 03-07-2004 07:38:00 13.1 C 9.01 g/m*3 13.1 C 0 km/h
3155 03-07-2004 07:50:01 13.3 C 9.13 g/m*3 13.3 C 0 km/h
3156 03-07-2004 08:02:01 13.2 C 9.19 g/m*3 13.2 C 0 km/h
3157 03-07-2004 08:14:01 13.1 C 9.24 g/m*3 13.1 C 0 km/h
3158 03-07-2004 08:26:01 13.1 C 9.24 g/m*3 13.1 C 0 km/h
3159 03-07-2004 08:38:00 12.9 C 9.35 g/m*3 12.9 C 0 km/h
3160 03-07-2004 08:50:01 12.8 C 9.52 g/m*3 12.8 C 0 km/h
3161 03-07-2004 09:02:01 13.3 C 9.47 g/m*3 13.3 C 0 km/h
3162 03-07-2004 09:14:01 13.7 C 9.35 g/m*3 13.7 C 0 km/h
3163 03-07-2004 09:26:01 13.9 C 9.23 g/m*3 13.9 C 0 km/h
3164 03-07-2004 09:38:01 14.4 C 9.27 g/m*3 14.4 C 0 km/h
3165 03-07-2004 09:50:01 14.7 C 9.07 g/m*3 14.7 C 0 km/h
3166 03-07-2004 10:02:01 15.2 C 9.22 g/m*3 15.2 C 0 km/h
3167 03-07-2004 10:14:01 15.6 C 8.91 g/m*3 15.6 C 0 km/h
3168 03-07-2004 10:26:01 16 C 8.58 g/m*3 16 C 0 km/h
3169 03-07-2004 10:38:01 16.2 C 8.55 g/m*3 16.2 C 0 km/h
3170 03-07-2004 10:50:01 16.4 C 8.37 g/m*3 16.4 C 0 km/h
3171 03-07-2004 11:02:01 17 C 8.83 g/m*3 17 C 0 km/h
3172 03-07-2004 11:14:01 17.8 C 8.8 g/m*3 17.8 C 0 km/h
3173 03-07-2004 11:26:01 17.7 C 8.15 g/m*3 17.7 C 0 km/h
3174 03-07-2004 11:38:01 18.1 C 8.34 g/m*3 18.1 C 0 km/h
3175 03-07-2004 11:50:01 17.9 C 7.63 g/m*3 17.9 C 0 km/h
Sensor: Nr:Datum:Temp:Abs-Feuchte:Windchill:Wind:
Aussen-T/F 3176 03-07-2004 12:02:01 17.6 C 7.95 g/m*3 17.6 C 0 km/h
3177 03-07-2004 12:14:01 18.8 C 8.05 g/m*3 18.8 C 0 km/h
3178 03-07-2004 12:26:01 19.8 C 8.2 g/m*3 19.8 C 0 km/h
3179 03-07-2004 12:38:01 19.9 C 8.08 g/m*3 19.9 C 0 km/h
3180 03-07-2004 12:50:01 17.8 C 9.11 g/m*3 17.8 C 0 km/h
3181 03-07-2004 13:02:01 17.2 C 9.37 g/m*3 17.2 C 0 km/h
3182 03-07-2004 13:14:01 18.6 C 8.59 g/m*3 18.6 C 0 km/h
3183 03-07-2004 13:26:01 19.8 C 7.52 g/m*3 19.8 C 0 km/h
3184 03-07-2004 13:38:01 20.9 C 7.47 g/m*3 20.9 C 0 km/h
3185 03-07-2004 13:50:01 21 C 6.78 g/m*3 21 C 0 km/h
3186 03-07-2004 14:02:01 20.7 C 7.74 g/m*3 20.7 C 0 km/h
3187 03-07-2004 14:14:01 21.7 C 8.2 g/m*3 21.7 C 0 km/h
3188 03-07-2004 14:26:01 20.2 C 7.87 g/m*3 20.2 C 0 km/h
3189 03-07-2004 14:38:01 21 C 7.51 g/m*3 21 C 0 km/h
3190 03-07-2004 14:50:01 21.2 C 7.23 g/m*3 21.2 C 0 km/h
3191 03-07-2004 15:02:01 19.9 C 7.73 g/m*3 19.9 C 0 km/h
3192 03-07-2004 15:14:01 21 C 8.06 g/m*3 21 C 0 km/h
3193 03-07-2004 15:26:01 20 C 7.26 g/m*3 20 C 0 km/h
3194 03-07-2004 15:38:01 18.4 C 8.02 g/m*3 18.4 C 0 km/h
3195 03-07-2004 15:50:01 19.7 C 7.81 g/m*3 19.7 C 0 km/h
3196 03-07-2004 16:02:01 20.2 C 7.52 g/m*3 20.2 C 0 km/h
3197 03-07-2004 16:14:01 20.9 C 7.83 g/m*3 20.9 C 0 km/h
3198 03-07-2004 16:26:02 21.1 C 7.92 g/m*3 21.1 C 0 km/h
3199 03-07-2004 16:38:02 20.3 C 7.39 g/m*3 20.3 C 0 km/h
3200 03-07-2004 16:50:02 21 C 6.96 g/m*3 21 C 0 km/h
Sensor: Nr:Datum:Temp:Abs-Feuchte:Windchill:Wind:
Aussen-T/F 3201 03-07-2004 17:02:02 21.1 C 6.63 g/m*3 21.1 C 0 km/h
3202 03-07-2004 17:14:02 21.2 C 7.04 g/m*3 21.2 C 0 km/h
3203 03-07-2004 17:26:02 21.2 C 7.04 g/m*3 21.2 C 0 km/h
3204 03-07-2004 17:38:02 20.1 C 6.95 g/m*3 20.1 C 0 km/h
3205 03-07-2004 17:50:01 19.3 C 6.8 g/m*3 19.3 C 0 km/h
3206 03-07-2004 18:02:01 18.7 C 6.88 g/m*3 18.7 C 0 km/h
3207 03-07-2004 18:14:01 17.7 C 8.3 g/m*3 17.7 C 0 km/h
3208 03-07-2004 18:26:01 17.6 C 8.7 g/m*3 17.6 C 0 km/h
3209 03-07-2004 18:38:01 18.4 C 7.86 g/m*3 18.4 C 0 km/h
3210 03-07-2004 18:50:01 18.2 C 7.93 g/m*3 18.2 C 0 km/h
3211 03-07-2004 19:02:01 15.8 C 9.83 g/m*3 15.8 C 0 km/h
3212 03-07-2004 19:14:01 15.1 C 10.45 g/m*3 15.1 C 0 km/h
3213 03-07-2004 19:26:01 15.3 C 10.71 g/m*3 15.3 C 0 km/h
3214 03-07-2004 19:38:01 15.8 C 9.83 g/m*3 15.8 C 0 km/h
3215 03-07-2004 19:50:01 15.3 C 9.66 g/m*3 15.3 C 0 km/h
3216 03-07-2004 20:02:01 15.4 C 9.72 g/m*3 15.4 C 0 km/h
3217 03-07-2004 20:14:01 15.7 C 9.9 g/m*3 15.7 C 0 km/h
3218 03-07-2004 20:26:01 15.8 C 9.83 g/m*3 15.8 C 0 km/h
3219 03-07-2004 20:38:01 15.8 C 9.56 g/m*3 15.8 C 0 km/h
3220 03-07-2004 20:50:01 15.6 C 9.71 g/m*3 15.6 C 0 km/h
3221 03-07-2004 21:02:01 15.6 C 9.31 g/m*3 15.6 C 0 km/h
3222 03-07-2004 21:14:01 15.7 C 8.83 g/m*3 15.7 C 0 km/h
3223 03-07-2004 21:26:01 15.6 C 9.18 g/m*3 15.6 C 0 km/h
3224 03-07-2004 21:38:01 15.3 C 9.27 g/m*3 15.3 C